<?xml version="1.0"?>
<gpx xmlns="http://www.topografix.com/GPX/1/1" xmlns:xsi="http://www.w3.org/2001/XMLSchema-instance" version="1.1" creator="GPX RubyGem 1.0.0 -- http://dougfales.github.io/gpx/" xsi:schemaLocation="http://www.topografix.com/GPX/1/1 http://www.topografix.com/GPX/1/1/gpx.xsd">
  <metadata>
    <name/>
    <time>2026-05-08T09:49:01+00:00</time>
    <bound minlat="90.0" minlon="180.0" maxlat="-90.0" maxlon="-180.0"/>
  </metadata>
  <trk>
    <name/>
    <trkseg>
      <trkpt lat="44.622309" lon="6.228055">
        <time>2021-12-29T09:19:12+00:00</time>
        <ele>1396.0</ele>
      </trkpt>
      <trkpt lat="44.622299" lon="6.228055">
        <time>2021-12-29T09:19:14+00:00</time>
        <ele>1396.0</ele>
      </trkpt>
      <trkpt lat="44.622301" lon="6.228056">
        <time>2021-12-29T09:19:16+00:00</time>
        <ele>1396.0</ele>
      </trkpt>
      <trkpt lat="44.622316" lon="6.228065">
        <time>2021-12-29T09:19:20+00:00</time>
        <ele>1396.0</ele>
      </trkpt>
      <trkpt lat="44.622314" lon="6.228065">
        <time>2021-12-29T09:19:32+00:00</time>
        <ele>1396.0</ele>
      </trkpt>
      <trkpt lat="44.622309" lon="6.228065">
        <time>2021-12-29T09:19:35+00:00</time>
        <ele>1396.0</ele>
      </trkpt>
      <trkpt lat="44.622305" lon="6.228068">
        <time>2021-12-29T09:19:38+00:00</time>
        <ele>1396.0</ele>
      </trkpt>
      <trkpt lat="44.622291" lon="6.228072">
        <time>2021-12-29T09:19:53+00:00</time>
        <ele>1396.0</ele>
      </trkpt>
      <trkpt lat="44.622279" lon="6.228077">
        <time>2021-12-29T09:20:00+00:00</time>
        <ele>1396.0</ele>
      </trkpt>
      <trkpt lat="44.622237" lon="6.22809">
        <time>2021-12-29T09:20:03+00:00</time>
        <ele>1396.0</ele>
      </trkpt>
      <trkpt lat="44.622219" lon="6.228096">
        <time>2021-12-29T09:20:04+00:00</time>
        <ele>1396.0</ele>
      </trkpt>
      <trkpt lat="44.622192" lon="6.22811">
        <time>2021-12-29T09:20:06+00:00</time>
        <ele>1396.0</ele>
      </trkpt>
      <trkpt lat="44.622149" lon="6.228134">
        <time>2021-12-29T09:20:09+00:00</time>
        <ele>1396.0</ele>
      </trkpt>
      <trkpt lat="44.622148" lon="6.228142">
        <time>2021-12-29T09:20:16+00:00</time>
        <ele>1396.0</ele>
      </trkpt>
      <trkpt lat="44.622162" lon="6.22815">
        <time>2021-12-29T09:20:25+00:00</time>
        <ele>1396.0</ele>
      </trkpt>
      <trkpt lat="44.622162" lon="6.22815">
        <time>2021-12-29T09:20:30+00:00</time>
        <ele>1396.0</ele>
      </trkpt>
      <trkpt lat="44.622162" lon="6.22815">
        <time>2021-12-29T09:20:34+00:00</time>
        <ele>1396.0</ele>
      </trkpt>
      <trkpt lat="44.622158" lon="6.228152">
        <time>2021-12-29T09:20:40+00:00</time>
        <ele>1396.0</ele>
      </trkpt>
      <trkpt lat="44.622157" lon="6.228167">
        <time>2021-12-29T09:20:46+00:00</time>
        <ele>1396.0</ele>
      </trkpt>
      <trkpt lat="44.622157" lon="6.228202">
        <time>2021-12-29T09:20:50+00:00</time>
        <ele>1396.0</ele>
      </trkpt>
      <trkpt lat="44.622153" lon="6.228217">
        <time>2021-12-29T09:20:53+00:00</time>
        <ele>1396.0</ele>
      </trkpt>
      <trkpt lat="44.622127" lon="6.228276">
        <time>2021-12-29T09:20:56+00:00</time>
        <ele>1397.0</ele>
      </trkpt>
      <trkpt lat="44.622041" lon="6.228359">
        <time>2021-12-29T09:21:02+00:00</time>
        <ele>1397.0</ele>
      </trkpt>
      <trkpt lat="44.622032" lon="6.228387">
        <time>2021-12-29T09:21:04+00:00</time>
        <ele>1397.0</ele>
      </trkpt>
      <trkpt lat="44.622026" lon="6.228413">
        <time>2021-12-29T09:21:06+00:00</time>
        <ele>1397.0</ele>
      </trkpt>
      <trkpt lat="44.622025" lon="6.228425">
        <time>2021-12-29T09:21:07+00:00</time>
        <ele>1397.0</ele>
      </trkpt>
      <trkpt lat="44.622008" lon="6.228441">
        <time>2021-12-29T09:21:08+00:00</time>
        <ele>1397.0</ele>
      </trkpt>
      <trkpt lat="44.621961" lon="6.228464">
        <time>2021-12-29T09:21:11+00:00</time>
        <ele>1396.0</ele>
      </trkpt>
      <trkpt lat="44.621947" lon="6.228472">
        <time>2021-12-29T09:21:12+00:00</time>
        <ele>1396.0</ele>
      </trkpt>
      <trkpt lat="44.621906" lon="6.228509">
        <time>2021-12-29T09:21:15+00:00</time>
        <ele>1396.0</ele>
      </trkpt>
      <trkpt lat="44.621902" lon="6.228524">
        <time>2021-12-29T09:21:16+00:00</time>
        <ele>1396.0</ele>
      </trkpt>
      <trkpt lat="44.621882" lon="6.228558">
        <time>2021-12-29T09:21:19+00:00</time>
        <ele>1396.0</ele>
      </trkpt>
      <trkpt lat="44.621847" lon="6.228598">
        <time>2021-12-29T09:21:24+00:00</time>
        <ele>1396.0</ele>
      </trkpt>
      <trkpt lat="44.621836" lon="6.228607">
        <time>2021-12-29T09:21:25+00:00</time>
        <ele>1396.0</ele>
      </trkpt>
      <trkpt lat="44.621807" lon="6.228644">
        <time>2021-12-29T09:21:29+00:00</time>
        <ele>1396.0</ele>
      </trkpt>
      <trkpt lat="44.621772" lon="6.228671">
        <time>2021-12-29T09:21:32+00:00</time>
        <ele>1395.0</ele>
      </trkpt>
      <trkpt lat="44.621738" lon="6.228693">
        <time>2021-12-29T09:21:35+00:00</time>
        <ele>1395.0</ele>
      </trkpt>
      <trkpt lat="44.6217" lon="6.228709">
        <time>2021-12-29T09:21:38+00:00</time>
        <ele>1395.0</ele>
      </trkpt>
      <trkpt lat="44.621631" lon="6.228749">
        <time>2021-12-29T09:21:43+00:00</time>
        <ele>1395.0</ele>
      </trkpt>
      <trkpt lat="44.621546" lon="6.228773">
        <time>2021-12-29T09:21:48+00:00</time>
        <ele>1395.0</ele>
      </trkpt>
      <trkpt lat="44.621488" lon="6.228795">
        <time>2021-12-29T09:21:54+00:00</time>
        <ele>1395.0</ele>
      </trkpt>
      <trkpt lat="44.621479" lon="6.228803">
        <time>2021-12-29T09:21:55+00:00</time>
        <ele>1395.0</ele>
      </trkpt>
      <trkpt lat="44.621351" lon="6.228892">
        <time>2021-12-29T09:22:05+00:00</time>
        <ele>1395.0</ele>
      </trkpt>
      <trkpt lat="44.621336" lon="6.228904">
        <time>2021-12-29T09:22:06+00:00</time>
        <ele>1395.0</ele>
      </trkpt>
      <trkpt lat="44.621222" lon="6.228961">
        <time>2021-12-29T09:22:15+00:00</time>
        <ele>1395.0</ele>
      </trkpt>
      <trkpt lat="44.62113" lon="6.229">
        <time>2021-12-29T09:22:22+00:00</time>
        <ele>1395.0</ele>
      </trkpt>
      <trkpt lat="44.620982" lon="6.229037">
        <time>2021-12-29T09:22:32+00:00</time>
        <ele>1397.0</ele>
      </trkpt>
      <trkpt lat="44.620877" lon="6.22905">
        <time>2021-12-29T09:22:39+00:00</time>
        <ele>1398.0</ele>
      </trkpt>
      <trkpt lat="44.620783" lon="6.229068">
        <time>2021-12-29T09:22:46+00:00</time>
        <ele>1400.0</ele>
      </trkpt>
      <trkpt lat="44.620778" lon="6.229074">
        <time>2021-12-29T09:22:47+00:00</time>
        <ele>1400.0</ele>
      </trkpt>
      <trkpt lat="44.620736" lon="6.229087">
        <time>2021-12-29T09:22:52+00:00</time>
        <ele>1401.0</ele>
      </trkpt>
      <trkpt lat="44.620702" lon="6.229097">
        <time>2021-12-29T09:22:56+00:00</time>
        <ele>1402.0</ele>
      </trkpt>
      <trkpt lat="44.620679" lon="6.229121">
        <time>2021-12-29T09:23:00+00:00</time>
        <ele>1403.0</ele>
      </trkpt>
      <trkpt lat="44.620668" lon="6.229156">
        <time>2021-12-29T09:23:03+00:00</time>
        <ele>1403.0</ele>
      </trkpt>
      <trkpt lat="44.620658" lon="6.229182">
        <time>2021-12-29T09:23:05+00:00</time>
        <ele>1404.0</ele>
      </trkpt>
      <trkpt lat="44.620653" lon="6.229218">
        <time>2021-12-29T09:23:08+00:00</time>
        <ele>1404.0</ele>
      </trkpt>
      <trkpt lat="44.620652" lon="6.229264">
        <time>2021-12-29T09:23:12+00:00</time>
        <ele>1405.0</ele>
      </trkpt>
      <trkpt lat="44.620653" lon="6.229286">
        <time>2021-12-29T09:23:14+00:00</time>
        <ele>1405.0</ele>
      </trkpt>
      <trkpt lat="44.620656" lon="6.229325">
        <time>2021-12-29T09:23:17+00:00</time>
        <ele>1405.0</ele>
      </trkpt>
      <trkpt lat="44.620664" lon="6.229395">
        <time>2021-12-29T09:23:21+00:00</time>
        <ele>1405.0</ele>
      </trkpt>
      <trkpt lat="44.620667" lon="6.229433">
        <time>2021-12-29T09:23:24+00:00</time>
        <ele>1405.0</ele>
      </trkpt>
      <trkpt lat="44.620667" lon="6.229475">
        <time>2021-12-29T09:23:27+00:00</time>
        <ele>1406.0</ele>
      </trkpt>
      <trkpt lat="44.620669" lon="6.229507">
        <time>2021-12-29T09:23:29+00:00</time>
        <ele>1406.0</ele>
      </trkpt>
      <trkpt lat="44.620675" lon="6.229579">
        <time>2021-12-29T09:23:34+00:00</time>
        <ele>1407.0</ele>
      </trkpt>
      <trkpt lat="44.620676" lon="6.229605">
        <time>2021-12-29T09:23:36+00:00</time>
        <ele>1407.0</ele>
      </trkpt>
      <trkpt lat="44.620683" lon="6.229679">
        <time>2021-12-29T09:23:41+00:00</time>
        <ele>1408.0</ele>
      </trkpt>
      <trkpt lat="44.620693" lon="6.229709">
        <time>2021-12-29T09:23:43+00:00</time>
        <ele>1408.0</ele>
      </trkpt>
      <trkpt lat="44.620706" lon="6.229735">
        <time>2021-12-29T09:23:45+00:00</time>
        <ele>1407.0</ele>
      </trkpt>
      <trkpt lat="44.620718" lon="6.229771">
        <time>2021-12-29T09:23:47+00:00</time>
        <ele>1407.0</ele>
      </trkpt>
      <trkpt lat="44.620725" lon="6.229818">
        <time>2021-12-29T09:23:50+00:00</time>
        <ele>1407.0</ele>
      </trkpt>
      <trkpt lat="44.620732" lon="6.229848">
        <time>2021-12-29T09:23:52+00:00</time>
        <ele>1408.0</ele>
      </trkpt>
      <trkpt lat="44.620738" lon="6.229863">
        <time>2021-12-29T09:23:53+00:00</time>
        <ele>1407.0</ele>
      </trkpt>
      <trkpt lat="44.620745" lon="6.229882">
        <time>2021-12-29T09:23:55+00:00</time>
        <ele>1407.0</ele>
      </trkpt>
      <trkpt lat="44.620751" lon="6.229927">
        <time>2021-12-29T09:23:58+00:00</time>
        <ele>1408.0</ele>
      </trkpt>
      <trkpt lat="44.620764" lon="6.229991">
        <time>2021-12-29T09:24:06+00:00</time>
        <ele>1408.0</ele>
      </trkpt>
      <trkpt lat="44.620766" lon="6.230008">
        <time>2021-12-29T09:24:11+00:00</time>
        <ele>1408.0</ele>
      </trkpt>
      <trkpt lat="44.620759" lon="6.23001">
        <time>2021-12-29T09:24:15+00:00</time>
        <ele>1408.0</ele>
      </trkpt>
      <trkpt lat="44.620759" lon="6.23001">
        <time>2021-12-29T09:24:17+00:00</time>
        <ele>1408.0</ele>
      </trkpt>
      <trkpt lat="44.620759" lon="6.23001">
        <time>2021-12-29T09:24:20+00:00</time>
        <ele>1408.0</ele>
      </trkpt>
      <trkpt lat="44.620757" lon="6.230012">
        <time>2021-12-29T09:24:35+00:00</time>
        <ele>1408.0</ele>
      </trkpt>
      <trkpt lat="44.620721" lon="6.230059">
        <time>2021-12-29T09:24:51+00:00</time>
        <ele>1409.0</ele>
      </trkpt>
      <trkpt lat="44.620711" lon="6.230063">
        <time>2021-12-29T09:24:58+00:00</time>
        <ele>1409.0</ele>
      </trkpt>
      <trkpt lat="44.620706" lon="6.230062">
        <time>2021-12-29T09:25:08+00:00</time>
        <ele>1409.0</ele>
      </trkpt>
      <trkpt lat="44.620676" lon="6.230073">
        <time>2021-12-29T09:25:18+00:00</time>
        <ele>1410.0</ele>
      </trkpt>
      <trkpt lat="44.620648" lon="6.230082">
        <time>2021-12-29T09:25:22+00:00</time>
        <ele>1411.0</ele>
      </trkpt>
      <trkpt lat="44.620648" lon="6.230114">
        <time>2021-12-29T09:25:27+00:00</time>
        <ele>1412.0</ele>
      </trkpt>
      <trkpt lat="44.620654" lon="6.230142">
        <time>2021-12-29T09:25:31+00:00</time>
        <ele>1411.0</ele>
      </trkpt>
      <trkpt lat="44.62066" lon="6.230177">
        <time>2021-12-29T09:25:34+00:00</time>
        <ele>1411.0</ele>
      </trkpt>
      <trkpt lat="44.620689" lon="6.230206">
        <time>2021-12-29T09:25:37+00:00</time>
        <ele>1410.0</ele>
      </trkpt>
      <trkpt lat="44.6207" lon="6.23021">
        <time>2021-12-29T09:25:38+00:00</time>
        <ele>1410.0</ele>
      </trkpt>
      <trkpt lat="44.62071" lon="6.230195">
        <time>2021-12-29T09:25:40+00:00</time>
        <ele>1410.0</ele>
      </trkpt>
      <trkpt lat="44.620709" lon="6.230205">
        <time>2021-12-29T09:25:43+00:00</time>
        <ele>1410.0</ele>
      </trkpt>
      <trkpt lat="44.620706" lon="6.23022">
        <time>2021-12-29T09:25:44+00:00</time>
        <ele>1410.0</ele>
      </trkpt>
      <trkpt lat="44.620695" lon="6.230259">
        <time>2021-12-29T09:25:48+00:00</time>
        <ele>1411.0</ele>
      </trkpt>
      <trkpt lat="44.620697" lon="6.230258">
        <time>2021-12-29T09:25:49+00:00</time>
        <ele>1410.0</ele>
      </trkpt>
      <trkpt lat="44.620699" lon="6.230251">
        <time>2021-12-29T09:25:50+00:00</time>
        <ele>1410.0</ele>
      </trkpt>
      <trkpt lat="44.620696" lon="6.230255">
        <time>2021-12-29T09:25:52+00:00</time>
        <ele>1410.0</ele>
      </trkpt>
      <trkpt lat="44.620681" lon="6.23025">
        <time>2021-12-29T09:26:02+00:00</time>
        <ele>1411.0</ele>
      </trkpt>
      <trkpt lat="44.620681" lon="6.23025">
        <time>2021-12-29T09:26:08+00:00</time>
        <ele>1411.0</ele>
      </trkpt>
      <trkpt lat="44.620681" lon="6.23025">
        <time>2021-12-29T09:26:12+00:00</time>
        <ele>1411.0</ele>
      </trkpt>
      <trkpt lat="44.620681" lon="6.23025">
        <time>2021-12-29T09:26:16+00:00</time>
        <ele>1411.0</ele>
      </trkpt>
      <trkpt lat="44.620678" lon="6.230249">
        <time>2021-12-29T09:26:22+00:00</time>
        <ele>1411.0</ele>
      </trkpt>
      <trkpt lat="44.620654" lon="6.230271">
        <time>2021-12-29T09:26:28+00:00</time>
        <ele>1412.0</ele>
      </trkpt>
      <trkpt lat="44.620661" lon="6.230295">
        <time>2021-12-29T09:26:31+00:00</time>
        <ele>1412.0</ele>
      </trkpt>
      <trkpt lat="44.620649" lon="6.230319">
        <time>2021-12-29T09:26:35+00:00</time>
        <ele>1413.0</ele>
      </trkpt>
      <trkpt lat="44.620661" lon="6.230329">
        <time>2021-12-29T09:26:38+00:00</time>
        <ele>1412.0</ele>
      </trkpt>
      <trkpt lat="44.62068" lon="6.230365">
        <time>2021-12-29T09:26:43+00:00</time>
        <ele>1412.0</ele>
      </trkpt>
      <trkpt lat="44.620681" lon="6.230352">
        <time>2021-12-29T09:26:45+00:00</time>
        <ele>1412.0</ele>
      </trkpt>
      <trkpt lat="44.620679" lon="6.230352">
        <time>2021-12-29T09:26:47+00:00</time>
        <ele>1412.0</ele>
      </trkpt>
      <trkpt lat="44.620668" lon="6.230353">
        <time>2021-12-29T09:26:49+00:00</time>
        <ele>1412.0</ele>
      </trkpt>
      <trkpt lat="44.620664" lon="6.230358">
        <time>2021-12-29T09:26:50+00:00</time>
        <ele>1412.0</ele>
      </trkpt>
      <trkpt lat="44.620666" lon="6.230368">
        <time>2021-12-29T09:26:53+00:00</time>
        <ele>1412.0</ele>
      </trkpt>
      <trkpt lat="44.620664" lon="6.230353">
        <time>2021-12-29T09:26:57+00:00</time>
        <ele>1412.0</ele>
      </trkpt>
      <trkpt lat="44.620664" lon="6.230353">
        <time>2021-12-29T09:27:04+00:00</time>
        <ele>1412.0</ele>
      </trkpt>
      <trkpt lat="44.620664" lon="6.230353">
        <time>2021-12-29T09:27:07+00:00</time>
        <ele>1412.0</ele>
      </trkpt>
      <trkpt lat="44.620666" lon="6.23035">
        <time>2021-12-29T09:27:15+00:00</time>
        <ele>1412.0</ele>
      </trkpt>
      <trkpt lat="44.620668" lon="6.230284">
        <time>2021-12-29T09:27:31+00:00</time>
        <ele>1412.0</ele>
      </trkpt>
      <trkpt lat="44.620663" lon="6.230281">
        <time>2021-12-29T09:27:34+00:00</time>
        <ele>1412.0</ele>
      </trkpt>
      <trkpt lat="44.620661" lon="6.230275">
        <time>2021-12-29T09:27:38+00:00</time>
        <ele>1412.0</ele>
      </trkpt>
      <trkpt lat="44.620666" lon="6.230263">
        <time>2021-12-29T09:27:41+00:00</time>
        <ele>1412.0</ele>
      </trkpt>
      <trkpt lat="44.620667" lon="6.230249">
        <time>2021-12-29T09:27:43+00:00</time>
        <ele>1411.0</ele>
      </trkpt>
      <trkpt lat="44.620663" lon="6.230241">
        <time>2021-12-29T09:27:44+00:00</time>
        <ele>1412.0</ele>
      </trkpt>
      <trkpt lat="44.620645" lon="6.23021">
        <time>2021-12-29T09:27:48+00:00</time>
        <ele>1412.0</ele>
      </trkpt>
      <trkpt lat="44.620643" lon="6.230237">
        <time>2021-12-29T09:27:54+00:00</time>
        <ele>1412.0</ele>
      </trkpt>
      <trkpt lat="44.620639" lon="6.23027">
        <time>2021-12-29T09:27:58+00:00</time>
        <ele>1413.0</ele>
      </trkpt>
      <trkpt lat="44.62064" lon="6.230275">
        <time>2021-12-29T09:27:59+00:00</time>
        <ele>1413.0</ele>
      </trkpt>
      <trkpt lat="44.620646" lon="6.230286">
        <time>2021-12-29T09:28:05+00:00</time>
        <ele>1413.0</ele>
      </trkpt>
      <trkpt lat="44.620637" lon="6.23029">
        <time>2021-12-29T09:28:07+00:00</time>
        <ele>1413.0</ele>
      </trkpt>
      <trkpt lat="44.620621" lon="6.230289">
        <time>2021-12-29T09:28:10+00:00</time>
        <ele>1414.0</ele>
      </trkpt>
      <trkpt lat="44.620604" lon="6.230284">
        <time>2021-12-29T09:28:14+00:00</time>
        <ele>1414.0</ele>
      </trkpt>
      <trkpt lat="44.620607" lon="6.230259">
        <time>2021-12-29T09:28:23+00:00</time>
        <ele>1414.0</ele>
      </trkpt>
      <trkpt lat="44.620584" lon="6.230267">
        <time>2021-12-29T09:28:30+00:00</time>
        <ele>1415.0</ele>
      </trkpt>
      <trkpt lat="44.620578" lon="6.230245">
        <time>2021-12-29T09:28:39+00:00</time>
        <ele>1415.0</ele>
      </trkpt>
      <trkpt lat="44.62059" lon="6.230234">
        <time>2021-12-29T09:28:40+00:00</time>
        <ele>1414.0</ele>
      </trkpt>
      <trkpt lat="44.620604" lon="6.230207">
        <time>2021-12-29T09:28:42+00:00</time>
        <ele>1414.0</ele>
      </trkpt>
      <trkpt lat="44.620624" lon="6.230162">
        <time>2021-12-29T09:28:46+00:00</time>
        <ele>1413.0</ele>
      </trkpt>
      <trkpt lat="44.620633" lon="6.230121">
        <time>2021-12-29T09:28:50+00:00</time>
        <ele>1412.0</ele>
      </trkpt>
      <trkpt lat="44.620639" lon="6.230102">
        <time>2021-12-29T09:28:53+00:00</time>
        <ele>1412.0</ele>
      </trkpt>
      <trkpt lat="44.620642" lon="6.230083">
        <time>2021-12-29T09:28:55+00:00</time>
        <ele>1412.0</ele>
      </trkpt>
      <trkpt lat="44.620655" lon="6.230067">
        <time>2021-12-29T09:28:58+00:00</time>
        <ele>1411.0</ele>
      </trkpt>
      <trkpt lat="44.620672" lon="6.230051">
        <time>2021-12-29T09:29:01+00:00</time>
        <ele>1410.0</ele>
      </trkpt>
      <trkpt lat="44.620677" lon="6.230061">
        <time>2021-12-29T09:29:04+00:00</time>
        <ele>1410.0</ele>
      </trkpt>
      <trkpt lat="44.62069" lon="6.23003">
        <time>2021-12-29T09:29:07+00:00</time>
        <ele>1410.0</ele>
      </trkpt>
      <trkpt lat="44.620711" lon="6.229996">
        <time>2021-12-29T09:29:09+00:00</time>
        <ele>1409.0</ele>
      </trkpt>
      <trkpt lat="44.620746" lon="6.229954">
        <time>2021-12-29T09:29:12+00:00</time>
        <ele>1408.0</ele>
      </trkpt>
      <trkpt lat="44.620767" lon="6.229966">
        <time>2021-12-29T09:29:14+00:00</time>
        <ele>1407.0</ele>
      </trkpt>
      <trkpt lat="44.620781" lon="6.229981">
        <time>2021-12-29T09:29:15+00:00</time>
        <ele>1407.0</ele>
      </trkpt>
      <trkpt lat="44.620816" lon="6.230065">
        <time>2021-12-29T09:29:20+00:00</time>
        <ele>1406.0</ele>
      </trkpt>
      <trkpt lat="44.620815" lon="6.230079">
        <time>2021-12-29T09:29:21+00:00</time>
        <ele>1407.0</ele>
      </trkpt>
      <trkpt lat="44.62084" lon="6.230238">
        <time>2021-12-29T09:29:30+00:00</time>
        <ele>1407.0</ele>
      </trkpt>
      <trkpt lat="44.620845" lon="6.230347">
        <time>2021-12-29T09:29:36+00:00</time>
        <ele>1407.0</ele>
      </trkpt>
      <trkpt lat="44.620838" lon="6.230381">
        <time>2021-12-29T09:29:38+00:00</time>
        <ele>1407.0</ele>
      </trkpt>
      <trkpt lat="44.620849" lon="6.230439">
        <time>2021-12-29T09:29:41+00:00</time>
        <ele>1407.0</ele>
      </trkpt>
      <trkpt lat="44.62086" lon="6.230494">
        <time>2021-12-29T09:29:44+00:00</time>
        <ele>1407.0</ele>
      </trkpt>
      <trkpt lat="44.620858" lon="6.230532">
        <time>2021-12-29T09:29:46+00:00</time>
        <ele>1407.0</ele>
      </trkpt>
      <trkpt lat="44.620853" lon="6.230572">
        <time>2021-12-29T09:29:48+00:00</time>
        <ele>1408.0</ele>
      </trkpt>
      <trkpt lat="44.620858" lon="6.230607">
        <time>2021-12-29T09:29:50+00:00</time>
        <ele>1408.0</ele>
      </trkpt>
      <trkpt lat="44.620863" lon="6.230645">
        <time>2021-12-29T09:29:52+00:00</time>
        <ele>1408.0</ele>
      </trkpt>
      <trkpt lat="44.620865" lon="6.230664">
        <time>2021-12-29T09:29:54+00:00</time>
        <ele>1408.0</ele>
      </trkpt>
      <trkpt lat="44.620828" lon="6.23076">
        <time>2021-12-29T09:29:58+00:00</time>
        <ele>1410.0</ele>
      </trkpt>
      <trkpt lat="44.620831" lon="6.230841">
        <time>2021-12-29T09:30:03+00:00</time>
        <ele>1411.0</ele>
      </trkpt>
      <trkpt lat="44.620847" lon="6.230873">
        <time>2021-12-29T09:30:06+00:00</time>
        <ele>1410.0</ele>
      </trkpt>
      <trkpt lat="44.620845" lon="6.230872">
        <time>2021-12-29T09:30:09+00:00</time>
        <ele>1411.0</ele>
      </trkpt>
      <trkpt lat="44.620842" lon="6.23088">
        <time>2021-12-29T09:30:13+00:00</time>
        <ele>1411.0</ele>
      </trkpt>
      <trkpt lat="44.620848" lon="6.230887">
        <time>2021-12-29T09:30:15+00:00</time>
        <ele>1411.0</ele>
      </trkpt>
      <trkpt lat="44.620846" lon="6.230891">
        <time>2021-12-29T09:30:20+00:00</time>
        <ele>1411.0</ele>
      </trkpt>
      <trkpt lat="44.620846" lon="6.230891">
        <time>2021-12-29T09:30:23+00:00</time>
        <ele>1411.0</ele>
      </trkpt>
      <trkpt lat="44.620846" lon="6.230891">
        <time>2021-12-29T09:30:25+00:00</time>
        <ele>1411.0</ele>
      </trkpt>
      <trkpt lat="44.620846" lon="6.230891">
        <time>2021-12-29T09:30:30+00:00</time>
        <ele>1411.0</ele>
      </trkpt>
      <trkpt lat="44.620846" lon="6.23089">
        <time>2021-12-29T09:30:31+00:00</time>
        <ele>1411.0</ele>
      </trkpt>
      <trkpt lat="44.620846" lon="6.230889">
        <time>2021-12-29T09:30:36+00:00</time>
        <ele>1411.0</ele>
      </trkpt>
      <trkpt lat="44.620844" lon="6.230888">
        <time>2021-12-29T09:30:44+00:00</time>
        <ele>1411.0</ele>
      </trkpt>
      <trkpt lat="44.620842" lon="6.230894">
        <time>2021-12-29T09:30:47+00:00</time>
        <ele>1411.0</ele>
      </trkpt>
      <trkpt lat="44.620854" lon="6.230962">
        <time>2021-12-29T09:30:50+00:00</time>
        <ele>1411.0</ele>
      </trkpt>
      <trkpt lat="44.620865" lon="6.231105">
        <time>2021-12-29T09:30:57+00:00</time>
        <ele>1411.0</ele>
      </trkpt>
      <trkpt lat="44.620865" lon="6.231119">
        <time>2021-12-29T09:30:58+00:00</time>
        <ele>1411.0</ele>
      </trkpt>
      <trkpt lat="44.620869" lon="6.231183">
        <time>2021-12-29T09:31:04+00:00</time>
        <ele>1411.0</ele>
      </trkpt>
      <trkpt lat="44.620862" lon="6.231183">
        <time>2021-12-29T09:31:11+00:00</time>
        <ele>1412.0</ele>
      </trkpt>
      <trkpt lat="44.620862" lon="6.231187">
        <time>2021-12-29T09:31:15+00:00</time>
        <ele>1412.0</ele>
      </trkpt>
      <trkpt lat="44.620862" lon="6.231187">
        <time>2021-12-29T09:31:19+00:00</time>
        <ele>1412.0</ele>
      </trkpt>
      <trkpt lat="44.620862" lon="6.231187">
        <time>2021-12-29T09:31:22+00:00</time>
        <ele>1412.0</ele>
      </trkpt>
      <trkpt lat="44.620866" lon="6.231187">
        <time>2021-12-29T09:31:30+00:00</time>
        <ele>1412.0</ele>
      </trkpt>
      <trkpt lat="44.620869" lon="6.231192">
        <time>2021-12-29T09:31:35+00:00</time>
        <ele>1411.0</ele>
      </trkpt>
      <trkpt lat="44.620868" lon="6.231195">
        <time>2021-12-29T09:31:38+00:00</time>
        <ele>1411.0</ele>
      </trkpt>
      <trkpt lat="44.620868" lon="6.231195">
        <time>2021-12-29T09:31:40+00:00</time>
        <ele>1411.0</ele>
      </trkpt>
      <trkpt lat="44.620868" lon="6.231196">
        <time>2021-12-29T09:31:42+00:00</time>
        <ele>1411.0</ele>
      </trkpt>
      <trkpt lat="44.620868" lon="6.231196">
        <time>2021-12-29T09:31:45+00:00</time>
        <ele>1411.0</ele>
      </trkpt>
      <trkpt lat="44.620865" lon="6.231196">
        <time>2021-12-29T09:31:50+00:00</time>
        <ele>1412.0</ele>
      </trkpt>
      <trkpt lat="44.620863" lon="6.231196">
        <time>2021-12-29T09:31:55+00:00</time>
        <ele>1412.0</ele>
      </trkpt>
      <trkpt lat="44.620863" lon="6.231196">
        <time>2021-12-29T09:31:59+00:00</time>
        <ele>1412.0</ele>
      </trkpt>
      <trkpt lat="44.620863" lon="6.231195">
        <time>2021-12-29T09:32:06+00:00</time>
        <ele>1412.0</ele>
      </trkpt>
      <trkpt lat="44.620863" lon="6.231194">
        <time>2021-12-29T09:32:11+00:00</time>
        <ele>1412.0</ele>
      </trkpt>
      <trkpt lat="44.62086" lon="6.231196">
        <time>2021-12-29T09:32:23+00:00</time>
        <ele>1412.0</ele>
      </trkpt>
      <trkpt lat="44.620862" lon="6.231197">
        <time>2021-12-29T09:32:29+00:00</time>
        <ele>1412.0</ele>
      </trkpt>
      <trkpt lat="44.620862" lon="6.231198">
        <time>2021-12-29T09:32:31+00:00</time>
        <ele>1412.0</ele>
      </trkpt>
      <trkpt lat="44.620859" lon="6.231199">
        <time>2021-12-29T09:32:33+00:00</time>
        <ele>1412.0</ele>
      </trkpt>
      <trkpt lat="44.620857" lon="6.2312">
        <time>2021-12-29T09:32:35+00:00</time>
        <ele>1412.0</ele>
      </trkpt>
      <trkpt lat="44.620854" lon="6.231201">
        <time>2021-12-29T09:32:38+00:00</time>
        <ele>1412.0</ele>
      </trkpt>
      <trkpt lat="44.620852" lon="6.231203">
        <time>2021-12-29T09:32:42+00:00</time>
        <ele>1412.0</ele>
      </trkpt>
      <trkpt lat="44.620842" lon="6.231202">
        <time>2021-12-29T09:33:02+00:00</time>
        <ele>1413.0</ele>
      </trkpt>
      <trkpt lat="44.620844" lon="6.231196">
        <time>2021-12-29T09:33:20+00:00</time>
        <ele>1413.0</ele>
      </trkpt>
      <trkpt lat="44.620848" lon="6.231194">
        <time>2021-12-29T09:33:31+00:00</time>
        <ele>1412.0</ele>
      </trkpt>
      <trkpt lat="44.620852" lon="6.231195">
        <time>2021-12-29T09:33:35+00:00</time>
        <ele>1412.0</ele>
      </trkpt>
      <trkpt lat="44.620858" lon="6.231202">
        <time>2021-12-29T09:33:46+00:00</time>
        <ele>1412.0</ele>
      </trkpt>
      <trkpt lat="44.620869" lon="6.231203">
        <time>2021-12-29T09:33:51+00:00</time>
        <ele>1411.0</ele>
      </trkpt>
      <trkpt lat="44.620873" lon="6.231203">
        <time>2021-12-29T09:33:57+00:00</time>
        <ele>1411.0</ele>
      </trkpt>
      <trkpt lat="44.620865" lon="6.231201">
        <time>2021-12-29T09:34:09+00:00</time>
        <ele>1412.0</ele>
      </trkpt>
      <trkpt lat="44.620849" lon="6.231201">
        <time>2021-12-29T09:34:30+00:00</time>
        <ele>1412.0</ele>
      </trkpt>
      <trkpt lat="44.620849" lon="6.231201">
        <time>2021-12-29T09:34:53+00:00</time>
        <ele>1412.0</ele>
      </trkpt>
      <trkpt lat="44.62085" lon="6.231202">
        <time>2021-12-29T09:35:10+00:00</time>
        <ele>1412.0</ele>
      </trkpt>
      <trkpt lat="44.62085" lon="6.231202">
        <time>2021-12-29T09:35:15+00:00</time>
        <ele>1412.0</ele>
      </trkpt>
      <trkpt lat="44.620851" lon="6.231202">
        <time>2021-12-29T09:35:30+00:00</time>
        <ele>1412.0</ele>
      </trkpt>
      <trkpt lat="44.620852" lon="6.231202">
        <time>2021-12-29T09:35:40+00:00</time>
        <ele>1412.0</ele>
      </trkpt>
      <trkpt lat="44.620859" lon="6.231211">
        <time>2021-12-29T09:35:45+00:00</time>
        <ele>1412.0</ele>
      </trkpt>
      <trkpt lat="44.620861" lon="6.231273">
        <time>2021-12-29T09:35:48+00:00</time>
        <ele>1412.0</ele>
      </trkpt>
      <trkpt lat="44.62089" lon="6.231398">
        <time>2021-12-29T09:35:53+00:00</time>
        <ele>1411.0</ele>
      </trkpt>
      <trkpt lat="44.620897" lon="6.231472">
        <time>2021-12-29T09:35:57+00:00</time>
        <ele>1412.0</ele>
      </trkpt>
      <trkpt lat="44.620885" lon="6.231545">
        <time>2021-12-29T09:36:01+00:00</time>
        <ele>1412.0</ele>
      </trkpt>
      <trkpt lat="44.620879" lon="6.231576">
        <time>2021-12-29T09:36:03+00:00</time>
        <ele>1412.0</ele>
      </trkpt>
      <trkpt lat="44.620876" lon="6.231592">
        <time>2021-12-29T09:36:04+00:00</time>
        <ele>1412.0</ele>
      </trkpt>
      <trkpt lat="44.620872" lon="6.231627">
        <time>2021-12-29T09:36:06+00:00</time>
        <ele>1413.0</ele>
      </trkpt>
      <trkpt lat="44.620867" lon="6.231661">
        <time>2021-12-29T09:36:08+00:00</time>
        <ele>1413.0</ele>
      </trkpt>
      <trkpt lat="44.620864" lon="6.231675">
        <time>2021-12-29T09:36:09+00:00</time>
        <ele>1413.0</ele>
      </trkpt>
      <trkpt lat="44.620862" lon="6.231708">
        <time>2021-12-29T09:36:11+00:00</time>
        <ele>1413.0</ele>
      </trkpt>
      <trkpt lat="44.620868" lon="6.231761">
        <time>2021-12-29T09:36:14+00:00</time>
        <ele>1413.0</ele>
      </trkpt>
      <trkpt lat="44.620874" lon="6.231831">
        <time>2021-12-29T09:36:18+00:00</time>
        <ele>1412.0</ele>
      </trkpt>
      <trkpt lat="44.620875" lon="6.231863">
        <time>2021-12-29T09:36:20+00:00</time>
        <ele>1412.0</ele>
      </trkpt>
      <trkpt lat="44.620875" lon="6.231896">
        <time>2021-12-29T09:36:22+00:00</time>
        <ele>1412.0</ele>
      </trkpt>
      <trkpt lat="44.620849" lon="6.231993">
        <time>2021-12-29T09:36:28+00:00</time>
        <ele>1414.0</ele>
      </trkpt>
      <trkpt lat="44.620847" lon="6.232022">
        <time>2021-12-29T09:36:30+00:00</time>
        <ele>1414.0</ele>
      </trkpt>
      <trkpt lat="44.620848" lon="6.232034">
        <time>2021-12-29T09:36:31+00:00</time>
        <ele>1414.0</ele>
      </trkpt>
      <trkpt lat="44.620842" lon="6.232054">
        <time>2021-12-29T09:36:33+00:00</time>
        <ele>1414.0</ele>
      </trkpt>
      <trkpt lat="44.620834" lon="6.232101">
        <time>2021-12-29T09:36:37+00:00</time>
        <ele>1415.0</ele>
      </trkpt>
      <trkpt lat="44.620834" lon="6.232128">
        <time>2021-12-29T09:36:39+00:00</time>
        <ele>1415.0</ele>
      </trkpt>
      <trkpt lat="44.620836" lon="6.232186">
        <time>2021-12-29T09:36:42+00:00</time>
        <ele>1415.0</ele>
      </trkpt>
      <trkpt lat="44.620823" lon="6.232246">
        <time>2021-12-29T09:36:45+00:00</time>
        <ele>1416.0</ele>
      </trkpt>
      <trkpt lat="44.620816" lon="6.232372">
        <time>2021-12-29T09:36:52+00:00</time>
        <ele>1417.0</ele>
      </trkpt>
      <trkpt lat="44.620815" lon="6.232391">
        <time>2021-12-29T09:36:53+00:00</time>
        <ele>1417.0</ele>
      </trkpt>
      <trkpt lat="44.620814" lon="6.232464">
        <time>2021-12-29T09:36:57+00:00</time>
        <ele>1418.0</ele>
      </trkpt>
      <trkpt lat="44.620812" lon="6.232478">
        <time>2021-12-29T09:36:58+00:00</time>
        <ele>1418.0</ele>
      </trkpt>
      <trkpt lat="44.620808" lon="6.232513">
        <time>2021-12-29T09:37:00+00:00</time>
        <ele>1418.0</ele>
      </trkpt>
      <trkpt lat="44.620806" lon="6.232558">
        <time>2021-12-29T09:37:03+00:00</time>
        <ele>1419.0</ele>
      </trkpt>
      <trkpt lat="44.620807" lon="6.232614">
        <time>2021-12-29T09:37:06+00:00</time>
        <ele>1419.0</ele>
      </trkpt>
      <trkpt lat="44.62081" lon="6.232634">
        <time>2021-12-29T09:37:07+00:00</time>
        <ele>1419.0</ele>
      </trkpt>
      <trkpt lat="44.620806" lon="6.232677">
        <time>2021-12-29T09:37:09+00:00</time>
        <ele>1420.0</ele>
      </trkpt>
      <trkpt lat="44.620809" lon="6.232733">
        <time>2021-12-29T09:37:12+00:00</time>
        <ele>1420.0</ele>
      </trkpt>
      <trkpt lat="44.620813" lon="6.232836">
        <time>2021-12-29T09:37:18+00:00</time>
        <ele>1420.0</ele>
      </trkpt>
      <trkpt lat="44.620816" lon="6.232853">
        <time>2021-12-29T09:37:19+00:00</time>
        <ele>1420.0</ele>
      </trkpt>
      <trkpt lat="44.620821" lon="6.23293">
        <time>2021-12-29T09:37:23+00:00</time>
        <ele>1420.0</ele>
      </trkpt>
      <trkpt lat="44.620826" lon="6.233">
        <time>2021-12-29T09:37:27+00:00</time>
        <ele>1420.0</ele>
      </trkpt>
      <trkpt lat="44.620825" lon="6.233018">
        <time>2021-12-29T09:37:28+00:00</time>
        <ele>1421.0</ele>
      </trkpt>
      <trkpt lat="44.620825" lon="6.233056">
        <time>2021-12-29T09:37:30+00:00</time>
        <ele>1421.0</ele>
      </trkpt>
      <trkpt lat="44.620836" lon="6.233155">
        <time>2021-12-29T09:37:35+00:00</time>
        <ele>1421.0</ele>
      </trkpt>
      <trkpt lat="44.620847" lon="6.233235">
        <time>2021-12-29T09:37:39+00:00</time>
        <ele>1421.0</ele>
      </trkpt>
      <trkpt lat="44.620846" lon="6.233324">
        <time>2021-12-29T09:37:44+00:00</time>
        <ele>1422.0</ele>
      </trkpt>
      <trkpt lat="44.620843" lon="6.233341">
        <time>2021-12-29T09:37:45+00:00</time>
        <ele>1422.0</ele>
      </trkpt>
      <trkpt lat="44.62084" lon="6.233397">
        <time>2021-12-29T09:37:48+00:00</time>
        <ele>1423.0</ele>
      </trkpt>
      <trkpt lat="44.620846" lon="6.233432">
        <time>2021-12-29T09:37:50+00:00</time>
        <ele>1423.0</ele>
      </trkpt>
      <trkpt lat="44.620844" lon="6.233465">
        <time>2021-12-29T09:37:52+00:00</time>
        <ele>1423.0</ele>
      </trkpt>
      <trkpt lat="44.620848" lon="6.233502">
        <time>2021-12-29T09:37:54+00:00</time>
        <ele>1423.0</ele>
      </trkpt>
      <trkpt lat="44.62085" lon="6.233574">
        <time>2021-12-29T09:37:58+00:00</time>
        <ele>1424.0</ele>
      </trkpt>
      <trkpt lat="44.620845" lon="6.23364">
        <time>2021-12-29T09:38:02+00:00</time>
        <ele>1425.0</ele>
      </trkpt>
      <trkpt lat="44.620861" lon="6.233812">
        <time>2021-12-29T09:38:12+00:00</time>
        <ele>1425.0</ele>
      </trkpt>
      <trkpt lat="44.620867" lon="6.233863">
        <time>2021-12-29T09:38:15+00:00</time>
        <ele>1424.0</ele>
      </trkpt>
      <trkpt lat="44.620872" lon="6.233896">
        <time>2021-12-29T09:38:17+00:00</time>
        <ele>1424.0</ele>
      </trkpt>
      <trkpt lat="44.620872" lon="6.233912">
        <time>2021-12-29T09:38:18+00:00</time>
        <ele>1424.0</ele>
      </trkpt>
      <trkpt lat="44.620878" lon="6.233964">
        <time>2021-12-29T09:38:21+00:00</time>
        <ele>1424.0</ele>
      </trkpt>
      <trkpt lat="44.620883" lon="6.234044">
        <time>2021-12-29T09:38:26+00:00</time>
        <ele>1424.0</ele>
      </trkpt>
      <trkpt lat="44.620885" lon="6.234099">
        <time>2021-12-29T09:38:29+00:00</time>
        <ele>1425.0</ele>
      </trkpt>
      <trkpt lat="44.620892" lon="6.234153">
        <time>2021-12-29T09:38:32+00:00</time>
        <ele>1425.0</ele>
      </trkpt>
      <trkpt lat="44.620893" lon="6.234169">
        <time>2021-12-29T09:38:33+00:00</time>
        <ele>1425.0</ele>
      </trkpt>
      <trkpt lat="44.620904" lon="6.234253">
        <time>2021-12-29T09:38:38+00:00</time>
        <ele>1425.0</ele>
      </trkpt>
      <trkpt lat="44.620961" lon="6.234412">
        <time>2021-12-29T09:38:47+00:00</time>
        <ele>1424.0</ele>
      </trkpt>
      <trkpt lat="44.62097" lon="6.234442">
        <time>2021-12-29T09:38:49+00:00</time>
        <ele>1424.0</ele>
      </trkpt>
      <trkpt lat="44.621011" lon="6.234518">
        <time>2021-12-29T09:38:54+00:00</time>
        <ele>1423.0</ele>
      </trkpt>
      <trkpt lat="44.621036" lon="6.23458">
        <time>2021-12-29T09:38:58+00:00</time>
        <ele>1423.0</ele>
      </trkpt>
      <trkpt lat="44.621053" lon="6.234614">
        <time>2021-12-29T09:39:01+00:00</time>
        <ele>1423.0</ele>
      </trkpt>
      <trkpt lat="44.621053" lon="6.234614">
        <time>2021-12-29T09:39:02+00:00</time>
        <ele>1423.0</ele>
      </trkpt>
      <trkpt lat="44.621077" lon="6.234659">
        <time>2021-12-29T09:39:08+00:00</time>
        <ele>1423.0</ele>
      </trkpt>
      <trkpt lat="44.621081" lon="6.234677">
        <time>2021-12-29T09:39:10+00:00</time>
        <ele>1423.0</ele>
      </trkpt>
      <trkpt lat="44.621085" lon="6.234704">
        <time>2021-12-29T09:39:13+00:00</time>
        <ele>1423.0</ele>
      </trkpt>
      <trkpt lat="44.621089" lon="6.234744">
        <time>2021-12-29T09:39:16+00:00</time>
        <ele>1424.0</ele>
      </trkpt>
      <trkpt lat="44.621094" lon="6.234764">
        <time>2021-12-29T09:39:18+00:00</time>
        <ele>1424.0</ele>
      </trkpt>
      <trkpt lat="44.621095" lon="6.234799">
        <time>2021-12-29T09:39:21+00:00</time>
        <ele>1424.0</ele>
      </trkpt>
      <trkpt lat="44.621108" lon="6.234853">
        <time>2021-12-29T09:39:25+00:00</time>
        <ele>1425.0</ele>
      </trkpt>
      <trkpt lat="44.621107" lon="6.234904">
        <time>2021-12-29T09:39:29+00:00</time>
        <ele>1426.0</ele>
      </trkpt>
      <trkpt lat="44.621093" lon="6.234918">
        <time>2021-12-29T09:39:32+00:00</time>
        <ele>1426.0</ele>
      </trkpt>
      <trkpt lat="44.621097" lon="6.234927">
        <time>2021-12-29T09:39:39+00:00</time>
        <ele>1426.0</ele>
      </trkpt>
      <trkpt lat="44.621104" lon="6.234923">
        <time>2021-12-29T09:39:41+00:00</time>
        <ele>1426.0</ele>
      </trkpt>
      <trkpt lat="44.621109" lon="6.234923">
        <time>2021-12-29T09:39:47+00:00</time>
        <ele>1426.0</ele>
      </trkpt>
      <trkpt lat="44.621105" lon="6.234923">
        <time>2021-12-29T09:39:55+00:00</time>
        <ele>1426.0</ele>
      </trkpt>
      <trkpt lat="44.621095" lon="6.234923">
        <time>2021-12-29T09:40:04+00:00</time>
        <ele>1426.0</ele>
      </trkpt>
      <trkpt lat="44.621095" lon="6.234924">
        <time>2021-12-29T09:40:06+00:00</time>
        <ele>1426.0</ele>
      </trkpt>
      <trkpt lat="44.621089" lon="6.234928">
        <time>2021-12-29T09:40:19+00:00</time>
        <ele>1427.0</ele>
      </trkpt>
      <trkpt lat="44.621089" lon="6.234928">
        <time>2021-12-29T09:40:24+00:00</time>
        <ele>1427.0</ele>
      </trkpt>
      <trkpt lat="44.621102" lon="6.234909">
        <time>2021-12-29T09:40:44+00:00</time>
        <ele>1426.0</ele>
      </trkpt>
      <trkpt lat="44.621104" lon="6.234902">
        <time>2021-12-29T09:40:46+00:00</time>
        <ele>1426.0</ele>
      </trkpt>
      <trkpt lat="44.62112" lon="6.234906">
        <time>2021-12-29T09:41:03+00:00</time>
        <ele>1426.0</ele>
      </trkpt>
      <trkpt lat="44.621119" lon="6.234907">
        <time>2021-12-29T09:41:10+00:00</time>
        <ele>1426.0</ele>
      </trkpt>
      <trkpt lat="44.621119" lon="6.23491">
        <time>2021-12-29T09:41:17+00:00</time>
        <ele>1426.0</ele>
      </trkpt>
      <trkpt lat="44.621116" lon="6.23492">
        <time>2021-12-29T09:41:23+00:00</time>
        <ele>1426.0</ele>
      </trkpt>
      <trkpt lat="44.621119" lon="6.234931">
        <time>2021-12-29T09:41:35+00:00</time>
        <ele>1426.0</ele>
      </trkpt>
      <trkpt lat="44.621122" lon="6.234932">
        <time>2021-12-29T09:41:58+00:00</time>
        <ele>1426.0</ele>
      </trkpt>
      <trkpt lat="44.621118" lon="6.235005">
        <time>2021-12-29T09:42:02+00:00</time>
        <ele>1427.0</ele>
      </trkpt>
      <trkpt lat="44.62112" lon="6.235039">
        <time>2021-12-29T09:42:04+00:00</time>
        <ele>1428.0</ele>
      </trkpt>
      <trkpt lat="44.621123" lon="6.235076">
        <time>2021-12-29T09:42:06+00:00</time>
        <ele>1428.0</ele>
      </trkpt>
      <trkpt lat="44.621118" lon="6.235108">
        <time>2021-12-29T09:42:08+00:00</time>
        <ele>1429.0</ele>
      </trkpt>
      <trkpt lat="44.621123" lon="6.235128">
        <time>2021-12-29T09:42:10+00:00</time>
        <ele>1429.0</ele>
      </trkpt>
      <trkpt lat="44.62112" lon="6.235192">
        <time>2021-12-29T09:42:15+00:00</time>
        <ele>1430.0</ele>
      </trkpt>
      <trkpt lat="44.621122" lon="6.235235">
        <time>2021-12-29T09:42:19+00:00</time>
        <ele>1431.0</ele>
      </trkpt>
      <trkpt lat="44.621123" lon="6.235257">
        <time>2021-12-29T09:42:21+00:00</time>
        <ele>1431.0</ele>
      </trkpt>
      <trkpt lat="44.62112" lon="6.235267">
        <time>2021-12-29T09:42:22+00:00</time>
        <ele>1432.0</ele>
      </trkpt>
      <trkpt lat="44.621108" lon="6.235306">
        <time>2021-12-29T09:42:26+00:00</time>
        <ele>1433.0</ele>
      </trkpt>
      <trkpt lat="44.621107" lon="6.235317">
        <time>2021-12-29T09:42:27+00:00</time>
        <ele>1433.0</ele>
      </trkpt>
      <trkpt lat="44.621107" lon="6.23536">
        <time>2021-12-29T09:42:31+00:00</time>
        <ele>1434.0</ele>
      </trkpt>
      <trkpt lat="44.621091" lon="6.235415">
        <time>2021-12-29T09:42:36+00:00</time>
        <ele>1435.0</ele>
      </trkpt>
      <trkpt lat="44.62109" lon="6.23545">
        <time>2021-12-29T09:42:39+00:00</time>
        <ele>1436.0</ele>
      </trkpt>
      <trkpt lat="44.621094" lon="6.235488">
        <time>2021-12-29T09:42:43+00:00</time>
        <ele>1437.0</ele>
      </trkpt>
      <trkpt lat="44.621099" lon="6.235527">
        <time>2021-12-29T09:42:47+00:00</time>
        <ele>1437.0</ele>
      </trkpt>
      <trkpt lat="44.621109" lon="6.235542">
        <time>2021-12-29T09:42:49+00:00</time>
        <ele>1437.0</ele>
      </trkpt>
      <trkpt lat="44.621114" lon="6.235576">
        <time>2021-12-29T09:42:52+00:00</time>
        <ele>1437.0</ele>
      </trkpt>
      <trkpt lat="44.621117" lon="6.235597">
        <time>2021-12-29T09:42:54+00:00</time>
        <ele>1438.0</ele>
      </trkpt>
      <trkpt lat="44.621127" lon="6.23564">
        <time>2021-12-29T09:42:58+00:00</time>
        <ele>1438.0</ele>
      </trkpt>
      <trkpt lat="44.621139" lon="6.235681">
        <time>2021-12-29T09:43:02+00:00</time>
        <ele>1438.0</ele>
      </trkpt>
      <trkpt lat="44.621143" lon="6.235702">
        <time>2021-12-29T09:43:04+00:00</time>
        <ele>1438.0</ele>
      </trkpt>
      <trkpt lat="44.621146" lon="6.235712">
        <time>2021-12-29T09:43:05+00:00</time>
        <ele>1438.0</ele>
      </trkpt>
      <trkpt lat="44.621147" lon="6.235788">
        <time>2021-12-29T09:43:12+00:00</time>
        <ele>1439.0</ele>
      </trkpt>
      <trkpt lat="44.621147" lon="6.235801">
        <time>2021-12-29T09:43:13+00:00</time>
        <ele>1439.0</ele>
      </trkpt>
      <trkpt lat="44.621147" lon="6.235829">
        <time>2021-12-29T09:43:16+00:00</time>
        <ele>1439.0</ele>
      </trkpt>
      <trkpt lat="44.621155" lon="6.235858">
        <time>2021-12-29T09:43:19+00:00</time>
        <ele>1440.0</ele>
      </trkpt>
      <trkpt lat="44.621151" lon="6.235898">
        <time>2021-12-29T09:43:22+00:00</time>
        <ele>1440.0</ele>
      </trkpt>
      <trkpt lat="44.621159" lon="6.235961">
        <time>2021-12-29T09:43:27+00:00</time>
        <ele>1441.0</ele>
      </trkpt>
      <trkpt lat="44.621152" lon="6.235983">
        <time>2021-12-29T09:43:29+00:00</time>
        <ele>1441.0</ele>
      </trkpt>
      <trkpt lat="44.621147" lon="6.235996">
        <time>2021-12-29T09:43:30+00:00</time>
        <ele>1441.0</ele>
      </trkpt>
      <trkpt lat="44.621138" lon="6.236017">
        <time>2021-12-29T09:43:32+00:00</time>
        <ele>1442.0</ele>
      </trkpt>
      <trkpt lat="44.62111" lon="6.236078">
        <time>2021-12-29T09:43:39+00:00</time>
        <ele>1443.0</ele>
      </trkpt>
      <trkpt lat="44.621105" lon="6.236112">
        <time>2021-12-29T09:43:42+00:00</time>
        <ele>1444.0</ele>
      </trkpt>
      <trkpt lat="44.621101" lon="6.236132">
        <time>2021-12-29T09:43:44+00:00</time>
        <ele>1444.0</ele>
      </trkpt>
      <trkpt lat="44.621097" lon="6.236141">
        <time>2021-12-29T09:43:45+00:00</time>
        <ele>1445.0</ele>
      </trkpt>
      <trkpt lat="44.621085" lon="6.23619">
        <time>2021-12-29T09:43:51+00:00</time>
        <ele>1445.0</ele>
      </trkpt>
      <trkpt lat="44.621082" lon="6.236202">
        <time>2021-12-29T09:43:52+00:00</time>
        <ele>1446.0</ele>
      </trkpt>
      <trkpt lat="44.621082" lon="6.236214">
        <time>2021-12-29T09:43:53+00:00</time>
        <ele>1446.0</ele>
      </trkpt>
      <trkpt lat="44.621072" lon="6.236252">
        <time>2021-12-29T09:43:57+00:00</time>
        <ele>1446.0</ele>
      </trkpt>
      <trkpt lat="44.621061" lon="6.23628">
        <time>2021-12-29T09:44:01+00:00</time>
        <ele>1447.0</ele>
      </trkpt>
      <trkpt lat="44.621048" lon="6.23629">
        <time>2021-12-29T09:44:02+00:00</time>
        <ele>1447.0</ele>
      </trkpt>
      <trkpt lat="44.621047" lon="6.236296">
        <time>2021-12-29T09:44:04+00:00</time>
        <ele>1447.0</ele>
      </trkpt>
      <trkpt lat="44.621029" lon="6.236309">
        <time>2021-12-29T09:44:07+00:00</time>
        <ele>1448.0</ele>
      </trkpt>
      <trkpt lat="44.621026" lon="6.236317">
        <time>2021-12-29T09:44:08+00:00</time>
        <ele>1448.0</ele>
      </trkpt>
      <trkpt lat="44.621013" lon="6.23632">
        <time>2021-12-29T09:44:09+00:00</time>
        <ele>1449.0</ele>
      </trkpt>
      <trkpt lat="44.620991" lon="6.236317">
        <time>2021-12-29T09:44:14+00:00</time>
        <ele>1449.0</ele>
      </trkpt>
      <trkpt lat="44.620977" lon="6.236313">
        <time>2021-12-29T09:44:16+00:00</time>
        <ele>1450.0</ele>
      </trkpt>
      <trkpt lat="44.62097" lon="6.236278">
        <time>2021-12-29T09:44:21+00:00</time>
        <ele>1450.0</ele>
      </trkpt>
      <trkpt lat="44.620952" lon="6.23626">
        <time>2021-12-29T09:44:23+00:00</time>
        <ele>1450.0</ele>
      </trkpt>
      <trkpt lat="44.62092" lon="6.236232">
        <time>2021-12-29T09:44:27+00:00</time>
        <ele>1451.0</ele>
      </trkpt>
      <trkpt lat="44.620898" lon="6.236222">
        <time>2021-12-29T09:44:30+00:00</time>
        <ele>1452.0</ele>
      </trkpt>
      <trkpt lat="44.620887" lon="6.236207">
        <time>2021-12-29T09:44:32+00:00</time>
        <ele>1452.0</ele>
      </trkpt>
      <trkpt lat="44.620873" lon="6.236206">
        <time>2021-12-29T09:44:33+00:00</time>
        <ele>1453.0</ele>
      </trkpt>
      <trkpt lat="44.620861" lon="6.236199">
        <time>2021-12-29T09:44:34+00:00</time>
        <ele>1453.0</ele>
      </trkpt>
      <trkpt lat="44.620838" lon="6.236184">
        <time>2021-12-29T09:44:36+00:00</time>
        <ele>1454.0</ele>
      </trkpt>
      <trkpt lat="44.620829" lon="6.236178">
        <time>2021-12-29T09:44:37+00:00</time>
        <ele>1454.0</ele>
      </trkpt>
      <trkpt lat="44.620799" lon="6.236173">
        <time>2021-12-29T09:44:39+00:00</time>
        <ele>1455.0</ele>
      </trkpt>
      <trkpt lat="44.620791" lon="6.236169">
        <time>2021-12-29T09:44:40+00:00</time>
        <ele>1455.0</ele>
      </trkpt>
      <trkpt lat="44.62077" lon="6.23614">
        <time>2021-12-29T09:44:43+00:00</time>
        <ele>1456.0</ele>
      </trkpt>
      <trkpt lat="44.620784" lon="6.236108">
        <time>2021-12-29T09:44:44+00:00</time>
        <ele>1455.0</ele>
      </trkpt>
      <trkpt lat="44.620782" lon="6.236088">
        <time>2021-12-29T09:44:48+00:00</time>
        <ele>1455.0</ele>
      </trkpt>
      <trkpt lat="44.620778" lon="6.236078">
        <time>2021-12-29T09:44:49+00:00</time>
        <ele>1455.0</ele>
      </trkpt>
      <trkpt lat="44.62078" lon="6.236067">
        <time>2021-12-29T09:44:50+00:00</time>
        <ele>1455.0</ele>
      </trkpt>
      <trkpt lat="44.620777" lon="6.236054">
        <time>2021-12-29T09:44:51+00:00</time>
        <ele>1455.0</ele>
      </trkpt>
      <trkpt lat="44.62076" lon="6.236014">
        <time>2021-12-29T09:44:54+00:00</time>
        <ele>1455.0</ele>
      </trkpt>
      <trkpt lat="44.620752" lon="6.23601">
        <time>2021-12-29T09:44:55+00:00</time>
        <ele>1455.0</ele>
      </trkpt>
      <trkpt lat="44.620745" lon="6.236004">
        <time>2021-12-29T09:44:56+00:00</time>
        <ele>1455.0</ele>
      </trkpt>
      <trkpt lat="44.620737" lon="6.235977">
        <time>2021-12-29T09:44:59+00:00</time>
        <ele>1455.0</ele>
      </trkpt>
      <trkpt lat="44.620723" lon="6.235944">
        <time>2021-12-29T09:45:01+00:00</time>
        <ele>1455.0</ele>
      </trkpt>
      <trkpt lat="44.62071" lon="6.235928">
        <time>2021-12-29T09:45:04+00:00</time>
        <ele>1455.0</ele>
      </trkpt>
      <trkpt lat="44.620689" lon="6.235856">
        <time>2021-12-29T09:45:08+00:00</time>
        <ele>1455.0</ele>
      </trkpt>
      <trkpt lat="44.620685" lon="6.235841">
        <time>2021-12-29T09:45:09+00:00</time>
        <ele>1455.0</ele>
      </trkpt>
      <trkpt lat="44.620673" lon="6.235826">
        <time>2021-12-29T09:45:10+00:00</time>
        <ele>1455.0</ele>
      </trkpt>
      <trkpt lat="44.620642" lon="6.235794">
        <time>2021-12-29T09:45:16+00:00</time>
        <ele>1456.0</ele>
      </trkpt>
      <trkpt lat="44.620634" lon="6.235787">
        <time>2021-12-29T09:45:17+00:00</time>
        <ele>1456.0</ele>
      </trkpt>
      <trkpt lat="44.620623" lon="6.235776">
        <time>2021-12-29T09:45:19+00:00</time>
        <ele>1456.0</ele>
      </trkpt>
      <trkpt lat="44.620617" lon="6.235764">
        <time>2021-12-29T09:45:21+00:00</time>
        <ele>1456.0</ele>
      </trkpt>
      <trkpt lat="44.620593" lon="6.235743">
        <time>2021-12-29T09:45:24+00:00</time>
        <ele>1456.0</ele>
      </trkpt>
      <trkpt lat="44.620584" lon="6.235722">
        <time>2021-12-29T09:45:26+00:00</time>
        <ele>1456.0</ele>
      </trkpt>
      <trkpt lat="44.620568" lon="6.235709">
        <time>2021-12-29T09:45:33+00:00</time>
        <ele>1456.0</ele>
      </trkpt>
      <trkpt lat="44.620572" lon="6.2357">
        <time>2021-12-29T09:45:36+00:00</time>
        <ele>1456.0</ele>
      </trkpt>
      <trkpt lat="44.620552" lon="6.235677">
        <time>2021-12-29T09:45:38+00:00</time>
        <ele>1456.0</ele>
      </trkpt>
      <trkpt lat="44.620524" lon="6.235656">
        <time>2021-12-29T09:45:44+00:00</time>
        <ele>1457.0</ele>
      </trkpt>
      <trkpt lat="44.620517" lon="6.235617">
        <time>2021-12-29T09:45:52+00:00</time>
        <ele>1456.0</ele>
      </trkpt>
      <trkpt lat="44.620521" lon="6.235621">
        <time>2021-12-29T09:46:02+00:00</time>
        <ele>1456.0</ele>
      </trkpt>
      <trkpt lat="44.620522" lon="6.235621">
        <time>2021-12-29T09:46:04+00:00</time>
        <ele>1456.0</ele>
      </trkpt>
      <trkpt lat="44.620525" lon="6.235617">
        <time>2021-12-29T09:46:09+00:00</time>
        <ele>1456.0</ele>
      </trkpt>
      <trkpt lat="44.620542" lon="6.235598">
        <time>2021-12-29T09:46:15+00:00</time>
        <ele>1455.0</ele>
      </trkpt>
      <trkpt lat="44.620541" lon="6.235584">
        <time>2021-12-29T09:46:27+00:00</time>
        <ele>1455.0</ele>
      </trkpt>
      <trkpt lat="44.620518" lon="6.235566">
        <time>2021-12-29T09:46:30+00:00</time>
        <ele>1455.0</ele>
      </trkpt>
      <trkpt lat="44.620509" lon="6.235556">
        <time>2021-12-29T09:46:31+00:00</time>
        <ele>1455.0</ele>
      </trkpt>
      <trkpt lat="44.620497" lon="6.235542">
        <time>2021-12-29T09:46:33+00:00</time>
        <ele>1456.0</ele>
      </trkpt>
      <trkpt lat="44.620484" lon="6.235533">
        <time>2021-12-29T09:46:35+00:00</time>
        <ele>1456.0</ele>
      </trkpt>
      <trkpt lat="44.620479" lon="6.235532">
        <time>2021-12-29T09:46:36+00:00</time>
        <ele>1456.0</ele>
      </trkpt>
      <trkpt lat="44.620459" lon="6.235545">
        <time>2021-12-29T09:46:39+00:00</time>
        <ele>1457.0</ele>
      </trkpt>
      <trkpt lat="44.620435" lon="6.235557">
        <time>2021-12-29T09:46:41+00:00</time>
        <ele>1458.0</ele>
      </trkpt>
      <trkpt lat="44.620418" lon="6.235555">
        <time>2021-12-29T09:46:42+00:00</time>
        <ele>1458.0</ele>
      </trkpt>
      <trkpt lat="44.620399" lon="6.23555">
        <time>2021-12-29T09:46:44+00:00</time>
        <ele>1459.0</ele>
      </trkpt>
      <trkpt lat="44.620392" lon="6.235558">
        <time>2021-12-29T09:46:45+00:00</time>
        <ele>1459.0</ele>
      </trkpt>
      <trkpt lat="44.620378" lon="6.235562">
        <time>2021-12-29T09:46:47+00:00</time>
        <ele>1459.0</ele>
      </trkpt>
      <trkpt lat="44.620366" lon="6.235548">
        <time>2021-12-29T09:46:49+00:00</time>
        <ele>1460.0</ele>
      </trkpt>
      <trkpt lat="44.620356" lon="6.23554">
        <time>2021-12-29T09:46:50+00:00</time>
        <ele>1460.0</ele>
      </trkpt>
      <trkpt lat="44.620303" lon="6.235499">
        <time>2021-12-29T09:46:55+00:00</time>
        <ele>1461.0</ele>
      </trkpt>
      <trkpt lat="44.620254" lon="6.235446">
        <time>2021-12-29T09:47:02+00:00</time>
        <ele>1461.0</ele>
      </trkpt>
      <trkpt lat="44.620231" lon="6.235407">
        <time>2021-12-29T09:47:07+00:00</time>
        <ele>1461.0</ele>
      </trkpt>
      <trkpt lat="44.620228" lon="6.235404">
        <time>2021-12-29T09:47:08+00:00</time>
        <ele>1461.0</ele>
      </trkpt>
      <trkpt lat="44.620203" lon="6.235383">
        <time>2021-12-29T09:47:12+00:00</time>
        <ele>1461.0</ele>
      </trkpt>
      <trkpt lat="44.620201" lon="6.235364">
        <time>2021-12-29T09:47:14+00:00</time>
        <ele>1461.0</ele>
      </trkpt>
      <trkpt lat="44.620203" lon="6.235335">
        <time>2021-12-29T09:47:19+00:00</time>
        <ele>1461.0</ele>
      </trkpt>
      <trkpt lat="44.620213" lon="6.235323">
        <time>2021-12-29T09:47:22+00:00</time>
        <ele>1460.0</ele>
      </trkpt>
      <trkpt lat="44.620206" lon="6.235321">
        <time>2021-12-29T09:47:25+00:00</time>
        <ele>1460.0</ele>
      </trkpt>
      <trkpt lat="44.62025" lon="6.235315">
        <time>2021-12-29T09:47:29+00:00</time>
        <ele>1459.0</ele>
      </trkpt>
      <trkpt lat="44.620257" lon="6.235323">
        <time>2021-12-29T09:47:33+00:00</time>
        <ele>1459.0</ele>
      </trkpt>
      <trkpt lat="44.620259" lon="6.235311">
        <time>2021-12-29T09:47:37+00:00</time>
        <ele>1459.0</ele>
      </trkpt>
      <trkpt lat="44.620274" lon="6.235326">
        <time>2021-12-29T09:47:43+00:00</time>
        <ele>1458.0</ele>
      </trkpt>
      <trkpt lat="44.620285" lon="6.235334">
        <time>2021-12-29T09:47:50+00:00</time>
        <ele>1458.0</ele>
      </trkpt>
      <trkpt lat="44.620286" lon="6.235332">
        <time>2021-12-29T09:47:51+00:00</time>
        <ele>1458.0</ele>
      </trkpt>
      <trkpt lat="44.620277" lon="6.235344">
        <time>2021-12-29T09:47:54+00:00</time>
        <ele>1458.0</ele>
      </trkpt>
      <trkpt lat="44.620277" lon="6.235344">
        <time>2021-12-29T09:47:58+00:00</time>
        <ele>1458.0</ele>
      </trkpt>
      <trkpt lat="44.620277" lon="6.235344">
        <time>2021-12-29T09:48:06+00:00</time>
        <ele>1458.0</ele>
      </trkpt>
      <trkpt lat="44.620273" lon="6.235334">
        <time>2021-12-29T09:48:22+00:00</time>
        <ele>1458.0</ele>
      </trkpt>
      <trkpt lat="44.620273" lon="6.235301">
        <time>2021-12-29T09:48:25+00:00</time>
        <ele>1458.0</ele>
      </trkpt>
      <trkpt lat="44.620274" lon="6.235293">
        <time>2021-12-29T09:48:27+00:00</time>
        <ele>1458.0</ele>
      </trkpt>
      <trkpt lat="44.620275" lon="6.235288">
        <time>2021-12-29T09:48:29+00:00</time>
        <ele>1458.0</ele>
      </trkpt>
      <trkpt lat="44.620276" lon="6.235267">
        <time>2021-12-29T09:48:33+00:00</time>
        <ele>1457.0</ele>
      </trkpt>
      <trkpt lat="44.620277" lon="6.235258">
        <time>2021-12-29T09:48:35+00:00</time>
        <ele>1457.0</ele>
      </trkpt>
      <trkpt lat="44.620278" lon="6.235254">
        <time>2021-12-29T09:48:38+00:00</time>
        <ele>1457.0</ele>
      </trkpt>
      <trkpt lat="44.620278" lon="6.235244">
        <time>2021-12-29T09:48:41+00:00</time>
        <ele>1457.0</ele>
      </trkpt>
      <trkpt lat="44.62028" lon="6.235241">
        <time>2021-12-29T09:48:42+00:00</time>
        <ele>1457.0</ele>
      </trkpt>
      <trkpt lat="44.620301" lon="6.235195">
        <time>2021-12-29T09:48:46+00:00</time>
        <ele>1455.0</ele>
      </trkpt>
      <trkpt lat="44.6203" lon="6.235109">
        <time>2021-12-29T09:48:52+00:00</time>
        <ele>1454.0</ele>
      </trkpt>
      <trkpt lat="44.620256" lon="6.235086">
        <time>2021-12-29T09:48:55+00:00</time>
        <ele>1456.0</ele>
      </trkpt>
      <trkpt lat="44.620255" lon="6.235022">
        <time>2021-12-29T09:48:59+00:00</time>
        <ele>1455.0</ele>
      </trkpt>
      <trkpt lat="44.620231" lon="6.234957">
        <time>2021-12-29T09:49:05+00:00</time>
        <ele>1456.0</ele>
      </trkpt>
      <trkpt lat="44.620224" lon="6.234953">
        <time>2021-12-29T09:49:06+00:00</time>
        <ele>1457.0</ele>
      </trkpt>
      <trkpt lat="44.620201" lon="6.234917">
        <time>2021-12-29T09:49:09+00:00</time>
        <ele>1458.0</ele>
      </trkpt>
      <trkpt lat="44.620187" lon="6.234903">
        <time>2021-12-29T09:49:11+00:00</time>
        <ele>1459.0</ele>
      </trkpt>
      <trkpt lat="44.620197" lon="6.234891">
        <time>2021-12-29T09:49:13+00:00</time>
        <ele>1458.0</ele>
      </trkpt>
      <trkpt lat="44.620189" lon="6.234872">
        <time>2021-12-29T09:49:16+00:00</time>
        <ele>1459.0</ele>
      </trkpt>
      <trkpt lat="44.620191" lon="6.234876">
        <time>2021-12-29T09:49:18+00:00</time>
        <ele>1458.0</ele>
      </trkpt>
      <trkpt lat="44.620167" lon="6.234837">
        <time>2021-12-29T09:49:22+00:00</time>
        <ele>1460.0</ele>
      </trkpt>
      <trkpt lat="44.620155" lon="6.234829">
        <time>2021-12-29T09:49:23+00:00</time>
        <ele>1461.0</ele>
      </trkpt>
      <trkpt lat="44.620135" lon="6.234808">
        <time>2021-12-29T09:49:26+00:00</time>
        <ele>1462.0</ele>
      </trkpt>
      <trkpt lat="44.620123" lon="6.234784">
        <time>2021-12-29T09:49:28+00:00</time>
        <ele>1463.0</ele>
      </trkpt>
      <trkpt lat="44.620106" lon="6.234777">
        <time>2021-12-29T09:49:29+00:00</time>
        <ele>1464.0</ele>
      </trkpt>
      <trkpt lat="44.620082" lon="6.234752">
        <time>2021-12-29T09:49:32+00:00</time>
        <ele>1466.0</ele>
      </trkpt>
      <trkpt lat="44.620082" lon="6.234747">
        <time>2021-12-29T09:49:33+00:00</time>
        <ele>1466.0</ele>
      </trkpt>
      <trkpt lat="44.62007" lon="6.234737">
        <time>2021-12-29T09:49:34+00:00</time>
        <ele>1467.0</ele>
      </trkpt>
      <trkpt lat="44.620064" lon="6.234729">
        <time>2021-12-29T09:49:36+00:00</time>
        <ele>1467.0</ele>
      </trkpt>
      <trkpt lat="44.620061" lon="6.234701">
        <time>2021-12-29T09:49:39+00:00</time>
        <ele>1468.0</ele>
      </trkpt>
      <trkpt lat="44.620063" lon="6.234689">
        <time>2021-12-29T09:49:41+00:00</time>
        <ele>1468.0</ele>
      </trkpt>
      <trkpt lat="44.620059" lon="6.23467">
        <time>2021-12-29T09:49:43+00:00</time>
        <ele>1468.0</ele>
      </trkpt>
      <trkpt lat="44.620062" lon="6.23466">
        <time>2021-12-29T09:49:44+00:00</time>
        <ele>1468.0</ele>
      </trkpt>
      <trkpt lat="44.620061" lon="6.234645">
        <time>2021-12-29T09:49:46+00:00</time>
        <ele>1469.0</ele>
      </trkpt>
      <trkpt lat="44.620051" lon="6.234616">
        <time>2021-12-29T09:49:50+00:00</time>
        <ele>1470.0</ele>
      </trkpt>
      <trkpt lat="44.620056" lon="6.234613">
        <time>2021-12-29T09:49:51+00:00</time>
        <ele>1469.0</ele>
      </trkpt>
      <trkpt lat="44.620058" lon="6.234597">
        <time>2021-12-29T09:49:54+00:00</time>
        <ele>1470.0</ele>
      </trkpt>
      <trkpt lat="44.620056" lon="6.23459">
        <time>2021-12-29T09:49:55+00:00</time>
        <ele>1470.0</ele>
      </trkpt>
      <trkpt lat="44.620056" lon="6.234557">
        <time>2021-12-29T09:49:57+00:00</time>
        <ele>1470.0</ele>
      </trkpt>
      <trkpt lat="44.62005" lon="6.234519">
        <time>2021-12-29T09:50:00+00:00</time>
        <ele>1471.0</ele>
      </trkpt>
      <trkpt lat="44.620029" lon="6.234497">
        <time>2021-12-29T09:50:04+00:00</time>
        <ele>1473.0</ele>
      </trkpt>
      <trkpt lat="44.620022" lon="6.234489">
        <time>2021-12-29T09:50:05+00:00</time>
        <ele>1474.0</ele>
      </trkpt>
      <trkpt lat="44.620016" lon="6.234432">
        <time>2021-12-29T09:50:10+00:00</time>
        <ele>1475.0</ele>
      </trkpt>
      <trkpt lat="44.620013" lon="6.234424">
        <time>2021-12-29T09:50:11+00:00</time>
        <ele>1475.0</ele>
      </trkpt>
      <trkpt lat="44.620018" lon="6.234396">
        <time>2021-12-29T09:50:13+00:00</time>
        <ele>1475.0</ele>
      </trkpt>
      <trkpt lat="44.620047" lon="6.234353">
        <time>2021-12-29T09:50:16+00:00</time>
        <ele>1474.0</ele>
      </trkpt>
      <trkpt lat="44.620077" lon="6.234329">
        <time>2021-12-29T09:50:19+00:00</time>
        <ele>1472.0</ele>
      </trkpt>
      <trkpt lat="44.620101" lon="6.234265">
        <time>2021-12-29T09:50:23+00:00</time>
        <ele>1471.0</ele>
      </trkpt>
      <trkpt lat="44.62011" lon="6.234231">
        <time>2021-12-29T09:50:25+00:00</time>
        <ele>1470.0</ele>
      </trkpt>
      <trkpt lat="44.620134" lon="6.234202">
        <time>2021-12-29T09:50:27+00:00</time>
        <ele>1469.0</ele>
      </trkpt>
      <trkpt lat="44.620126" lon="6.234189">
        <time>2021-12-29T09:50:28+00:00</time>
        <ele>1470.0</ele>
      </trkpt>
      <trkpt lat="44.620106" lon="6.234141">
        <time>2021-12-29T09:50:32+00:00</time>
        <ele>1472.0</ele>
      </trkpt>
      <trkpt lat="44.620092" lon="6.234128">
        <time>2021-12-29T09:50:33+00:00</time>
        <ele>1473.0</ele>
      </trkpt>
      <trkpt lat="44.62009" lon="6.234121">
        <time>2021-12-29T09:50:34+00:00</time>
        <ele>1473.0</ele>
      </trkpt>
      <trkpt lat="44.620105" lon="6.234075">
        <time>2021-12-29T09:50:38+00:00</time>
        <ele>1473.0</ele>
      </trkpt>
      <trkpt lat="44.620098" lon="6.23405">
        <time>2021-12-29T09:50:41+00:00</time>
        <ele>1473.0</ele>
      </trkpt>
      <trkpt lat="44.620097" lon="6.23404">
        <time>2021-12-29T09:50:42+00:00</time>
        <ele>1473.0</ele>
      </trkpt>
      <trkpt lat="44.620088" lon="6.234039">
        <time>2021-12-29T09:50:43+00:00</time>
        <ele>1474.0</ele>
      </trkpt>
      <trkpt lat="44.620058" lon="6.234028">
        <time>2021-12-29T09:50:45+00:00</time>
        <ele>1476.0</ele>
      </trkpt>
      <trkpt lat="44.620034" lon="6.234035">
        <time>2021-12-29T09:50:47+00:00</time>
        <ele>1478.0</ele>
      </trkpt>
      <trkpt lat="44.62003" lon="6.234022">
        <time>2021-12-29T09:50:48+00:00</time>
        <ele>1478.0</ele>
      </trkpt>
      <trkpt lat="44.62003" lon="6.234002">
        <time>2021-12-29T09:50:49+00:00</time>
        <ele>1478.0</ele>
      </trkpt>
      <trkpt lat="44.620027" lon="6.233972">
        <time>2021-12-29T09:50:51+00:00</time>
        <ele>1479.0</ele>
      </trkpt>
      <trkpt lat="44.62003" lon="6.23393">
        <time>2021-12-29T09:50:54+00:00</time>
        <ele>1479.0</ele>
      </trkpt>
      <trkpt lat="44.620022" lon="6.233921">
        <time>2021-12-29T09:50:55+00:00</time>
        <ele>1479.0</ele>
      </trkpt>
      <trkpt lat="44.620007" lon="6.233909">
        <time>2021-12-29T09:50:57+00:00</time>
        <ele>1481.0</ele>
      </trkpt>
      <trkpt lat="44.620001" lon="6.233898">
        <time>2021-12-29T09:50:58+00:00</time>
        <ele>1481.0</ele>
      </trkpt>
      <trkpt lat="44.619991" lon="6.233888">
        <time>2021-12-29T09:50:59+00:00</time>
        <ele>1482.0</ele>
      </trkpt>
      <trkpt lat="44.619977" lon="6.233864">
        <time>2021-12-29T09:51:01+00:00</time>
        <ele>1483.0</ele>
      </trkpt>
      <trkpt lat="44.619979" lon="6.233852">
        <time>2021-12-29T09:51:02+00:00</time>
        <ele>1483.0</ele>
      </trkpt>
      <trkpt lat="44.619948" lon="6.233828">
        <time>2021-12-29T09:51:05+00:00</time>
        <ele>1485.0</ele>
      </trkpt>
      <trkpt lat="44.619956" lon="6.233802">
        <time>2021-12-29T09:51:08+00:00</time>
        <ele>1484.0</ele>
      </trkpt>
      <trkpt lat="44.619951" lon="6.233792">
        <time>2021-12-29T09:51:09+00:00</time>
        <ele>1485.0</ele>
      </trkpt>
      <trkpt lat="44.619947" lon="6.233787">
        <time>2021-12-29T09:51:10+00:00</time>
        <ele>1485.0</ele>
      </trkpt>
      <trkpt lat="44.619936" lon="6.233769">
        <time>2021-12-29T09:51:12+00:00</time>
        <ele>1486.0</ele>
      </trkpt>
      <trkpt lat="44.619951" lon="6.233748">
        <time>2021-12-29T09:51:15+00:00</time>
        <ele>1485.0</ele>
      </trkpt>
      <trkpt lat="44.619927" lon="6.233745">
        <time>2021-12-29T09:51:19+00:00</time>
        <ele>1487.0</ele>
      </trkpt>
      <trkpt lat="44.619917" lon="6.233752">
        <time>2021-12-29T09:51:21+00:00</time>
        <ele>1487.0</ele>
      </trkpt>
      <trkpt lat="44.619912" lon="6.233755">
        <time>2021-12-29T09:51:22+00:00</time>
        <ele>1488.0</ele>
      </trkpt>
      <trkpt lat="44.61991" lon="6.233757">
        <time>2021-12-29T09:51:26+00:00</time>
        <ele>1488.0</ele>
      </trkpt>
      <trkpt lat="44.61991" lon="6.233757">
        <time>2021-12-29T09:51:27+00:00</time>
        <ele>1488.0</ele>
      </trkpt>
      <trkpt lat="44.61989" lon="6.233745">
        <time>2021-12-29T09:51:32+00:00</time>
        <ele>1489.0</ele>
      </trkpt>
      <trkpt lat="44.619864" lon="6.23373">
        <time>2021-12-29T09:51:34+00:00</time>
        <ele>1491.0</ele>
      </trkpt>
      <trkpt lat="44.61986" lon="6.233721">
        <time>2021-12-29T09:51:35+00:00</time>
        <ele>1491.0</ele>
      </trkpt>
      <trkpt lat="44.619833" lon="6.233669">
        <time>2021-12-29T09:51:40+00:00</time>
        <ele>1493.0</ele>
      </trkpt>
      <trkpt lat="44.619843" lon="6.233671">
        <time>2021-12-29T09:51:43+00:00</time>
        <ele>1492.0</ele>
      </trkpt>
      <trkpt lat="44.619845" lon="6.233676">
        <time>2021-12-29T09:51:45+00:00</time>
        <ele>1492.0</ele>
      </trkpt>
      <trkpt lat="44.619838" lon="6.233677">
        <time>2021-12-29T09:51:49+00:00</time>
        <ele>1492.0</ele>
      </trkpt>
      <trkpt lat="44.619839" lon="6.233679">
        <time>2021-12-29T09:51:50+00:00</time>
        <ele>1492.0</ele>
      </trkpt>
      <trkpt lat="44.619796" lon="6.23367">
        <time>2021-12-29T09:51:54+00:00</time>
        <ele>1495.0</ele>
      </trkpt>
      <trkpt lat="44.619791" lon="6.233679">
        <time>2021-12-29T09:51:55+00:00</time>
        <ele>1495.0</ele>
      </trkpt>
      <trkpt lat="44.619798" lon="6.233702">
        <time>2021-12-29T09:51:57+00:00</time>
        <ele>1495.0</ele>
      </trkpt>
      <trkpt lat="44.6198" lon="6.233711">
        <time>2021-12-29T09:51:58+00:00</time>
        <ele>1495.0</ele>
      </trkpt>
      <trkpt lat="44.619796" lon="6.233715">
        <time>2021-12-29T09:51:59+00:00</time>
        <ele>1495.0</ele>
      </trkpt>
      <trkpt lat="44.619789" lon="6.233721">
        <time>2021-12-29T09:52:00+00:00</time>
        <ele>1495.0</ele>
      </trkpt>
      <trkpt lat="44.619786" lon="6.233729">
        <time>2021-12-29T09:52:05+00:00</time>
        <ele>1495.0</ele>
      </trkpt>
      <trkpt lat="44.619788" lon="6.23373">
        <time>2021-12-29T09:52:06+00:00</time>
        <ele>1495.0</ele>
      </trkpt>
      <trkpt lat="44.619802" lon="6.233733">
        <time>2021-12-29T09:52:10+00:00</time>
        <ele>1494.0</ele>
      </trkpt>
      <trkpt lat="44.619815" lon="6.233712">
        <time>2021-12-29T09:52:12+00:00</time>
        <ele>1494.0</ele>
      </trkpt>
      <trkpt lat="44.619826" lon="6.233686">
        <time>2021-12-29T09:52:18+00:00</time>
        <ele>1493.0</ele>
      </trkpt>
      <trkpt lat="44.619826" lon="6.233686">
        <time>2021-12-29T09:52:22+00:00</time>
        <ele>1493.0</ele>
      </trkpt>
      <trkpt lat="44.619826" lon="6.233691">
        <time>2021-12-29T09:52:24+00:00</time>
        <ele>1493.0</ele>
      </trkpt>
      <trkpt lat="44.619826" lon="6.233703">
        <time>2021-12-29T09:52:27+00:00</time>
        <ele>1493.0</ele>
      </trkpt>
      <trkpt lat="44.619837" lon="6.233705">
        <time>2021-12-29T09:52:36+00:00</time>
        <ele>1492.0</ele>
      </trkpt>
      <trkpt lat="44.619864" lon="6.233705">
        <time>2021-12-29T09:52:43+00:00</time>
        <ele>1491.0</ele>
      </trkpt>
      <trkpt lat="44.619865" lon="6.233705">
        <time>2021-12-29T09:52:44+00:00</time>
        <ele>1491.0</ele>
      </trkpt>
      <trkpt lat="44.619862" lon="6.23376">
        <time>2021-12-29T09:52:49+00:00</time>
        <ele>1491.0</ele>
      </trkpt>
      <trkpt lat="44.619863" lon="6.233794">
        <time>2021-12-29T09:52:52+00:00</time>
        <ele>1490.0</ele>
      </trkpt>
      <trkpt lat="44.619853" lon="6.233825">
        <time>2021-12-29T09:52:54+00:00</time>
        <ele>1491.0</ele>
      </trkpt>
      <trkpt lat="44.619847" lon="6.233847">
        <time>2021-12-29T09:52:58+00:00</time>
        <ele>1491.0</ele>
      </trkpt>
      <trkpt lat="44.619847" lon="6.233855">
        <time>2021-12-29T09:52:59+00:00</time>
        <ele>1491.0</ele>
      </trkpt>
      <trkpt lat="44.619845" lon="6.233885">
        <time>2021-12-29T09:53:04+00:00</time>
        <ele>1491.0</ele>
      </trkpt>
      <trkpt lat="44.619848" lon="6.233894">
        <time>2021-12-29T09:53:05+00:00</time>
        <ele>1491.0</ele>
      </trkpt>
      <trkpt lat="44.619846" lon="6.233913">
        <time>2021-12-29T09:53:06+00:00</time>
        <ele>1491.0</ele>
      </trkpt>
      <trkpt lat="44.619791" lon="6.233973">
        <time>2021-12-29T09:53:10+00:00</time>
        <ele>1494.0</ele>
      </trkpt>
      <trkpt lat="44.619792" lon="6.234017">
        <time>2021-12-29T09:53:15+00:00</time>
        <ele>1494.0</ele>
      </trkpt>
      <trkpt lat="44.619788" lon="6.234027">
        <time>2021-12-29T09:53:16+00:00</time>
        <ele>1494.0</ele>
      </trkpt>
      <trkpt lat="44.619758" lon="6.234065">
        <time>2021-12-29T09:53:20+00:00</time>
        <ele>1496.0</ele>
      </trkpt>
      <trkpt lat="44.619756" lon="6.23408">
        <time>2021-12-29T09:53:21+00:00</time>
        <ele>1496.0</ele>
      </trkpt>
      <trkpt lat="44.619744" lon="6.23412">
        <time>2021-12-29T09:53:24+00:00</time>
        <ele>1497.0</ele>
      </trkpt>
      <trkpt lat="44.619733" lon="6.234134">
        <time>2021-12-29T09:53:25+00:00</time>
        <ele>1497.0</ele>
      </trkpt>
      <trkpt lat="44.619684" lon="6.234153">
        <time>2021-12-29T09:53:30+00:00</time>
        <ele>1500.0</ele>
      </trkpt>
      <trkpt lat="44.619668" lon="6.234152">
        <time>2021-12-29T09:53:33+00:00</time>
        <ele>1501.0</ele>
      </trkpt>
      <trkpt lat="44.619657" lon="6.23416">
        <time>2021-12-29T09:53:35+00:00</time>
        <ele>1502.0</ele>
      </trkpt>
      <trkpt lat="44.619648" lon="6.23417">
        <time>2021-12-29T09:53:36+00:00</time>
        <ele>1502.0</ele>
      </trkpt>
      <trkpt lat="44.619634" lon="6.234174">
        <time>2021-12-29T09:53:37+00:00</time>
        <ele>1503.0</ele>
      </trkpt>
      <trkpt lat="44.619618" lon="6.234173">
        <time>2021-12-29T09:53:38+00:00</time>
        <ele>1504.0</ele>
      </trkpt>
      <trkpt lat="44.619608" lon="6.234178">
        <time>2021-12-29T09:53:41+00:00</time>
        <ele>1504.0</ele>
      </trkpt>
      <trkpt lat="44.619602" lon="6.234187">
        <time>2021-12-29T09:53:45+00:00</time>
        <ele>1505.0</ele>
      </trkpt>
      <trkpt lat="44.619624" lon="6.234193">
        <time>2021-12-29T09:53:48+00:00</time>
        <ele>1503.0</ele>
      </trkpt>
      <trkpt lat="44.619625" lon="6.234197">
        <time>2021-12-29T09:53:49+00:00</time>
        <ele>1503.0</ele>
      </trkpt>
      <trkpt lat="44.619621" lon="6.234196">
        <time>2021-12-29T09:53:50+00:00</time>
        <ele>1504.0</ele>
      </trkpt>
      <trkpt lat="44.619617" lon="6.234206">
        <time>2021-12-29T09:53:52+00:00</time>
        <ele>1504.0</ele>
      </trkpt>
      <trkpt lat="44.619621" lon="6.234223">
        <time>2021-12-29T09:53:54+00:00</time>
        <ele>1503.0</ele>
      </trkpt>
      <trkpt lat="44.619603" lon="6.234246">
        <time>2021-12-29T09:53:57+00:00</time>
        <ele>1504.0</ele>
      </trkpt>
      <trkpt lat="44.619578" lon="6.234265">
        <time>2021-12-29T09:54:00+00:00</time>
        <ele>1506.0</ele>
      </trkpt>
      <trkpt lat="44.619566" lon="6.234283">
        <time>2021-12-29T09:54:02+00:00</time>
        <ele>1506.0</ele>
      </trkpt>
      <trkpt lat="44.619562" lon="6.234307">
        <time>2021-12-29T09:54:04+00:00</time>
        <ele>1506.0</ele>
      </trkpt>
      <trkpt lat="44.619562" lon="6.234322">
        <time>2021-12-29T09:54:06+00:00</time>
        <ele>1505.0</ele>
      </trkpt>
      <trkpt lat="44.619539" lon="6.234332">
        <time>2021-12-29T09:54:08+00:00</time>
        <ele>1507.0</ele>
      </trkpt>
      <trkpt lat="44.619527" lon="6.23434">
        <time>2021-12-29T09:54:10+00:00</time>
        <ele>1507.0</ele>
      </trkpt>
      <trkpt lat="44.619497" lon="6.234344">
        <time>2021-12-29T09:54:14+00:00</time>
        <ele>1509.0</ele>
      </trkpt>
      <trkpt lat="44.619454" lon="6.234348">
        <time>2021-12-29T09:54:20+00:00</time>
        <ele>1511.0</ele>
      </trkpt>
      <trkpt lat="44.619449" lon="6.234353">
        <time>2021-12-29T09:54:21+00:00</time>
        <ele>1511.0</ele>
      </trkpt>
      <trkpt lat="44.619439" lon="6.234358">
        <time>2021-12-29T09:54:23+00:00</time>
        <ele>1511.0</ele>
      </trkpt>
      <trkpt lat="44.619408" lon="6.234348">
        <time>2021-12-29T09:54:29+00:00</time>
        <ele>1513.0</ele>
      </trkpt>
      <trkpt lat="44.619378" lon="6.234333">
        <time>2021-12-29T09:54:33+00:00</time>
        <ele>1515.0</ele>
      </trkpt>
      <trkpt lat="44.619361" lon="6.234326">
        <time>2021-12-29T09:54:35+00:00</time>
        <ele>1516.0</ele>
      </trkpt>
      <trkpt lat="44.619343" lon="6.234272">
        <time>2021-12-29T09:54:42+00:00</time>
        <ele>1518.0</ele>
      </trkpt>
      <trkpt lat="44.619334" lon="6.234254">
        <time>2021-12-29T09:54:44+00:00</time>
        <ele>1519.0</ele>
      </trkpt>
      <trkpt lat="44.619326" lon="6.234236">
        <time>2021-12-29T09:54:46+00:00</time>
        <ele>1519.0</ele>
      </trkpt>
      <trkpt lat="44.619328" lon="6.234218">
        <time>2021-12-29T09:54:48+00:00</time>
        <ele>1520.0</ele>
      </trkpt>
      <trkpt lat="44.619356" lon="6.234189">
        <time>2021-12-29T09:54:53+00:00</time>
        <ele>1518.0</ele>
      </trkpt>
      <trkpt lat="44.619362" lon="6.234185">
        <time>2021-12-29T09:54:54+00:00</time>
        <ele>1518.0</ele>
      </trkpt>
      <trkpt lat="44.619329" lon="6.234168">
        <time>2021-12-29T09:54:58+00:00</time>
        <ele>1520.0</ele>
      </trkpt>
      <trkpt lat="44.619325" lon="6.234155">
        <time>2021-12-29T09:55:00+00:00</time>
        <ele>1520.0</ele>
      </trkpt>
      <trkpt lat="44.619313" lon="6.234134">
        <time>2021-12-29T09:55:04+00:00</time>
        <ele>1521.0</ele>
      </trkpt>
      <trkpt lat="44.61931" lon="6.234121">
        <time>2021-12-29T09:55:06+00:00</time>
        <ele>1522.0</ele>
      </trkpt>
      <trkpt lat="44.61929" lon="6.234109">
        <time>2021-12-29T09:55:10+00:00</time>
        <ele>1523.0</ele>
      </trkpt>
      <trkpt lat="44.619289" lon="6.234103">
        <time>2021-12-29T09:55:11+00:00</time>
        <ele>1523.0</ele>
      </trkpt>
      <trkpt lat="44.619285" lon="6.234081">
        <time>2021-12-29T09:55:16+00:00</time>
        <ele>1524.0</ele>
      </trkpt>
      <trkpt lat="44.619264" lon="6.234075">
        <time>2021-12-29T09:55:18+00:00</time>
        <ele>1525.0</ele>
      </trkpt>
      <trkpt lat="44.619269" lon="6.234067">
        <time>2021-12-29T09:55:20+00:00</time>
        <ele>1525.0</ele>
      </trkpt>
      <trkpt lat="44.619272" lon="6.234073">
        <time>2021-12-29T09:55:24+00:00</time>
        <ele>1525.0</ele>
      </trkpt>
      <trkpt lat="44.619258" lon="6.234085">
        <time>2021-12-29T09:55:26+00:00</time>
        <ele>1525.0</ele>
      </trkpt>
      <trkpt lat="44.619257" lon="6.234085">
        <time>2021-12-29T09:55:28+00:00</time>
        <ele>1525.0</ele>
      </trkpt>
      <trkpt lat="44.619256" lon="6.234085">
        <time>2021-12-29T09:55:29+00:00</time>
        <ele>1526.0</ele>
      </trkpt>
      <trkpt lat="44.619256" lon="6.234085">
        <time>2021-12-29T09:55:30+00:00</time>
        <ele>1526.0</ele>
      </trkpt>
      <trkpt lat="44.619254" lon="6.234084">
        <time>2021-12-29T09:55:32+00:00</time>
        <ele>1526.0</ele>
      </trkpt>
      <trkpt lat="44.619245" lon="6.23408">
        <time>2021-12-29T09:55:33+00:00</time>
        <ele>1526.0</ele>
      </trkpt>
      <trkpt lat="44.619236" lon="6.234067">
        <time>2021-12-29T09:55:35+00:00</time>
        <ele>1527.0</ele>
      </trkpt>
      <trkpt lat="44.619226" lon="6.234032">
        <time>2021-12-29T09:55:38+00:00</time>
        <ele>1528.0</ele>
      </trkpt>
      <trkpt lat="44.619215" lon="6.234024">
        <time>2021-12-29T09:55:39+00:00</time>
        <ele>1529.0</ele>
      </trkpt>
      <trkpt lat="44.619201" lon="6.23401">
        <time>2021-12-29T09:55:40+00:00</time>
        <ele>1530.0</ele>
      </trkpt>
      <trkpt lat="44.61919" lon="6.233996">
        <time>2021-12-29T09:55:41+00:00</time>
        <ele>1531.0</ele>
      </trkpt>
      <trkpt lat="44.619179" lon="6.233983">
        <time>2021-12-29T09:55:43+00:00</time>
        <ele>1531.0</ele>
      </trkpt>
      <trkpt lat="44.619179" lon="6.233972">
        <time>2021-12-29T09:55:46+00:00</time>
        <ele>1532.0</ele>
      </trkpt>
      <trkpt lat="44.619181" lon="6.233966">
        <time>2021-12-29T09:55:47+00:00</time>
        <ele>1532.0</ele>
      </trkpt>
      <trkpt lat="44.619178" lon="6.233947">
        <time>2021-12-29T09:55:50+00:00</time>
        <ele>1532.0</ele>
      </trkpt>
      <trkpt lat="44.619171" lon="6.233945">
        <time>2021-12-29T09:55:51+00:00</time>
        <ele>1532.0</ele>
      </trkpt>
      <trkpt lat="44.619171" lon="6.233951">
        <time>2021-12-29T09:55:52+00:00</time>
        <ele>1532.0</ele>
      </trkpt>
      <trkpt lat="44.619154" lon="6.233952">
        <time>2021-12-29T09:55:56+00:00</time>
        <ele>1533.0</ele>
      </trkpt>
      <trkpt lat="44.619141" lon="6.233926">
        <time>2021-12-29T09:55:59+00:00</time>
        <ele>1534.0</ele>
      </trkpt>
      <trkpt lat="44.619145" lon="6.233919">
        <time>2021-12-29T09:56:01+00:00</time>
        <ele>1534.0</ele>
      </trkpt>
      <trkpt lat="44.619147" lon="6.233896">
        <time>2021-12-29T09:56:06+00:00</time>
        <ele>1534.0</ele>
      </trkpt>
      <trkpt lat="44.619122" lon="6.233875">
        <time>2021-12-29T09:56:10+00:00</time>
        <ele>1536.0</ele>
      </trkpt>
      <trkpt lat="44.619101" lon="6.233857">
        <time>2021-12-29T09:56:13+00:00</time>
        <ele>1537.0</ele>
      </trkpt>
      <trkpt lat="44.619078" lon="6.233839">
        <time>2021-12-29T09:56:15+00:00</time>
        <ele>1539.0</ele>
      </trkpt>
      <trkpt lat="44.619063" lon="6.233849">
        <time>2021-12-29T09:56:17+00:00</time>
        <ele>1540.0</ele>
      </trkpt>
      <trkpt lat="44.619004" lon="6.233837">
        <time>2021-12-29T09:56:24+00:00</time>
        <ele>1543.0</ele>
      </trkpt>
      <trkpt lat="44.618986" lon="6.233793">
        <time>2021-12-29T09:56:29+00:00</time>
        <ele>1545.0</ele>
      </trkpt>
      <trkpt lat="44.618988" lon="6.233777">
        <time>2021-12-29T09:56:30+00:00</time>
        <ele>1545.0</ele>
      </trkpt>
      <trkpt lat="44.618976" lon="6.233741">
        <time>2021-12-29T09:56:34+00:00</time>
        <ele>1546.0</ele>
      </trkpt>
      <trkpt lat="44.618963" lon="6.233732">
        <time>2021-12-29T09:56:36+00:00</time>
        <ele>1547.0</ele>
      </trkpt>
      <trkpt lat="44.618943" lon="6.233737">
        <time>2021-12-29T09:56:39+00:00</time>
        <ele>1548.0</ele>
      </trkpt>
      <trkpt lat="44.618948" lon="6.233736">
        <time>2021-12-29T09:56:42+00:00</time>
        <ele>1548.0</ele>
      </trkpt>
      <trkpt lat="44.618942" lon="6.233736">
        <time>2021-12-29T09:56:47+00:00</time>
        <ele>1548.0</ele>
      </trkpt>
      <trkpt lat="44.618922" lon="6.233736">
        <time>2021-12-29T09:56:48+00:00</time>
        <ele>1549.0</ele>
      </trkpt>
      <trkpt lat="44.618913" lon="6.23374">
        <time>2021-12-29T09:56:49+00:00</time>
        <ele>1549.0</ele>
      </trkpt>
      <trkpt lat="44.618893" lon="6.233747">
        <time>2021-12-29T09:56:52+00:00</time>
        <ele>1550.0</ele>
      </trkpt>
      <trkpt lat="44.618886" lon="6.233747">
        <time>2021-12-29T09:56:53+00:00</time>
        <ele>1550.0</ele>
      </trkpt>
      <trkpt lat="44.618878" lon="6.233744">
        <time>2021-12-29T09:56:54+00:00</time>
        <ele>1551.0</ele>
      </trkpt>
      <trkpt lat="44.618875" lon="6.233745">
        <time>2021-12-29T09:56:56+00:00</time>
        <ele>1551.0</ele>
      </trkpt>
      <trkpt lat="44.618869" lon="6.233747">
        <time>2021-12-29T09:56:57+00:00</time>
        <ele>1551.0</ele>
      </trkpt>
      <trkpt lat="44.61887" lon="6.233768">
        <time>2021-12-29T09:57:01+00:00</time>
        <ele>1551.0</ele>
      </trkpt>
      <trkpt lat="44.618871" lon="6.233779">
        <time>2021-12-29T09:57:02+00:00</time>
        <ele>1551.0</ele>
      </trkpt>
      <trkpt lat="44.618865" lon="6.233789">
        <time>2021-12-29T09:57:07+00:00</time>
        <ele>1551.0</ele>
      </trkpt>
      <trkpt lat="44.618868" lon="6.233795">
        <time>2021-12-29T09:57:09+00:00</time>
        <ele>1551.0</ele>
      </trkpt>
      <trkpt lat="44.618867" lon="6.233823">
        <time>2021-12-29T09:57:12+00:00</time>
        <ele>1550.0</ele>
      </trkpt>
      <trkpt lat="44.61887" lon="6.233821">
        <time>2021-12-29T09:57:13+00:00</time>
        <ele>1550.0</ele>
      </trkpt>
      <trkpt lat="44.618868" lon="6.233823">
        <time>2021-12-29T09:57:14+00:00</time>
        <ele>1550.0</ele>
      </trkpt>
      <trkpt lat="44.618856" lon="6.23385">
        <time>2021-12-29T09:57:18+00:00</time>
        <ele>1551.0</ele>
      </trkpt>
      <trkpt lat="44.618857" lon="6.233855">
        <time>2021-12-29T09:57:19+00:00</time>
        <ele>1551.0</ele>
      </trkpt>
      <trkpt lat="44.618863" lon="6.233858">
        <time>2021-12-29T09:57:20+00:00</time>
        <ele>1550.0</ele>
      </trkpt>
      <trkpt lat="44.618873" lon="6.233855">
        <time>2021-12-29T09:57:21+00:00</time>
        <ele>1550.0</ele>
      </trkpt>
      <trkpt lat="44.618881" lon="6.233842">
        <time>2021-12-29T09:57:24+00:00</time>
        <ele>1550.0</ele>
      </trkpt>
      <trkpt lat="44.618891" lon="6.233828">
        <time>2021-12-29T09:57:29+00:00</time>
        <ele>1549.0</ele>
      </trkpt>
      <trkpt lat="44.618898" lon="6.233818">
        <time>2021-12-29T09:57:32+00:00</time>
        <ele>1549.0</ele>
      </trkpt>
      <trkpt lat="44.618904" lon="6.233807">
        <time>2021-12-29T09:57:35+00:00</time>
        <ele>1549.0</ele>
      </trkpt>
      <trkpt lat="44.618904" lon="6.233807">
        <time>2021-12-29T09:57:38+00:00</time>
        <ele>1549.0</ele>
      </trkpt>
      <trkpt lat="44.618904" lon="6.233807">
        <time>2021-12-29T09:57:44+00:00</time>
        <ele>1549.0</ele>
      </trkpt>
      <trkpt lat="44.618904" lon="6.233796">
        <time>2021-12-29T09:57:51+00:00</time>
        <ele>1549.0</ele>
      </trkpt>
      <trkpt lat="44.618907" lon="6.233793">
        <time>2021-12-29T09:57:53+00:00</time>
        <ele>1549.0</ele>
      </trkpt>
      <trkpt lat="44.618907" lon="6.233784">
        <time>2021-12-29T09:57:55+00:00</time>
        <ele>1549.0</ele>
      </trkpt>
      <trkpt lat="44.618907" lon="6.233764">
        <time>2021-12-29T09:57:57+00:00</time>
        <ele>1549.0</ele>
      </trkpt>
      <trkpt lat="44.61891" lon="6.233749">
        <time>2021-12-29T09:58:00+00:00</time>
        <ele>1549.0</ele>
      </trkpt>
      <trkpt lat="44.618921" lon="6.233745">
        <time>2021-12-29T09:58:02+00:00</time>
        <ele>1549.0</ele>
      </trkpt>
      <trkpt lat="44.618936" lon="6.233732">
        <time>2021-12-29T09:58:09+00:00</time>
        <ele>1548.0</ele>
      </trkpt>
      <trkpt lat="44.618948" lon="6.23373">
        <time>2021-12-29T09:58:15+00:00</time>
        <ele>1548.0</ele>
      </trkpt>
      <trkpt lat="44.618956" lon="6.233749">
        <time>2021-12-29T09:58:22+00:00</time>
        <ele>1547.0</ele>
      </trkpt>
      <trkpt lat="44.618916" lon="6.233744">
        <time>2021-12-29T09:58:28+00:00</time>
        <ele>1549.0</ele>
      </trkpt>
      <trkpt lat="44.618893" lon="6.233761">
        <time>2021-12-29T09:58:31+00:00</time>
        <ele>1550.0</ele>
      </trkpt>
      <trkpt lat="44.618901" lon="6.233761">
        <time>2021-12-29T09:58:33+00:00</time>
        <ele>1550.0</ele>
      </trkpt>
      <trkpt lat="44.618898" lon="6.233758">
        <time>2021-12-29T09:58:37+00:00</time>
        <ele>1550.0</ele>
      </trkpt>
      <trkpt lat="44.618895" lon="6.233764">
        <time>2021-12-29T09:58:40+00:00</time>
        <ele>1550.0</ele>
      </trkpt>
      <trkpt lat="44.618897" lon="6.233762">
        <time>2021-12-29T09:58:41+00:00</time>
        <ele>1550.0</ele>
      </trkpt>
      <trkpt lat="44.618883" lon="6.233768">
        <time>2021-12-29T09:58:43+00:00</time>
        <ele>1550.0</ele>
      </trkpt>
      <trkpt lat="44.618886" lon="6.233776">
        <time>2021-12-29T09:58:46+00:00</time>
        <ele>1550.0</ele>
      </trkpt>
      <trkpt lat="44.618918" lon="6.233764">
        <time>2021-12-29T09:58:54+00:00</time>
        <ele>1549.0</ele>
      </trkpt>
      <trkpt lat="44.618917" lon="6.233759">
        <time>2021-12-29T09:59:02+00:00</time>
        <ele>1549.0</ele>
      </trkpt>
      <trkpt lat="44.618905" lon="6.233754">
        <time>2021-12-29T09:59:03+00:00</time>
        <ele>1549.0</ele>
      </trkpt>
      <trkpt lat="44.618904" lon="6.233754">
        <time>2021-12-29T09:59:04+00:00</time>
        <ele>1549.0</ele>
      </trkpt>
      <trkpt lat="44.618926" lon="6.23376">
        <time>2021-12-29T09:59:06+00:00</time>
        <ele>1548.0</ele>
      </trkpt>
      <trkpt lat="44.618934" lon="6.233763">
        <time>2021-12-29T09:59:07+00:00</time>
        <ele>1548.0</ele>
      </trkpt>
      <trkpt lat="44.618971" lon="6.23378">
        <time>2021-12-29T09:59:11+00:00</time>
        <ele>1546.0</ele>
      </trkpt>
      <trkpt lat="44.618998" lon="6.233769">
        <time>2021-12-29T09:59:18+00:00</time>
        <ele>1544.0</ele>
      </trkpt>
      <trkpt lat="44.618988" lon="6.233755">
        <time>2021-12-29T09:59:23+00:00</time>
        <ele>1545.0</ele>
      </trkpt>
      <trkpt lat="44.618988" lon="6.233758">
        <time>2021-12-29T09:59:36+00:00</time>
        <ele>1545.0</ele>
      </trkpt>
      <trkpt lat="44.618988" lon="6.233768">
        <time>2021-12-29T09:59:41+00:00</time>
        <ele>1545.0</ele>
      </trkpt>
      <trkpt lat="44.618988" lon="6.233774">
        <time>2021-12-29T09:59:45+00:00</time>
        <ele>1545.0</ele>
      </trkpt>
      <trkpt lat="44.618988" lon="6.233783">
        <time>2021-12-29T09:59:48+00:00</time>
        <ele>1545.0</ele>
      </trkpt>
      <trkpt lat="44.618984" lon="6.233788">
        <time>2021-12-29T09:59:51+00:00</time>
        <ele>1545.0</ele>
      </trkpt>
      <trkpt lat="44.619007" lon="6.233792">
        <time>2021-12-29T09:59:53+00:00</time>
        <ele>1543.0</ele>
      </trkpt>
      <trkpt lat="44.619005" lon="6.233798">
        <time>2021-12-29T09:59:55+00:00</time>
        <ele>1544.0</ele>
      </trkpt>
      <trkpt lat="44.618984" lon="6.233815">
        <time>2021-12-29T09:59:59+00:00</time>
        <ele>1545.0</ele>
      </trkpt>
      <trkpt lat="44.61898" lon="6.233821">
        <time>2021-12-29T10:00:04+00:00</time>
        <ele>1545.0</ele>
      </trkpt>
      <trkpt lat="44.618986" lon="6.233819">
        <time>2021-12-29T10:00:07+00:00</time>
        <ele>1544.0</ele>
      </trkpt>
      <trkpt lat="44.619022" lon="6.233835">
        <time>2021-12-29T10:00:16+00:00</time>
        <ele>1542.0</ele>
      </trkpt>
      <trkpt lat="44.619007" lon="6.233838">
        <time>2021-12-29T10:00:20+00:00</time>
        <ele>1543.0</ele>
      </trkpt>
      <trkpt lat="44.619002" lon="6.233832">
        <time>2021-12-29T10:00:21+00:00</time>
        <ele>1543.0</ele>
      </trkpt>
      <trkpt lat="44.619013" lon="6.233822">
        <time>2021-12-29T10:00:31+00:00</time>
        <ele>1543.0</ele>
      </trkpt>
      <trkpt lat="44.619008" lon="6.233804">
        <time>2021-12-29T10:00:35+00:00</time>
        <ele>1543.0</ele>
      </trkpt>
      <trkpt lat="44.618993" lon="6.233799">
        <time>2021-12-29T10:00:39+00:00</time>
        <ele>1544.0</ele>
      </trkpt>
      <trkpt lat="44.619003" lon="6.233801">
        <time>2021-12-29T10:00:40+00:00</time>
        <ele>1544.0</ele>
      </trkpt>
      <trkpt lat="44.618978" lon="6.233774">
        <time>2021-12-29T10:00:44+00:00</time>
        <ele>1545.0</ele>
      </trkpt>
      <trkpt lat="44.618971" lon="6.233761">
        <time>2021-12-29T10:00:45+00:00</time>
        <ele>1546.0</ele>
      </trkpt>
      <trkpt lat="44.618964" lon="6.23375">
        <time>2021-12-29T10:00:46+00:00</time>
        <ele>1547.0</ele>
      </trkpt>
      <trkpt lat="44.618964" lon="6.233743">
        <time>2021-12-29T10:00:49+00:00</time>
        <ele>1547.0</ele>
      </trkpt>
      <trkpt lat="44.61894" lon="6.233761">
        <time>2021-12-29T10:00:54+00:00</time>
        <ele>1548.0</ele>
      </trkpt>
      <trkpt lat="44.618875" lon="6.233745">
        <time>2021-12-29T10:01:00+00:00</time>
        <ele>1551.0</ele>
      </trkpt>
      <trkpt lat="44.618855" lon="6.233742">
        <time>2021-12-29T10:01:04+00:00</time>
        <ele>1552.0</ele>
      </trkpt>
      <trkpt lat="44.618852" lon="6.233732">
        <time>2021-12-29T10:01:09+00:00</time>
        <ele>1552.0</ele>
      </trkpt>
      <trkpt lat="44.61887" lon="6.233765">
        <time>2021-12-29T10:01:16+00:00</time>
        <ele>1551.0</ele>
      </trkpt>
      <trkpt lat="44.618864" lon="6.233775">
        <time>2021-12-29T10:01:19+00:00</time>
        <ele>1551.0</ele>
      </trkpt>
      <trkpt lat="44.618859" lon="6.233776">
        <time>2021-12-29T10:01:21+00:00</time>
        <ele>1551.0</ele>
      </trkpt>
      <trkpt lat="44.618885" lon="6.23378">
        <time>2021-12-29T10:01:25+00:00</time>
        <ele>1550.0</ele>
      </trkpt>
      <trkpt lat="44.618867" lon="6.233802">
        <time>2021-12-29T10:01:29+00:00</time>
        <ele>1551.0</ele>
      </trkpt>
      <trkpt lat="44.618887" lon="6.233802">
        <time>2021-12-29T10:01:31+00:00</time>
        <ele>1550.0</ele>
      </trkpt>
      <trkpt lat="44.618883" lon="6.233811">
        <time>2021-12-29T10:01:37+00:00</time>
        <ele>1550.0</ele>
      </trkpt>
      <trkpt lat="44.618854" lon="6.233799">
        <time>2021-12-29T10:01:41+00:00</time>
        <ele>1551.0</ele>
      </trkpt>
      <trkpt lat="44.618853" lon="6.233795">
        <time>2021-12-29T10:01:42+00:00</time>
        <ele>1551.0</ele>
      </trkpt>
      <trkpt lat="44.618851" lon="6.233775">
        <time>2021-12-29T10:01:46+00:00</time>
        <ele>1552.0</ele>
      </trkpt>
      <trkpt lat="44.618853" lon="6.233775">
        <time>2021-12-29T10:01:50+00:00</time>
        <ele>1552.0</ele>
      </trkpt>
      <trkpt lat="44.618886" lon="6.233776">
        <time>2021-12-29T10:01:55+00:00</time>
        <ele>1550.0</ele>
      </trkpt>
      <trkpt lat="44.618896" lon="6.233772">
        <time>2021-12-29T10:01:58+00:00</time>
        <ele>1550.0</ele>
      </trkpt>
      <trkpt lat="44.618904" lon="6.233767">
        <time>2021-12-29T10:02:03+00:00</time>
        <ele>1549.0</ele>
      </trkpt>
      <trkpt lat="44.618892" lon="6.233767">
        <time>2021-12-29T10:02:09+00:00</time>
        <ele>1550.0</ele>
      </trkpt>
      <trkpt lat="44.618893" lon="6.233768">
        <time>2021-12-29T10:02:16+00:00</time>
        <ele>1550.0</ele>
      </trkpt>
      <trkpt lat="44.618885" lon="6.233762">
        <time>2021-12-29T10:02:17+00:00</time>
        <ele>1550.0</ele>
      </trkpt>
      <trkpt lat="44.618869" lon="6.233754">
        <time>2021-12-29T10:02:19+00:00</time>
        <ele>1551.0</ele>
      </trkpt>
      <trkpt lat="44.618891" lon="6.233743">
        <time>2021-12-29T10:02:23+00:00</time>
        <ele>1550.0</ele>
      </trkpt>
      <trkpt lat="44.618884" lon="6.233742">
        <time>2021-12-29T10:02:25+00:00</time>
        <ele>1551.0</ele>
      </trkpt>
      <trkpt lat="44.618878" lon="6.233742">
        <time>2021-12-29T10:02:28+00:00</time>
        <ele>1551.0</ele>
      </trkpt>
      <trkpt lat="44.618859" lon="6.233721">
        <time>2021-12-29T10:02:34+00:00</time>
        <ele>1552.0</ele>
      </trkpt>
      <trkpt lat="44.618855" lon="6.233712">
        <time>2021-12-29T10:02:48+00:00</time>
        <ele>1552.0</ele>
      </trkpt>
      <trkpt lat="44.618877" lon="6.233702">
        <time>2021-12-29T10:03:01+00:00</time>
        <ele>1551.0</ele>
      </trkpt>
      <trkpt lat="44.618879" lon="6.233692">
        <time>2021-12-29T10:03:04+00:00</time>
        <ele>1551.0</ele>
      </trkpt>
      <trkpt lat="44.61889" lon="6.233684">
        <time>2021-12-29T10:03:08+00:00</time>
        <ele>1551.0</ele>
      </trkpt>
      <trkpt lat="44.618895" lon="6.233684">
        <time>2021-12-29T10:03:12+00:00</time>
        <ele>1550.0</ele>
      </trkpt>
      <trkpt lat="44.618955" lon="6.233695">
        <time>2021-12-29T10:03:23+00:00</time>
        <ele>1548.0</ele>
      </trkpt>
      <trkpt lat="44.618969" lon="6.233706">
        <time>2021-12-29T10:03:29+00:00</time>
        <ele>1547.0</ele>
      </trkpt>
      <trkpt lat="44.618987" lon="6.233702">
        <time>2021-12-29T10:03:33+00:00</time>
        <ele>1546.0</ele>
      </trkpt>
      <trkpt lat="44.618997" lon="6.233716">
        <time>2021-12-29T10:03:35+00:00</time>
        <ele>1545.0</ele>
      </trkpt>
      <trkpt lat="44.618977" lon="6.233733">
        <time>2021-12-29T10:03:39+00:00</time>
        <ele>1546.0</ele>
      </trkpt>
      <trkpt lat="44.618973" lon="6.233732">
        <time>2021-12-29T10:03:40+00:00</time>
        <ele>1546.0</ele>
      </trkpt>
      <trkpt lat="44.618959" lon="6.233742">
        <time>2021-12-29T10:03:43+00:00</time>
        <ele>1547.0</ele>
      </trkpt>
      <trkpt lat="44.618955" lon="6.233747">
        <time>2021-12-29T10:03:45+00:00</time>
        <ele>1547.0</ele>
      </trkpt>
      <trkpt lat="44.618967" lon="6.233757">
        <time>2021-12-29T10:03:47+00:00</time>
        <ele>1546.0</ele>
      </trkpt>
      <trkpt lat="44.618973" lon="6.233775">
        <time>2021-12-29T10:03:50+00:00</time>
        <ele>1546.0</ele>
      </trkpt>
      <trkpt lat="44.618969" lon="6.233784">
        <time>2021-12-29T10:03:51+00:00</time>
        <ele>1546.0</ele>
      </trkpt>
      <trkpt lat="44.618974" lon="6.233787">
        <time>2021-12-29T10:03:55+00:00</time>
        <ele>1546.0</ele>
      </trkpt>
      <trkpt lat="44.618969" lon="6.233816">
        <time>2021-12-29T10:04:00+00:00</time>
        <ele>1546.0</ele>
      </trkpt>
      <trkpt lat="44.618978" lon="6.233811">
        <time>2021-12-29T10:04:03+00:00</time>
        <ele>1545.0</ele>
      </trkpt>
      <trkpt lat="44.618989" lon="6.233812">
        <time>2021-12-29T10:04:04+00:00</time>
        <ele>1544.0</ele>
      </trkpt>
      <trkpt lat="44.618995" lon="6.233814">
        <time>2021-12-29T10:04:05+00:00</time>
        <ele>1544.0</ele>
      </trkpt>
      <trkpt lat="44.618994" lon="6.233818">
        <time>2021-12-29T10:04:08+00:00</time>
        <ele>1544.0</ele>
      </trkpt>
      <trkpt lat="44.618989" lon="6.233815">
        <time>2021-12-29T10:04:13+00:00</time>
        <ele>1544.0</ele>
      </trkpt>
      <trkpt lat="44.618989" lon="6.233815">
        <time>2021-12-29T10:04:15+00:00</time>
        <ele>1544.0</ele>
      </trkpt>
      <trkpt lat="44.618989" lon="6.233815">
        <time>2021-12-29T10:04:16+00:00</time>
        <ele>1544.0</ele>
      </trkpt>
      <trkpt lat="44.618989" lon="6.233815">
        <time>2021-12-29T10:04:18+00:00</time>
        <ele>1544.0</ele>
      </trkpt>
      <trkpt lat="44.618989" lon="6.233815">
        <time>2021-12-29T10:04:19+00:00</time>
        <ele>1544.0</ele>
      </trkpt>
      <trkpt lat="44.619003" lon="6.233815">
        <time>2021-12-29T10:04:29+00:00</time>
        <ele>1543.0</ele>
      </trkpt>
      <trkpt lat="44.619004" lon="6.233818">
        <time>2021-12-29T10:04:33+00:00</time>
        <ele>1543.0</ele>
      </trkpt>
      <trkpt lat="44.619008" lon="6.233832">
        <time>2021-12-29T10:04:37+00:00</time>
        <ele>1543.0</ele>
      </trkpt>
      <trkpt lat="44.619012" lon="6.233834">
        <time>2021-12-29T10:04:41+00:00</time>
        <ele>1543.0</ele>
      </trkpt>
      <trkpt lat="44.618968" lon="6.233825">
        <time>2021-12-29T10:05:13+00:00</time>
        <ele>1545.0</ele>
      </trkpt>
      <trkpt lat="44.618962" lon="6.233821">
        <time>2021-12-29T10:05:17+00:00</time>
        <ele>1546.0</ele>
      </trkpt>
      <trkpt lat="44.618942" lon="6.233805">
        <time>2021-12-29T10:05:26+00:00</time>
        <ele>1547.0</ele>
      </trkpt>
      <trkpt lat="44.618925" lon="6.233791">
        <time>2021-12-29T10:05:31+00:00</time>
        <ele>1548.0</ele>
      </trkpt>
      <trkpt lat="44.618878" lon="6.233748">
        <time>2021-12-29T10:05:44+00:00</time>
        <ele>1551.0</ele>
      </trkpt>
      <trkpt lat="44.618863" lon="6.233717">
        <time>2021-12-29T10:05:57+00:00</time>
        <ele>1552.0</ele>
      </trkpt>
      <trkpt lat="44.618866" lon="6.233722">
        <time>2021-12-29T10:06:19+00:00</time>
        <ele>1552.0</ele>
      </trkpt>
      <trkpt lat="44.618872" lon="6.233734">
        <time>2021-12-29T10:06:29+00:00</time>
        <ele>1551.0</ele>
      </trkpt>
      <trkpt lat="44.618875" lon="6.233744">
        <time>2021-12-29T10:06:35+00:00</time>
        <ele>1551.0</ele>
      </trkpt>
      <trkpt lat="44.61889" lon="6.233833">
        <time>2021-12-29T10:06:42+00:00</time>
        <ele>1549.0</ele>
      </trkpt>
      <trkpt lat="44.61889" lon="6.233855">
        <time>2021-12-29T10:06:43+00:00</time>
        <ele>1549.0</ele>
      </trkpt>
      <trkpt lat="44.618926" lon="6.233957">
        <time>2021-12-29T10:06:49+00:00</time>
        <ele>1546.0</ele>
      </trkpt>
      <trkpt lat="44.618903" lon="6.233988">
        <time>2021-12-29T10:06:53+00:00</time>
        <ele>1547.0</ele>
      </trkpt>
      <trkpt lat="44.618894" lon="6.234008">
        <time>2021-12-29T10:06:55+00:00</time>
        <ele>1547.0</ele>
      </trkpt>
      <trkpt lat="44.618883" lon="6.234019">
        <time>2021-12-29T10:06:56+00:00</time>
        <ele>1547.0</ele>
      </trkpt>
      <trkpt lat="44.618863" lon="6.234036">
        <time>2021-12-29T10:07:00+00:00</time>
        <ele>1548.0</ele>
      </trkpt>
      <trkpt lat="44.618863" lon="6.234045">
        <time>2021-12-29T10:07:01+00:00</time>
        <ele>1548.0</ele>
      </trkpt>
      <trkpt lat="44.61886" lon="6.234054">
        <time>2021-12-29T10:07:02+00:00</time>
        <ele>1548.0</ele>
      </trkpt>
      <trkpt lat="44.618847" lon="6.234071">
        <time>2021-12-29T10:07:04+00:00</time>
        <ele>1548.0</ele>
      </trkpt>
      <trkpt lat="44.618851" lon="6.234101">
        <time>2021-12-29T10:07:07+00:00</time>
        <ele>1548.0</ele>
      </trkpt>
      <trkpt lat="44.618841" lon="6.234153">
        <time>2021-12-29T10:07:13+00:00</time>
        <ele>1548.0</ele>
      </trkpt>
      <trkpt lat="44.618823" lon="6.234224">
        <time>2021-12-29T10:07:18+00:00</time>
        <ele>1548.0</ele>
      </trkpt>
      <trkpt lat="44.618817" lon="6.234232">
        <time>2021-12-29T10:07:19+00:00</time>
        <ele>1548.0</ele>
      </trkpt>
      <trkpt lat="44.618817" lon="6.234255">
        <time>2021-12-29T10:07:21+00:00</time>
        <ele>1548.0</ele>
      </trkpt>
      <trkpt lat="44.618843" lon="6.234256">
        <time>2021-12-29T10:07:25+00:00</time>
        <ele>1546.0</ele>
      </trkpt>
      <trkpt lat="44.618843" lon="6.234261">
        <time>2021-12-29T10:07:26+00:00</time>
        <ele>1546.0</ele>
      </trkpt>
      <trkpt lat="44.618842" lon="6.234266">
        <time>2021-12-29T10:07:27+00:00</time>
        <ele>1546.0</ele>
      </trkpt>
      <trkpt lat="44.618851" lon="6.234288">
        <time>2021-12-29T10:07:30+00:00</time>
        <ele>1545.0</ele>
      </trkpt>
      <trkpt lat="44.618866" lon="6.234307">
        <time>2021-12-29T10:07:33+00:00</time>
        <ele>1544.0</ele>
      </trkpt>
      <trkpt lat="44.618846" lon="6.234326">
        <time>2021-12-29T10:07:38+00:00</time>
        <ele>1545.0</ele>
      </trkpt>
      <trkpt lat="44.618814" lon="6.23435">
        <time>2021-12-29T10:07:42+00:00</time>
        <ele>1546.0</ele>
      </trkpt>
      <trkpt lat="44.618807" lon="6.234359">
        <time>2021-12-29T10:07:43+00:00</time>
        <ele>1546.0</ele>
      </trkpt>
      <trkpt lat="44.618796" lon="6.234368">
        <time>2021-12-29T10:07:44+00:00</time>
        <ele>1546.0</ele>
      </trkpt>
      <trkpt lat="44.618748" lon="6.234399">
        <time>2021-12-29T10:07:47+00:00</time>
        <ele>1548.0</ele>
      </trkpt>
      <trkpt lat="44.618739" lon="6.234408">
        <time>2021-12-29T10:07:48+00:00</time>
        <ele>1548.0</ele>
      </trkpt>
      <trkpt lat="44.618738" lon="6.234417">
        <time>2021-12-29T10:07:50+00:00</time>
        <ele>1548.0</ele>
      </trkpt>
      <trkpt lat="44.618744" lon="6.234424">
        <time>2021-12-29T10:07:53+00:00</time>
        <ele>1547.0</ele>
      </trkpt>
      <trkpt lat="44.618751" lon="6.234443">
        <time>2021-12-29T10:07:56+00:00</time>
        <ele>1547.0</ele>
      </trkpt>
      <trkpt lat="44.618748" lon="6.234448">
        <time>2021-12-29T10:07:58+00:00</time>
        <ele>1547.0</ele>
      </trkpt>
      <trkpt lat="44.618746" lon="6.234466">
        <time>2021-12-29T10:08:01+00:00</time>
        <ele>1546.0</ele>
      </trkpt>
      <trkpt lat="44.618731" lon="6.234487">
        <time>2021-12-29T10:08:04+00:00</time>
        <ele>1546.0</ele>
      </trkpt>
      <trkpt lat="44.618717" lon="6.234507">
        <time>2021-12-29T10:08:06+00:00</time>
        <ele>1546.0</ele>
      </trkpt>
      <trkpt lat="44.61871" lon="6.234518">
        <time>2021-12-29T10:08:07+00:00</time>
        <ele>1546.0</ele>
      </trkpt>
      <trkpt lat="44.618677" lon="6.234553">
        <time>2021-12-29T10:08:11+00:00</time>
        <ele>1547.0</ele>
      </trkpt>
      <trkpt lat="44.618671" lon="6.234587">
        <time>2021-12-29T10:08:15+00:00</time>
        <ele>1546.0</ele>
      </trkpt>
      <trkpt lat="44.61869" lon="6.234597">
        <time>2021-12-29T10:08:18+00:00</time>
        <ele>1545.0</ele>
      </trkpt>
      <trkpt lat="44.618691" lon="6.234614">
        <time>2021-12-29T10:08:20+00:00</time>
        <ele>1545.0</ele>
      </trkpt>
      <trkpt lat="44.618663" lon="6.234634">
        <time>2021-12-29T10:08:22+00:00</time>
        <ele>1545.0</ele>
      </trkpt>
      <trkpt lat="44.618645" lon="6.234651">
        <time>2021-12-29T10:08:26+00:00</time>
        <ele>1545.0</ele>
      </trkpt>
      <trkpt lat="44.618638" lon="6.234663">
        <time>2021-12-29T10:08:27+00:00</time>
        <ele>1545.0</ele>
      </trkpt>
      <trkpt lat="44.618622" lon="6.234683">
        <time>2021-12-29T10:08:29+00:00</time>
        <ele>1545.0</ele>
      </trkpt>
      <trkpt lat="44.618598" lon="6.234709">
        <time>2021-12-29T10:08:33+00:00</time>
        <ele>1546.0</ele>
      </trkpt>
      <trkpt lat="44.618557" lon="6.23473">
        <time>2021-12-29T10:08:36+00:00</time>
        <ele>1546.0</ele>
      </trkpt>
      <trkpt lat="44.618537" lon="6.234731">
        <time>2021-12-29T10:08:38+00:00</time>
        <ele>1547.0</ele>
      </trkpt>
      <trkpt lat="44.618528" lon="6.234728">
        <time>2021-12-29T10:08:40+00:00</time>
        <ele>1547.0</ele>
      </trkpt>
      <trkpt lat="44.618519" lon="6.234733">
        <time>2021-12-29T10:08:41+00:00</time>
        <ele>1548.0</ele>
      </trkpt>
      <trkpt lat="44.618496" lon="6.234734">
        <time>2021-12-29T10:08:45+00:00</time>
        <ele>1548.0</ele>
      </trkpt>
      <trkpt lat="44.618483" lon="6.234745">
        <time>2021-12-29T10:08:47+00:00</time>
        <ele>1548.0</ele>
      </trkpt>
      <trkpt lat="44.618462" lon="6.234754">
        <time>2021-12-29T10:08:50+00:00</time>
        <ele>1549.0</ele>
      </trkpt>
      <trkpt lat="44.618437" lon="6.234769">
        <time>2021-12-29T10:08:52+00:00</time>
        <ele>1549.0</ele>
      </trkpt>
      <trkpt lat="44.618354" lon="6.234787">
        <time>2021-12-29T10:08:56+00:00</time>
        <ele>1551.0</ele>
      </trkpt>
      <trkpt lat="44.618341" lon="6.234791">
        <time>2021-12-29T10:08:57+00:00</time>
        <ele>1551.0</ele>
      </trkpt>
      <trkpt lat="44.618331" lon="6.234787">
        <time>2021-12-29T10:09:01+00:00</time>
        <ele>1552.0</ele>
      </trkpt>
      <trkpt lat="44.618325" lon="6.234761">
        <time>2021-12-29T10:09:07+00:00</time>
        <ele>1553.0</ele>
      </trkpt>
      <trkpt lat="44.618303" lon="6.234764">
        <time>2021-12-29T10:09:09+00:00</time>
        <ele>1553.0</ele>
      </trkpt>
      <trkpt lat="44.618277" lon="6.23478">
        <time>2021-12-29T10:09:14+00:00</time>
        <ele>1553.0</ele>
      </trkpt>
      <trkpt lat="44.618258" lon="6.234778">
        <time>2021-12-29T10:09:16+00:00</time>
        <ele>1554.0</ele>
      </trkpt>
      <trkpt lat="44.618233" lon="6.23477">
        <time>2021-12-29T10:09:19+00:00</time>
        <ele>1555.0</ele>
      </trkpt>
      <trkpt lat="44.618216" lon="6.234769">
        <time>2021-12-29T10:09:22+00:00</time>
        <ele>1555.0</ele>
      </trkpt>
      <trkpt lat="44.618196" lon="6.234753">
        <time>2021-12-29T10:09:24+00:00</time>
        <ele>1556.0</ele>
      </trkpt>
      <trkpt lat="44.618148" lon="6.234736">
        <time>2021-12-29T10:09:28+00:00</time>
        <ele>1558.0</ele>
      </trkpt>
      <trkpt lat="44.61814" lon="6.234723">
        <time>2021-12-29T10:09:30+00:00</time>
        <ele>1558.0</ele>
      </trkpt>
      <trkpt lat="44.618118" lon="6.234725">
        <time>2021-12-29T10:09:33+00:00</time>
        <ele>1559.0</ele>
      </trkpt>
      <trkpt lat="44.618094" lon="6.234746">
        <time>2021-12-29T10:09:36+00:00</time>
        <ele>1559.0</ele>
      </trkpt>
      <trkpt lat="44.618041" lon="6.234763">
        <time>2021-12-29T10:09:41+00:00</time>
        <ele>1561.0</ele>
      </trkpt>
      <trkpt lat="44.617992" lon="6.234767">
        <time>2021-12-29T10:09:44+00:00</time>
        <ele>1562.0</ele>
      </trkpt>
      <trkpt lat="44.617932" lon="6.234781">
        <time>2021-12-29T10:09:47+00:00</time>
        <ele>1563.0</ele>
      </trkpt>
      <trkpt lat="44.617904" lon="6.234771">
        <time>2021-12-29T10:09:49+00:00</time>
        <ele>1564.0</ele>
      </trkpt>
      <trkpt lat="44.61789" lon="6.234736">
        <time>2021-12-29T10:09:52+00:00</time>
        <ele>1565.0</ele>
      </trkpt>
      <trkpt lat="44.617869" lon="6.234712">
        <time>2021-12-29T10:09:56+00:00</time>
        <ele>1566.0</ele>
      </trkpt>
      <trkpt lat="44.617867" lon="6.234707">
        <time>2021-12-29T10:09:58+00:00</time>
        <ele>1566.0</ele>
      </trkpt>
      <trkpt lat="44.617858" lon="6.234702">
        <time>2021-12-29T10:10:03+00:00</time>
        <ele>1567.0</ele>
      </trkpt>
      <trkpt lat="44.617842" lon="6.234692">
        <time>2021-12-29T10:10:05+00:00</time>
        <ele>1567.0</ele>
      </trkpt>
      <trkpt lat="44.617825" lon="6.234691">
        <time>2021-12-29T10:10:09+00:00</time>
        <ele>1568.0</ele>
      </trkpt>
      <trkpt lat="44.617804" lon="6.234704">
        <time>2021-12-29T10:10:10+00:00</time>
        <ele>1568.0</ele>
      </trkpt>
      <trkpt lat="44.617767" lon="6.234714">
        <time>2021-12-29T10:10:13+00:00</time>
        <ele>1569.0</ele>
      </trkpt>
      <trkpt lat="44.617718" lon="6.234753">
        <time>2021-12-29T10:10:17+00:00</time>
        <ele>1570.0</ele>
      </trkpt>
      <trkpt lat="44.617705" lon="6.234764">
        <time>2021-12-29T10:10:19+00:00</time>
        <ele>1570.0</ele>
      </trkpt>
      <trkpt lat="44.617709" lon="6.234781">
        <time>2021-12-29T10:10:22+00:00</time>
        <ele>1570.0</ele>
      </trkpt>
      <trkpt lat="44.617706" lon="6.234801">
        <time>2021-12-29T10:10:24+00:00</time>
        <ele>1569.0</ele>
      </trkpt>
      <trkpt lat="44.617676" lon="6.234836">
        <time>2021-12-29T10:10:29+00:00</time>
        <ele>1570.0</ele>
      </trkpt>
      <trkpt lat="44.617659" lon="6.234844">
        <time>2021-12-29T10:10:31+00:00</time>
        <ele>1571.0</ele>
      </trkpt>
      <trkpt lat="44.617652" lon="6.234847">
        <time>2021-12-29T10:10:32+00:00</time>
        <ele>1571.0</ele>
      </trkpt>
      <trkpt lat="44.61766" lon="6.234859">
        <time>2021-12-29T10:10:36+00:00</time>
        <ele>1571.0</ele>
      </trkpt>
      <trkpt lat="44.617666" lon="6.234857">
        <time>2021-12-29T10:10:37+00:00</time>
        <ele>1570.0</ele>
      </trkpt>
      <trkpt lat="44.617632" lon="6.23487">
        <time>2021-12-29T10:10:40+00:00</time>
        <ele>1571.0</ele>
      </trkpt>
      <trkpt lat="44.617609" lon="6.234879">
        <time>2021-12-29T10:10:42+00:00</time>
        <ele>1572.0</ele>
      </trkpt>
      <trkpt lat="44.617589" lon="6.234895">
        <time>2021-12-29T10:10:46+00:00</time>
        <ele>1573.0</ele>
      </trkpt>
      <trkpt lat="44.617556" lon="6.234891">
        <time>2021-12-29T10:10:50+00:00</time>
        <ele>1574.0</ele>
      </trkpt>
      <trkpt lat="44.61755" lon="6.234894">
        <time>2021-12-29T10:10:51+00:00</time>
        <ele>1574.0</ele>
      </trkpt>
      <trkpt lat="44.617538" lon="6.234896">
        <time>2021-12-29T10:10:52+00:00</time>
        <ele>1574.0</ele>
      </trkpt>
      <trkpt lat="44.617489" lon="6.234896">
        <time>2021-12-29T10:10:57+00:00</time>
        <ele>1576.0</ele>
      </trkpt>
      <trkpt lat="44.617482" lon="6.234892">
        <time>2021-12-29T10:10:58+00:00</time>
        <ele>1577.0</ele>
      </trkpt>
      <trkpt lat="44.617449" lon="6.23488">
        <time>2021-12-29T10:11:04+00:00</time>
        <ele>1578.0</ele>
      </trkpt>
      <trkpt lat="44.617449" lon="6.23488">
        <time>2021-12-29T10:11:05+00:00</time>
        <ele>1578.0</ele>
      </trkpt>
      <trkpt lat="44.617421" lon="6.23489">
        <time>2021-12-29T10:11:10+00:00</time>
        <ele>1579.0</ele>
      </trkpt>
      <trkpt lat="44.617377" lon="6.234902">
        <time>2021-12-29T10:11:12+00:00</time>
        <ele>1580.0</ele>
      </trkpt>
      <trkpt lat="44.617334" lon="6.234926">
        <time>2021-12-29T10:11:16+00:00</time>
        <ele>1581.0</ele>
      </trkpt>
      <trkpt lat="44.617291" lon="6.234929">
        <time>2021-12-29T10:11:19+00:00</time>
        <ele>1582.0</ele>
      </trkpt>
      <trkpt lat="44.617286" lon="6.234907">
        <time>2021-12-29T10:11:22+00:00</time>
        <ele>1582.0</ele>
      </trkpt>
      <trkpt lat="44.617248" lon="6.234894">
        <time>2021-12-29T10:11:28+00:00</time>
        <ele>1583.0</ele>
      </trkpt>
      <trkpt lat="44.617244" lon="6.234876">
        <time>2021-12-29T10:11:30+00:00</time>
        <ele>1583.0</ele>
      </trkpt>
      <trkpt lat="44.617214" lon="6.234858">
        <time>2021-12-29T10:11:34+00:00</time>
        <ele>1584.0</ele>
      </trkpt>
      <trkpt lat="44.617188" lon="6.234867">
        <time>2021-12-29T10:11:37+00:00</time>
        <ele>1585.0</ele>
      </trkpt>
      <trkpt lat="44.617174" lon="6.234819">
        <time>2021-12-29T10:11:41+00:00</time>
        <ele>1586.0</ele>
      </trkpt>
      <trkpt lat="44.617154" lon="6.234794">
        <time>2021-12-29T10:11:44+00:00</time>
        <ele>1586.0</ele>
      </trkpt>
      <trkpt lat="44.617138" lon="6.234793">
        <time>2021-12-29T10:11:46+00:00</time>
        <ele>1587.0</ele>
      </trkpt>
      <trkpt lat="44.617065" lon="6.234784">
        <time>2021-12-29T10:11:54+00:00</time>
        <ele>1589.0</ele>
      </trkpt>
      <trkpt lat="44.61706" lon="6.234783">
        <time>2021-12-29T10:11:55+00:00</time>
        <ele>1589.0</ele>
      </trkpt>
      <trkpt lat="44.617044" lon="6.234718">
        <time>2021-12-29T10:12:01+00:00</time>
        <ele>1590.0</ele>
      </trkpt>
      <trkpt lat="44.617037" lon="6.23471">
        <time>2021-12-29T10:12:02+00:00</time>
        <ele>1590.0</ele>
      </trkpt>
      <trkpt lat="44.617027" lon="6.234698">
        <time>2021-12-29T10:12:04+00:00</time>
        <ele>1590.0</ele>
      </trkpt>
      <trkpt lat="44.617022" lon="6.234656">
        <time>2021-12-29T10:12:09+00:00</time>
        <ele>1590.0</ele>
      </trkpt>
      <trkpt lat="44.617031" lon="6.234631">
        <time>2021-12-29T10:12:11+00:00</time>
        <ele>1590.0</ele>
      </trkpt>
      <trkpt lat="44.617016" lon="6.234579">
        <time>2021-12-29T10:12:16+00:00</time>
        <ele>1591.0</ele>
      </trkpt>
      <trkpt lat="44.617004" lon="6.234562">
        <time>2021-12-29T10:12:18+00:00</time>
        <ele>1591.0</ele>
      </trkpt>
      <trkpt lat="44.617004" lon="6.234534">
        <time>2021-12-29T10:12:21+00:00</time>
        <ele>1591.0</ele>
      </trkpt>
      <trkpt lat="44.61701" lon="6.234495">
        <time>2021-12-29T10:12:24+00:00</time>
        <ele>1591.0</ele>
      </trkpt>
      <trkpt lat="44.617004" lon="6.234468">
        <time>2021-12-29T10:12:26+00:00</time>
        <ele>1591.0</ele>
      </trkpt>
      <trkpt lat="44.617005" lon="6.234452">
        <time>2021-12-29T10:12:27+00:00</time>
        <ele>1591.0</ele>
      </trkpt>
      <trkpt lat="44.616994" lon="6.234398">
        <time>2021-12-29T10:12:32+00:00</time>
        <ele>1592.0</ele>
      </trkpt>
      <trkpt lat="44.616991" lon="6.23437">
        <time>2021-12-29T10:12:34+00:00</time>
        <ele>1592.0</ele>
      </trkpt>
      <trkpt lat="44.616999" lon="6.234361">
        <time>2021-12-29T10:12:36+00:00</time>
        <ele>1592.0</ele>
      </trkpt>
      <trkpt lat="44.61699" lon="6.234354">
        <time>2021-12-29T10:12:38+00:00</time>
        <ele>1592.0</ele>
      </trkpt>
      <trkpt lat="44.616983" lon="6.234347">
        <time>2021-12-29T10:12:39+00:00</time>
        <ele>1592.0</ele>
      </trkpt>
      <trkpt lat="44.616964" lon="6.234343">
        <time>2021-12-29T10:12:43+00:00</time>
        <ele>1593.0</ele>
      </trkpt>
      <trkpt lat="44.616964" lon="6.234343">
        <time>2021-12-29T10:12:44+00:00</time>
        <ele>1593.0</ele>
      </trkpt>
      <trkpt lat="44.616962" lon="6.234348">
        <time>2021-12-29T10:12:46+00:00</time>
        <ele>1593.0</ele>
      </trkpt>
      <trkpt lat="44.61695" lon="6.234357">
        <time>2021-12-29T10:12:53+00:00</time>
        <ele>1593.0</ele>
      </trkpt>
      <trkpt lat="44.616957" lon="6.234354">
        <time>2021-12-29T10:13:00+00:00</time>
        <ele>1593.0</ele>
      </trkpt>
      <trkpt lat="44.616957" lon="6.234337">
        <time>2021-12-29T10:13:09+00:00</time>
        <ele>1593.0</ele>
      </trkpt>
      <trkpt lat="44.61695" lon="6.234352">
        <time>2021-12-29T10:13:16+00:00</time>
        <ele>1593.0</ele>
      </trkpt>
      <trkpt lat="44.616958" lon="6.23436">
        <time>2021-12-29T10:13:19+00:00</time>
        <ele>1593.0</ele>
      </trkpt>
      <trkpt lat="44.616963" lon="6.234354">
        <time>2021-12-29T10:13:23+00:00</time>
        <ele>1593.0</ele>
      </trkpt>
      <trkpt lat="44.616967" lon="6.234361">
        <time>2021-12-29T10:13:25+00:00</time>
        <ele>1593.0</ele>
      </trkpt>
      <trkpt lat="44.61697" lon="6.234347">
        <time>2021-12-29T10:13:29+00:00</time>
        <ele>1593.0</ele>
      </trkpt>
      <trkpt lat="44.616971" lon="6.234349">
        <time>2021-12-29T10:13:31+00:00</time>
        <ele>1593.0</ele>
      </trkpt>
      <trkpt lat="44.616971" lon="6.234349">
        <time>2021-12-29T10:13:34+00:00</time>
        <ele>1593.0</ele>
      </trkpt>
      <trkpt lat="44.61697" lon="6.234349">
        <time>2021-12-29T10:13:42+00:00</time>
        <ele>1593.0</ele>
      </trkpt>
      <trkpt lat="44.61697" lon="6.234349">
        <time>2021-12-29T10:13:45+00:00</time>
        <ele>1593.0</ele>
      </trkpt>
      <trkpt lat="44.61697" lon="6.234348">
        <time>2021-12-29T10:13:46+00:00</time>
        <ele>1593.0</ele>
      </trkpt>
      <trkpt lat="44.61697" lon="6.234348">
        <time>2021-12-29T10:13:47+00:00</time>
        <ele>1593.0</ele>
      </trkpt>
      <trkpt lat="44.61697" lon="6.234341">
        <time>2021-12-29T10:13:52+00:00</time>
        <ele>1593.0</ele>
      </trkpt>
      <trkpt lat="44.616969" lon="6.234339">
        <time>2021-12-29T10:13:56+00:00</time>
        <ele>1593.0</ele>
      </trkpt>
      <trkpt lat="44.616969" lon="6.234338">
        <time>2021-12-29T10:13:57+00:00</time>
        <ele>1593.0</ele>
      </trkpt>
      <trkpt lat="44.616969" lon="6.234338">
        <time>2021-12-29T10:14:00+00:00</time>
        <ele>1593.0</ele>
      </trkpt>
      <trkpt lat="44.616955" lon="6.234336">
        <time>2021-12-29T10:14:08+00:00</time>
        <ele>1593.0</ele>
      </trkpt>
      <trkpt lat="44.616919" lon="6.234301">
        <time>2021-12-29T10:14:29+00:00</time>
        <ele>1594.0</ele>
      </trkpt>
      <trkpt lat="44.616924" lon="6.234298">
        <time>2021-12-29T10:14:47+00:00</time>
        <ele>1594.0</ele>
      </trkpt>
      <trkpt lat="44.616901" lon="6.234293">
        <time>2021-12-29T10:14:54+00:00</time>
        <ele>1594.0</ele>
      </trkpt>
      <trkpt lat="44.6169" lon="6.234313">
        <time>2021-12-29T10:15:01+00:00</time>
        <ele>1594.0</ele>
      </trkpt>
      <trkpt lat="44.616904" lon="6.234313">
        <time>2021-12-29T10:15:02+00:00</time>
        <ele>1594.0</ele>
      </trkpt>
      <trkpt lat="44.616905" lon="6.234304">
        <time>2021-12-29T10:15:06+00:00</time>
        <ele>1594.0</ele>
      </trkpt>
      <trkpt lat="44.6169" lon="6.234308">
        <time>2021-12-29T10:15:09+00:00</time>
        <ele>1594.0</ele>
      </trkpt>
      <trkpt lat="44.6169" lon="6.234308">
        <time>2021-12-29T10:15:10+00:00</time>
        <ele>1594.0</ele>
      </trkpt>
      <trkpt lat="44.616897" lon="6.234304">
        <time>2021-12-29T10:15:22+00:00</time>
        <ele>1594.0</ele>
      </trkpt>
      <trkpt lat="44.616897" lon="6.234304">
        <time>2021-12-29T10:15:26+00:00</time>
        <ele>1594.0</ele>
      </trkpt>
      <trkpt lat="44.616897" lon="6.234296">
        <time>2021-12-29T10:15:33+00:00</time>
        <ele>1594.0</ele>
      </trkpt>
      <trkpt lat="44.616897" lon="6.234287">
        <time>2021-12-29T10:15:46+00:00</time>
        <ele>1594.0</ele>
      </trkpt>
      <trkpt lat="44.616898" lon="6.234281">
        <time>2021-12-29T10:15:50+00:00</time>
        <ele>1594.0</ele>
      </trkpt>
      <trkpt lat="44.616907" lon="6.234271">
        <time>2021-12-29T10:15:53+00:00</time>
        <ele>1594.0</ele>
      </trkpt>
      <trkpt lat="44.616907" lon="6.234271">
        <time>2021-12-29T10:16:00+00:00</time>
        <ele>1594.0</ele>
      </trkpt>
      <trkpt lat="44.616896" lon="6.234264">
        <time>2021-12-29T10:16:09+00:00</time>
        <ele>1594.0</ele>
      </trkpt>
      <trkpt lat="44.616886" lon="6.234261">
        <time>2021-12-29T10:16:23+00:00</time>
        <ele>1595.0</ele>
      </trkpt>
      <trkpt lat="44.61689" lon="6.234257">
        <time>2021-12-29T10:16:27+00:00</time>
        <ele>1595.0</ele>
      </trkpt>
      <trkpt lat="44.616903" lon="6.234243">
        <time>2021-12-29T10:16:34+00:00</time>
        <ele>1594.0</ele>
      </trkpt>
      <trkpt lat="44.616909" lon="6.23424">
        <time>2021-12-29T10:16:41+00:00</time>
        <ele>1594.0</ele>
      </trkpt>
      <trkpt lat="44.616899" lon="6.234251">
        <time>2021-12-29T10:17:29+00:00</time>
        <ele>1594.0</ele>
      </trkpt>
      <trkpt lat="44.616903" lon="6.234251">
        <time>2021-12-29T10:17:36+00:00</time>
        <ele>1594.0</ele>
      </trkpt>
      <trkpt lat="44.61691" lon="6.234251">
        <time>2021-12-29T10:17:40+00:00</time>
        <ele>1594.0</ele>
      </trkpt>
      <trkpt lat="44.616931" lon="6.234256">
        <time>2021-12-29T10:17:51+00:00</time>
        <ele>1594.0</ele>
      </trkpt>
      <trkpt lat="44.616931" lon="6.234256">
        <time>2021-12-29T10:17:55+00:00</time>
        <ele>1594.0</ele>
      </trkpt>
      <trkpt lat="44.616931" lon="6.234258">
        <time>2021-12-29T10:17:59+00:00</time>
        <ele>1594.0</ele>
      </trkpt>
      <trkpt lat="44.616921" lon="6.234211">
        <time>2021-12-29T10:18:05+00:00</time>
        <ele>1594.0</ele>
      </trkpt>
      <trkpt lat="44.616864" lon="6.234124">
        <time>2021-12-29T10:18:11+00:00</time>
        <ele>1595.0</ele>
      </trkpt>
      <trkpt lat="44.616852" lon="6.234099">
        <time>2021-12-29T10:18:13+00:00</time>
        <ele>1595.0</ele>
      </trkpt>
      <trkpt lat="44.616829" lon="6.234065">
        <time>2021-12-29T10:18:16+00:00</time>
        <ele>1596.0</ele>
      </trkpt>
      <trkpt lat="44.616792" lon="6.234013">
        <time>2021-12-29T10:18:20+00:00</time>
        <ele>1596.0</ele>
      </trkpt>
      <trkpt lat="44.616767" lon="6.233972">
        <time>2021-12-29T10:18:24+00:00</time>
        <ele>1597.0</ele>
      </trkpt>
      <trkpt lat="44.616762" lon="6.233961">
        <time>2021-12-29T10:18:25+00:00</time>
        <ele>1597.0</ele>
      </trkpt>
      <trkpt lat="44.616756" lon="6.233938">
        <time>2021-12-29T10:18:27+00:00</time>
        <ele>1597.0</ele>
      </trkpt>
      <trkpt lat="44.616748" lon="6.233915">
        <time>2021-12-29T10:18:29+00:00</time>
        <ele>1597.0</ele>
      </trkpt>
      <trkpt lat="44.616718" lon="6.233869">
        <time>2021-12-29T10:18:34+00:00</time>
        <ele>1597.0</ele>
      </trkpt>
      <trkpt lat="44.616714" lon="6.233858">
        <time>2021-12-29T10:18:35+00:00</time>
        <ele>1597.0</ele>
      </trkpt>
      <trkpt lat="44.616706" lon="6.233849">
        <time>2021-12-29T10:18:36+00:00</time>
        <ele>1598.0</ele>
      </trkpt>
      <trkpt lat="44.616693" lon="6.233815">
        <time>2021-12-29T10:18:39+00:00</time>
        <ele>1598.0</ele>
      </trkpt>
      <trkpt lat="44.616681" lon="6.233792">
        <time>2021-12-29T10:18:41+00:00</time>
        <ele>1598.0</ele>
      </trkpt>
      <trkpt lat="44.616674" lon="6.233775">
        <time>2021-12-29T10:18:43+00:00</time>
        <ele>1598.0</ele>
      </trkpt>
      <trkpt lat="44.616663" lon="6.233749">
        <time>2021-12-29T10:18:45+00:00</time>
        <ele>1598.0</ele>
      </trkpt>
      <trkpt lat="44.616659" lon="6.23374">
        <time>2021-12-29T10:18:46+00:00</time>
        <ele>1598.0</ele>
      </trkpt>
      <trkpt lat="44.616615" lon="6.2337">
        <time>2021-12-29T10:18:52+00:00</time>
        <ele>1599.0</ele>
      </trkpt>
      <trkpt lat="44.616581" lon="6.233676">
        <time>2021-12-29T10:18:56+00:00</time>
        <ele>1600.0</ele>
      </trkpt>
      <trkpt lat="44.616557" lon="6.233663">
        <time>2021-12-29T10:18:58+00:00</time>
        <ele>1601.0</ele>
      </trkpt>
      <trkpt lat="44.61653" lon="6.233633">
        <time>2021-12-29T10:19:02+00:00</time>
        <ele>1601.0</ele>
      </trkpt>
      <trkpt lat="44.61648" lon="6.233595">
        <time>2021-12-29T10:19:10+00:00</time>
        <ele>1603.0</ele>
      </trkpt>
      <trkpt lat="44.616471" lon="6.233591">
        <time>2021-12-29T10:19:11+00:00</time>
        <ele>1603.0</ele>
      </trkpt>
      <trkpt lat="44.616453" lon="6.23357">
        <time>2021-12-29T10:19:14+00:00</time>
        <ele>1603.0</ele>
      </trkpt>
      <trkpt lat="44.616429" lon="6.233546">
        <time>2021-12-29T10:19:18+00:00</time>
        <ele>1604.0</ele>
      </trkpt>
      <trkpt lat="44.616424" lon="6.23354">
        <time>2021-12-29T10:19:19+00:00</time>
        <ele>1604.0</ele>
      </trkpt>
      <trkpt lat="44.616358" lon="6.233512">
        <time>2021-12-29T10:19:27+00:00</time>
        <ele>1606.0</ele>
      </trkpt>
      <trkpt lat="44.616352" lon="6.233507">
        <time>2021-12-29T10:19:28+00:00</time>
        <ele>1606.0</ele>
      </trkpt>
      <trkpt lat="44.616331" lon="6.233492">
        <time>2021-12-29T10:19:31+00:00</time>
        <ele>1607.0</ele>
      </trkpt>
      <trkpt lat="44.616301" lon="6.233476">
        <time>2021-12-29T10:19:35+00:00</time>
        <ele>1608.0</ele>
      </trkpt>
      <trkpt lat="44.616275" lon="6.233422">
        <time>2021-12-29T10:19:42+00:00</time>
        <ele>1608.0</ele>
      </trkpt>
      <trkpt lat="44.616238" lon="6.233401">
        <time>2021-12-29T10:19:46+00:00</time>
        <ele>1609.0</ele>
      </trkpt>
      <trkpt lat="44.616234" lon="6.233357">
        <time>2021-12-29T10:19:51+00:00</time>
        <ele>1609.0</ele>
      </trkpt>
      <trkpt lat="44.616227" lon="6.233352">
        <time>2021-12-29T10:19:52+00:00</time>
        <ele>1609.0</ele>
      </trkpt>
      <trkpt lat="44.61618" lon="6.233312">
        <time>2021-12-29T10:19:58+00:00</time>
        <ele>1611.0</ele>
      </trkpt>
      <trkpt lat="44.616146" lon="6.233282">
        <time>2021-12-29T10:20:01+00:00</time>
        <ele>1612.0</ele>
      </trkpt>
      <trkpt lat="44.616123" lon="6.233255">
        <time>2021-12-29T10:20:07+00:00</time>
        <ele>1612.0</ele>
      </trkpt>
      <trkpt lat="44.616096" lon="6.233202">
        <time>2021-12-29T10:20:13+00:00</time>
        <ele>1613.0</ele>
      </trkpt>
      <trkpt lat="44.616093" lon="6.233191">
        <time>2021-12-29T10:20:14+00:00</time>
        <ele>1613.0</ele>
      </trkpt>
      <trkpt lat="44.616073" lon="6.233162">
        <time>2021-12-29T10:20:17+00:00</time>
        <ele>1614.0</ele>
      </trkpt>
      <trkpt lat="44.616059" lon="6.233135">
        <time>2021-12-29T10:20:21+00:00</time>
        <ele>1614.0</ele>
      </trkpt>
      <trkpt lat="44.616052" lon="6.233109">
        <time>2021-12-29T10:20:23+00:00</time>
        <ele>1614.0</ele>
      </trkpt>
      <trkpt lat="44.616047" lon="6.233076">
        <time>2021-12-29T10:20:28+00:00</time>
        <ele>1615.0</ele>
      </trkpt>
      <trkpt lat="44.616044" lon="6.23307">
        <time>2021-12-29T10:20:29+00:00</time>
        <ele>1615.0</ele>
      </trkpt>
      <trkpt lat="44.616029" lon="6.233055">
        <time>2021-12-29T10:20:32+00:00</time>
        <ele>1615.0</ele>
      </trkpt>
      <trkpt lat="44.61602" lon="6.233047">
        <time>2021-12-29T10:20:33+00:00</time>
        <ele>1616.0</ele>
      </trkpt>
      <trkpt lat="44.615994" lon="6.233032">
        <time>2021-12-29T10:20:36+00:00</time>
        <ele>1617.0</ele>
      </trkpt>
      <trkpt lat="44.616005" lon="6.232992">
        <time>2021-12-29T10:20:41+00:00</time>
        <ele>1616.0</ele>
      </trkpt>
      <trkpt lat="44.615999" lon="6.232977">
        <time>2021-12-29T10:20:42+00:00</time>
        <ele>1616.0</ele>
      </trkpt>
      <trkpt lat="44.615969" lon="6.232914">
        <time>2021-12-29T10:20:46+00:00</time>
        <ele>1617.0</ele>
      </trkpt>
      <trkpt lat="44.615961" lon="6.232888">
        <time>2021-12-29T10:20:49+00:00</time>
        <ele>1618.0</ele>
      </trkpt>
      <trkpt lat="44.615968" lon="6.232838">
        <time>2021-12-29T10:20:53+00:00</time>
        <ele>1617.0</ele>
      </trkpt>
      <trkpt lat="44.615969" lon="6.232788">
        <time>2021-12-29T10:20:56+00:00</time>
        <ele>1617.0</ele>
      </trkpt>
      <trkpt lat="44.615963" lon="6.232765">
        <time>2021-12-29T10:21:00+00:00</time>
        <ele>1618.0</ele>
      </trkpt>
      <trkpt lat="44.615964" lon="6.232762">
        <time>2021-12-29T10:21:01+00:00</time>
        <ele>1617.0</ele>
      </trkpt>
      <trkpt lat="44.615965" lon="6.232756">
        <time>2021-12-29T10:21:02+00:00</time>
        <ele>1617.0</ele>
      </trkpt>
      <trkpt lat="44.615946" lon="6.232711">
        <time>2021-12-29T10:21:05+00:00</time>
        <ele>1618.0</ele>
      </trkpt>
      <trkpt lat="44.615946" lon="6.232678">
        <time>2021-12-29T10:21:07+00:00</time>
        <ele>1618.0</ele>
      </trkpt>
      <trkpt lat="44.615917" lon="6.232662">
        <time>2021-12-29T10:21:10+00:00</time>
        <ele>1619.0</ele>
      </trkpt>
      <trkpt lat="44.615912" lon="6.232654">
        <time>2021-12-29T10:21:11+00:00</time>
        <ele>1619.0</ele>
      </trkpt>
      <trkpt lat="44.615878" lon="6.23263">
        <time>2021-12-29T10:21:15+00:00</time>
        <ele>1621.0</ele>
      </trkpt>
      <trkpt lat="44.615866" lon="6.23262">
        <time>2021-12-29T10:21:16+00:00</time>
        <ele>1621.0</ele>
      </trkpt>
      <trkpt lat="44.61584" lon="6.232595">
        <time>2021-12-29T10:21:21+00:00</time>
        <ele>1622.0</ele>
      </trkpt>
      <trkpt lat="44.615833" lon="6.232573">
        <time>2021-12-29T10:21:23+00:00</time>
        <ele>1622.0</ele>
      </trkpt>
      <trkpt lat="44.61581" lon="6.232538">
        <time>2021-12-29T10:21:26+00:00</time>
        <ele>1623.0</ele>
      </trkpt>
      <trkpt lat="44.61579" lon="6.232527">
        <time>2021-12-29T10:21:30+00:00</time>
        <ele>1623.0</ele>
      </trkpt>
      <trkpt lat="44.615762" lon="6.232513">
        <time>2021-12-29T10:21:35+00:00</time>
        <ele>1624.0</ele>
      </trkpt>
      <trkpt lat="44.61575" lon="6.232502">
        <time>2021-12-29T10:21:37+00:00</time>
        <ele>1624.0</ele>
      </trkpt>
      <trkpt lat="44.61571" lon="6.23246">
        <time>2021-12-29T10:21:43+00:00</time>
        <ele>1625.0</ele>
      </trkpt>
      <trkpt lat="44.615699" lon="6.232428">
        <time>2021-12-29T10:21:45+00:00</time>
        <ele>1626.0</ele>
      </trkpt>
      <trkpt lat="44.615637" lon="6.232376">
        <time>2021-12-29T10:21:52+00:00</time>
        <ele>1627.0</ele>
      </trkpt>
      <trkpt lat="44.615629" lon="6.232374">
        <time>2021-12-29T10:21:53+00:00</time>
        <ele>1628.0</ele>
      </trkpt>
      <trkpt lat="44.615591" lon="6.23233">
        <time>2021-12-29T10:21:59+00:00</time>
        <ele>1628.0</ele>
      </trkpt>
      <trkpt lat="44.615594" lon="6.232331">
        <time>2021-12-29T10:22:00+00:00</time>
        <ele>1628.0</ele>
      </trkpt>
      <trkpt lat="44.615589" lon="6.232323">
        <time>2021-12-29T10:22:01+00:00</time>
        <ele>1629.0</ele>
      </trkpt>
      <trkpt lat="44.615569" lon="6.23228">
        <time>2021-12-29T10:22:05+00:00</time>
        <ele>1629.0</ele>
      </trkpt>
      <trkpt lat="44.61556" lon="6.232208">
        <time>2021-12-29T10:22:09+00:00</time>
        <ele>1629.0</ele>
      </trkpt>
      <trkpt lat="44.615565" lon="6.232167">
        <time>2021-12-29T10:22:13+00:00</time>
        <ele>1628.0</ele>
      </trkpt>
      <trkpt lat="44.615555" lon="6.232137">
        <time>2021-12-29T10:22:16+00:00</time>
        <ele>1628.0</ele>
      </trkpt>
      <trkpt lat="44.615543" lon="6.232114">
        <time>2021-12-29T10:22:18+00:00</time>
        <ele>1628.0</ele>
      </trkpt>
      <trkpt lat="44.615538" lon="6.232105">
        <time>2021-12-29T10:22:19+00:00</time>
        <ele>1628.0</ele>
      </trkpt>
      <trkpt lat="44.615511" lon="6.23207">
        <time>2021-12-29T10:22:22+00:00</time>
        <ele>1629.0</ele>
      </trkpt>
      <trkpt lat="44.615477" lon="6.232011">
        <time>2021-12-29T10:22:27+00:00</time>
        <ele>1630.0</ele>
      </trkpt>
      <trkpt lat="44.615472" lon="6.232001">
        <time>2021-12-29T10:22:28+00:00</time>
        <ele>1631.0</ele>
      </trkpt>
      <trkpt lat="44.61546" lon="6.231946">
        <time>2021-12-29T10:22:32+00:00</time>
        <ele>1631.0</ele>
      </trkpt>
      <trkpt lat="44.615455" lon="6.231939">
        <time>2021-12-29T10:22:33+00:00</time>
        <ele>1631.0</ele>
      </trkpt>
      <trkpt lat="44.615449" lon="6.231921">
        <time>2021-12-29T10:22:34+00:00</time>
        <ele>1631.0</ele>
      </trkpt>
      <trkpt lat="44.615429" lon="6.231901">
        <time>2021-12-29T10:22:37+00:00</time>
        <ele>1632.0</ele>
      </trkpt>
      <trkpt lat="44.615416" lon="6.231898">
        <time>2021-12-29T10:22:38+00:00</time>
        <ele>1632.0</ele>
      </trkpt>
      <trkpt lat="44.615357" lon="6.231887">
        <time>2021-12-29T10:22:44+00:00</time>
        <ele>1634.0</ele>
      </trkpt>
      <trkpt lat="44.61535" lon="6.23189">
        <time>2021-12-29T10:22:45+00:00</time>
        <ele>1634.0</ele>
      </trkpt>
      <trkpt lat="44.615342" lon="6.231872">
        <time>2021-12-29T10:22:46+00:00</time>
        <ele>1635.0</ele>
      </trkpt>
      <trkpt lat="44.615326" lon="6.231863">
        <time>2021-12-29T10:22:49+00:00</time>
        <ele>1635.0</ele>
      </trkpt>
      <trkpt lat="44.615304" lon="6.231852">
        <time>2021-12-29T10:22:51+00:00</time>
        <ele>1636.0</ele>
      </trkpt>
      <trkpt lat="44.615279" lon="6.231847">
        <time>2021-12-29T10:22:54+00:00</time>
        <ele>1637.0</ele>
      </trkpt>
      <trkpt lat="44.615242" lon="6.231835">
        <time>2021-12-29T10:22:57+00:00</time>
        <ele>1638.0</ele>
      </trkpt>
      <trkpt lat="44.615232" lon="6.231833">
        <time>2021-12-29T10:22:58+00:00</time>
        <ele>1638.0</ele>
      </trkpt>
      <trkpt lat="44.615169" lon="6.231833">
        <time>2021-12-29T10:23:04+00:00</time>
        <ele>1640.0</ele>
      </trkpt>
      <trkpt lat="44.615145" lon="6.231862">
        <time>2021-12-29T10:23:08+00:00</time>
        <ele>1641.0</ele>
      </trkpt>
      <trkpt lat="44.615133" lon="6.231864">
        <time>2021-12-29T10:23:10+00:00</time>
        <ele>1641.0</ele>
      </trkpt>
      <trkpt lat="44.615121" lon="6.231875">
        <time>2021-12-29T10:23:11+00:00</time>
        <ele>1642.0</ele>
      </trkpt>
      <trkpt lat="44.6151" lon="6.231884">
        <time>2021-12-29T10:23:13+00:00</time>
        <ele>1642.0</ele>
      </trkpt>
      <trkpt lat="44.615062" lon="6.231885">
        <time>2021-12-29T10:23:18+00:00</time>
        <ele>1644.0</ele>
      </trkpt>
      <trkpt lat="44.615032" lon="6.231893">
        <time>2021-12-29T10:23:24+00:00</time>
        <ele>1645.0</ele>
      </trkpt>
      <trkpt lat="44.614987" lon="6.231872">
        <time>2021-12-29T10:23:30+00:00</time>
        <ele>1646.0</ele>
      </trkpt>
      <trkpt lat="44.614971" lon="6.231868">
        <time>2021-12-29T10:23:32+00:00</time>
        <ele>1647.0</ele>
      </trkpt>
      <trkpt lat="44.614955" lon="6.231861">
        <time>2021-12-29T10:23:34+00:00</time>
        <ele>1648.0</ele>
      </trkpt>
      <trkpt lat="44.614903" lon="6.231832">
        <time>2021-12-29T10:23:39+00:00</time>
        <ele>1649.0</ele>
      </trkpt>
      <trkpt lat="44.614884" lon="6.231815">
        <time>2021-12-29T10:23:42+00:00</time>
        <ele>1650.0</ele>
      </trkpt>
      <trkpt lat="44.614884" lon="6.23179">
        <time>2021-12-29T10:23:46+00:00</time>
        <ele>1650.0</ele>
      </trkpt>
      <trkpt lat="44.614879" lon="6.231785">
        <time>2021-12-29T10:23:47+00:00</time>
        <ele>1650.0</ele>
      </trkpt>
      <trkpt lat="44.61485" lon="6.231807">
        <time>2021-12-29T10:23:52+00:00</time>
        <ele>1651.0</ele>
      </trkpt>
      <trkpt lat="44.61485" lon="6.231819">
        <time>2021-12-29T10:23:53+00:00</time>
        <ele>1651.0</ele>
      </trkpt>
      <trkpt lat="44.614821" lon="6.231831">
        <time>2021-12-29T10:23:58+00:00</time>
        <ele>1652.0</ele>
      </trkpt>
      <trkpt lat="44.614798" lon="6.231814">
        <time>2021-12-29T10:24:02+00:00</time>
        <ele>1653.0</ele>
      </trkpt>
      <trkpt lat="44.614784" lon="6.231785">
        <time>2021-12-29T10:24:05+00:00</time>
        <ele>1653.0</ele>
      </trkpt>
      <trkpt lat="44.614778" lon="6.231772">
        <time>2021-12-29T10:24:06+00:00</time>
        <ele>1654.0</ele>
      </trkpt>
      <trkpt lat="44.614764" lon="6.231745">
        <time>2021-12-29T10:24:09+00:00</time>
        <ele>1654.0</ele>
      </trkpt>
      <trkpt lat="44.614763" lon="6.231727">
        <time>2021-12-29T10:24:11+00:00</time>
        <ele>1654.0</ele>
      </trkpt>
      <trkpt lat="44.614752" lon="6.231702">
        <time>2021-12-29T10:24:14+00:00</time>
        <ele>1655.0</ele>
      </trkpt>
      <trkpt lat="44.61475" lon="6.231687">
        <time>2021-12-29T10:24:16+00:00</time>
        <ele>1655.0</ele>
      </trkpt>
      <trkpt lat="44.614763" lon="6.231666">
        <time>2021-12-29T10:24:19+00:00</time>
        <ele>1655.0</ele>
      </trkpt>
      <trkpt lat="44.614764" lon="6.231659">
        <time>2021-12-29T10:24:20+00:00</time>
        <ele>1655.0</ele>
      </trkpt>
      <trkpt lat="44.614769" lon="6.23162">
        <time>2021-12-29T10:24:24+00:00</time>
        <ele>1655.0</ele>
      </trkpt>
      <trkpt lat="44.614777" lon="6.231585">
        <time>2021-12-29T10:24:29+00:00</time>
        <ele>1655.0</ele>
      </trkpt>
      <trkpt lat="44.614745" lon="6.231609">
        <time>2021-12-29T10:24:32+00:00</time>
        <ele>1656.0</ele>
      </trkpt>
      <trkpt lat="44.614739" lon="6.231616">
        <time>2021-12-29T10:24:33+00:00</time>
        <ele>1656.0</ele>
      </trkpt>
      <trkpt lat="44.614731" lon="6.231631">
        <time>2021-12-29T10:24:35+00:00</time>
        <ele>1656.0</ele>
      </trkpt>
      <trkpt lat="44.614712" lon="6.231653">
        <time>2021-12-29T10:24:38+00:00</time>
        <ele>1657.0</ele>
      </trkpt>
      <trkpt lat="44.614693" lon="6.231669">
        <time>2021-12-29T10:24:40+00:00</time>
        <ele>1657.0</ele>
      </trkpt>
      <trkpt lat="44.614689" lon="6.231677">
        <time>2021-12-29T10:24:43+00:00</time>
        <ele>1657.0</ele>
      </trkpt>
      <trkpt lat="44.614671" lon="6.231689">
        <time>2021-12-29T10:24:45+00:00</time>
        <ele>1658.0</ele>
      </trkpt>
      <trkpt lat="44.614638" lon="6.231668">
        <time>2021-12-29T10:24:50+00:00</time>
        <ele>1659.0</ele>
      </trkpt>
      <trkpt lat="44.614635" lon="6.231661">
        <time>2021-12-29T10:24:51+00:00</time>
        <ele>1660.0</ele>
      </trkpt>
      <trkpt lat="44.614625" lon="6.231606">
        <time>2021-12-29T10:24:58+00:00</time>
        <ele>1660.0</ele>
      </trkpt>
      <trkpt lat="44.614618" lon="6.231576">
        <time>2021-12-29T10:25:01+00:00</time>
        <ele>1661.0</ele>
      </trkpt>
      <trkpt lat="44.614611" lon="6.231566">
        <time>2021-12-29T10:25:02+00:00</time>
        <ele>1661.0</ele>
      </trkpt>
      <trkpt lat="44.614604" lon="6.231545">
        <time>2021-12-29T10:25:04+00:00</time>
        <ele>1661.0</ele>
      </trkpt>
      <trkpt lat="44.614601" lon="6.231537">
        <time>2021-12-29T10:25:05+00:00</time>
        <ele>1662.0</ele>
      </trkpt>
      <trkpt lat="44.614586" lon="6.231509">
        <time>2021-12-29T10:25:10+00:00</time>
        <ele>1662.0</ele>
      </trkpt>
      <trkpt lat="44.614574" lon="6.231492">
        <time>2021-12-29T10:25:12+00:00</time>
        <ele>1663.0</ele>
      </trkpt>
      <trkpt lat="44.614565" lon="6.231461">
        <time>2021-12-29T10:25:16+00:00</time>
        <ele>1664.0</ele>
      </trkpt>
      <trkpt lat="44.614559" lon="6.231432">
        <time>2021-12-29T10:25:19+00:00</time>
        <ele>1664.0</ele>
      </trkpt>
      <trkpt lat="44.614559" lon="6.231418">
        <time>2021-12-29T10:25:20+00:00</time>
        <ele>1664.0</ele>
      </trkpt>
      <trkpt lat="44.614554" lon="6.231361">
        <time>2021-12-29T10:25:27+00:00</time>
        <ele>1665.0</ele>
      </trkpt>
      <trkpt lat="44.614549" lon="6.231345">
        <time>2021-12-29T10:25:29+00:00</time>
        <ele>1666.0</ele>
      </trkpt>
      <trkpt lat="44.614546" lon="6.231296">
        <time>2021-12-29T10:25:34+00:00</time>
        <ele>1666.0</ele>
      </trkpt>
      <trkpt lat="44.614528" lon="6.23128">
        <time>2021-12-29T10:25:37+00:00</time>
        <ele>1667.0</ele>
      </trkpt>
      <trkpt lat="44.614525" lon="6.23127">
        <time>2021-12-29T10:25:38+00:00</time>
        <ele>1668.0</ele>
      </trkpt>
      <trkpt lat="44.614542" lon="6.231227">
        <time>2021-12-29T10:25:44+00:00</time>
        <ele>1667.0</ele>
      </trkpt>
      <trkpt lat="44.614545" lon="6.23122">
        <time>2021-12-29T10:25:45+00:00</time>
        <ele>1667.0</ele>
      </trkpt>
      <trkpt lat="44.614553" lon="6.231168">
        <time>2021-12-29T10:25:50+00:00</time>
        <ele>1668.0</ele>
      </trkpt>
      <trkpt lat="44.614548" lon="6.231136">
        <time>2021-12-29T10:25:53+00:00</time>
        <ele>1669.0</ele>
      </trkpt>
      <trkpt lat="44.61454" lon="6.231104">
        <time>2021-12-29T10:25:56+00:00</time>
        <ele>1669.0</ele>
      </trkpt>
      <trkpt lat="44.614535" lon="6.231072">
        <time>2021-12-29T10:26:00+00:00</time>
        <ele>1670.0</ele>
      </trkpt>
      <trkpt lat="44.614536" lon="6.231065">
        <time>2021-12-29T10:26:01+00:00</time>
        <ele>1670.0</ele>
      </trkpt>
      <trkpt lat="44.614535" lon="6.230986">
        <time>2021-12-29T10:26:07+00:00</time>
        <ele>1671.0</ele>
      </trkpt>
      <trkpt lat="44.614528" lon="6.230966">
        <time>2021-12-29T10:26:08+00:00</time>
        <ele>1672.0</ele>
      </trkpt>
      <trkpt lat="44.614512" lon="6.230923">
        <time>2021-12-29T10:26:12+00:00</time>
        <ele>1673.0</ele>
      </trkpt>
      <trkpt lat="44.614508" lon="6.230905">
        <time>2021-12-29T10:26:14+00:00</time>
        <ele>1673.0</ele>
      </trkpt>
      <trkpt lat="44.614497" lon="6.230869">
        <time>2021-12-29T10:26:19+00:00</time>
        <ele>1674.0</ele>
      </trkpt>
      <trkpt lat="44.61449" lon="6.230841">
        <time>2021-12-29T10:26:23+00:00</time>
        <ele>1675.0</ele>
      </trkpt>
      <trkpt lat="44.61449" lon="6.230828">
        <time>2021-12-29T10:26:24+00:00</time>
        <ele>1675.0</ele>
      </trkpt>
      <trkpt lat="44.614487" lon="6.2308">
        <time>2021-12-29T10:26:26+00:00</time>
        <ele>1676.0</ele>
      </trkpt>
      <trkpt lat="44.614484" lon="6.230747">
        <time>2021-12-29T10:26:31+00:00</time>
        <ele>1676.0</ele>
      </trkpt>
      <trkpt lat="44.614454" lon="6.23068">
        <time>2021-12-29T10:26:38+00:00</time>
        <ele>1679.0</ele>
      </trkpt>
      <trkpt lat="44.614445" lon="6.23063">
        <time>2021-12-29T10:26:44+00:00</time>
        <ele>1680.0</ele>
      </trkpt>
      <trkpt lat="44.614447" lon="6.230614">
        <time>2021-12-29T10:26:45+00:00</time>
        <ele>1680.0</ele>
      </trkpt>
      <trkpt lat="44.614442" lon="6.230554">
        <time>2021-12-29T10:26:52+00:00</time>
        <ele>1681.0</ele>
      </trkpt>
      <trkpt lat="44.614437" lon="6.230534">
        <time>2021-12-29T10:26:55+00:00</time>
        <ele>1681.0</ele>
      </trkpt>
      <trkpt lat="44.614439" lon="6.230498">
        <time>2021-12-29T10:27:00+00:00</time>
        <ele>1682.0</ele>
      </trkpt>
      <trkpt lat="44.614444" lon="6.230483">
        <time>2021-12-29T10:27:01+00:00</time>
        <ele>1682.0</ele>
      </trkpt>
      <trkpt lat="44.614445" lon="6.23046">
        <time>2021-12-29T10:27:05+00:00</time>
        <ele>1682.0</ele>
      </trkpt>
      <trkpt lat="44.614452" lon="6.230421">
        <time>2021-12-29T10:27:11+00:00</time>
        <ele>1682.0</ele>
      </trkpt>
      <trkpt lat="44.614457" lon="6.230412">
        <time>2021-12-29T10:27:12+00:00</time>
        <ele>1681.0</ele>
      </trkpt>
      <trkpt lat="44.614462" lon="6.230394">
        <time>2021-12-29T10:27:14+00:00</time>
        <ele>1681.0</ele>
      </trkpt>
      <trkpt lat="44.614467" lon="6.230362">
        <time>2021-12-29T10:27:16+00:00</time>
        <ele>1681.0</ele>
      </trkpt>
      <trkpt lat="44.614458" lon="6.230302">
        <time>2021-12-29T10:27:21+00:00</time>
        <ele>1682.0</ele>
      </trkpt>
      <trkpt lat="44.614455" lon="6.230287">
        <time>2021-12-29T10:27:22+00:00</time>
        <ele>1682.0</ele>
      </trkpt>
      <trkpt lat="44.614454" lon="6.230226">
        <time>2021-12-29T10:27:26+00:00</time>
        <ele>1682.0</ele>
      </trkpt>
      <trkpt lat="44.614453" lon="6.230218">
        <time>2021-12-29T10:27:27+00:00</time>
        <ele>1682.0</ele>
      </trkpt>
      <trkpt lat="44.614449" lon="6.230211">
        <time>2021-12-29T10:27:29+00:00</time>
        <ele>1682.0</ele>
      </trkpt>
      <trkpt lat="44.614439" lon="6.230191">
        <time>2021-12-29T10:27:33+00:00</time>
        <ele>1683.0</ele>
      </trkpt>
      <trkpt lat="44.61444" lon="6.230124">
        <time>2021-12-29T10:27:38+00:00</time>
        <ele>1683.0</ele>
      </trkpt>
      <trkpt lat="44.61443" lon="6.230097">
        <time>2021-12-29T10:27:40+00:00</time>
        <ele>1683.0</ele>
      </trkpt>
      <trkpt lat="44.614421" lon="6.230065">
        <time>2021-12-29T10:27:44+00:00</time>
        <ele>1683.0</ele>
      </trkpt>
      <trkpt lat="44.614413" lon="6.23005">
        <time>2021-12-29T10:27:46+00:00</time>
        <ele>1684.0</ele>
      </trkpt>
      <trkpt lat="44.6144" lon="6.229991">
        <time>2021-12-29T10:27:52+00:00</time>
        <ele>1684.0</ele>
      </trkpt>
      <trkpt lat="44.614404" lon="6.229951">
        <time>2021-12-29T10:27:55+00:00</time>
        <ele>1684.0</ele>
      </trkpt>
      <trkpt lat="44.614402" lon="6.229921">
        <time>2021-12-29T10:27:57+00:00</time>
        <ele>1684.0</ele>
      </trkpt>
      <trkpt lat="44.614393" lon="6.229896">
        <time>2021-12-29T10:28:03+00:00</time>
        <ele>1684.0</ele>
      </trkpt>
      <trkpt lat="44.614411" lon="6.229902">
        <time>2021-12-29T10:28:11+00:00</time>
        <ele>1684.0</ele>
      </trkpt>
      <trkpt lat="44.614409" lon="6.229901">
        <time>2021-12-29T10:28:22+00:00</time>
        <ele>1684.0</ele>
      </trkpt>
      <trkpt lat="44.6144" lon="6.229902">
        <time>2021-12-29T10:28:39+00:00</time>
        <ele>1684.0</ele>
      </trkpt>
      <trkpt lat="44.614396" lon="6.229903">
        <time>2021-12-29T10:28:54+00:00</time>
        <ele>1684.0</ele>
      </trkpt>
      <trkpt lat="44.614399" lon="6.229904">
        <time>2021-12-29T10:29:06+00:00</time>
        <ele>1684.0</ele>
      </trkpt>
      <trkpt lat="44.614399" lon="6.229904">
        <time>2021-12-29T10:29:08+00:00</time>
        <ele>1684.0</ele>
      </trkpt>
      <trkpt lat="44.614402" lon="6.229904">
        <time>2021-12-29T10:29:10+00:00</time>
        <ele>1684.0</ele>
      </trkpt>
      <trkpt lat="44.614403" lon="6.229904">
        <time>2021-12-29T10:29:12+00:00</time>
        <ele>1684.0</ele>
      </trkpt>
      <trkpt lat="44.614405" lon="6.229903">
        <time>2021-12-29T10:29:15+00:00</time>
        <ele>1684.0</ele>
      </trkpt>
      <trkpt lat="44.614408" lon="6.2299">
        <time>2021-12-29T10:29:19+00:00</time>
        <ele>1684.0</ele>
      </trkpt>
      <trkpt lat="44.61441" lon="6.229892">
        <time>2021-12-29T10:29:23+00:00</time>
        <ele>1684.0</ele>
      </trkpt>
      <trkpt lat="44.61441" lon="6.229892">
        <time>2021-12-29T10:29:28+00:00</time>
        <ele>1684.0</ele>
      </trkpt>
      <trkpt lat="44.61441" lon="6.229892">
        <time>2021-12-29T10:29:35+00:00</time>
        <ele>1684.0</ele>
      </trkpt>
      <trkpt lat="44.614406" lon="6.229906">
        <time>2021-12-29T10:29:41+00:00</time>
        <ele>1684.0</ele>
      </trkpt>
      <trkpt lat="44.614404" lon="6.229907">
        <time>2021-12-29T10:29:45+00:00</time>
        <ele>1684.0</ele>
      </trkpt>
      <trkpt lat="44.614398" lon="6.229907">
        <time>2021-12-29T10:29:51+00:00</time>
        <ele>1684.0</ele>
      </trkpt>
      <trkpt lat="44.614393" lon="6.229904">
        <time>2021-12-29T10:29:57+00:00</time>
        <ele>1684.0</ele>
      </trkpt>
      <trkpt lat="44.614391" lon="6.229902">
        <time>2021-12-29T10:30:05+00:00</time>
        <ele>1684.0</ele>
      </trkpt>
      <trkpt lat="44.61439" lon="6.229901">
        <time>2021-12-29T10:30:06+00:00</time>
        <ele>1684.0</ele>
      </trkpt>
      <trkpt lat="44.614389" lon="6.229901">
        <time>2021-12-29T10:30:08+00:00</time>
        <ele>1684.0</ele>
      </trkpt>
      <trkpt lat="44.61438" lon="6.229904">
        <time>2021-12-29T10:30:21+00:00</time>
        <ele>1685.0</ele>
      </trkpt>
      <trkpt lat="44.614367" lon="6.229907">
        <time>2021-12-29T10:30:24+00:00</time>
        <ele>1685.0</ele>
      </trkpt>
      <trkpt lat="44.614336" lon="6.229898">
        <time>2021-12-29T10:30:27+00:00</time>
        <ele>1686.0</ele>
      </trkpt>
      <trkpt lat="44.614307" lon="6.229907">
        <time>2021-12-29T10:30:31+00:00</time>
        <ele>1687.0</ele>
      </trkpt>
      <trkpt lat="44.614251" lon="6.2299">
        <time>2021-12-29T10:30:39+00:00</time>
        <ele>1689.0</ele>
      </trkpt>
      <trkpt lat="44.614245" lon="6.229899">
        <time>2021-12-29T10:30:40+00:00</time>
        <ele>1690.0</ele>
      </trkpt>
      <trkpt lat="44.614226" lon="6.229894">
        <time>2021-12-29T10:30:43+00:00</time>
        <ele>1690.0</ele>
      </trkpt>
      <trkpt lat="44.614208" lon="6.229898">
        <time>2021-12-29T10:30:46+00:00</time>
        <ele>1691.0</ele>
      </trkpt>
      <trkpt lat="44.614198" lon="6.229898">
        <time>2021-12-29T10:30:47+00:00</time>
        <ele>1692.0</ele>
      </trkpt>
      <trkpt lat="44.614198" lon="6.229898">
        <time>2021-12-29T10:30:48+00:00</time>
        <ele>1692.0</ele>
      </trkpt>
      <trkpt lat="44.614172" lon="6.229898">
        <time>2021-12-29T10:30:52+00:00</time>
        <ele>1693.0</ele>
      </trkpt>
      <trkpt lat="44.614161" lon="6.229903">
        <time>2021-12-29T10:30:54+00:00</time>
        <ele>1693.0</ele>
      </trkpt>
      <trkpt lat="44.614116" lon="6.229892">
        <time>2021-12-29T10:31:01+00:00</time>
        <ele>1695.0</ele>
      </trkpt>
      <trkpt lat="44.614109" lon="6.229891">
        <time>2021-12-29T10:31:02+00:00</time>
        <ele>1695.0</ele>
      </trkpt>
      <trkpt lat="44.6141" lon="6.229894">
        <time>2021-12-29T10:31:03+00:00</time>
        <ele>1696.0</ele>
      </trkpt>
      <trkpt lat="44.614076" lon="6.229896">
        <time>2021-12-29T10:31:07+00:00</time>
        <ele>1697.0</ele>
      </trkpt>
      <trkpt lat="44.614065" lon="6.229914">
        <time>2021-12-29T10:31:10+00:00</time>
        <ele>1697.0</ele>
      </trkpt>
      <trkpt lat="44.614062" lon="6.229923">
        <time>2021-12-29T10:31:11+00:00</time>
        <ele>1697.0</ele>
      </trkpt>
      <trkpt lat="44.614054" lon="6.229951">
        <time>2021-12-29T10:31:14+00:00</time>
        <ele>1698.0</ele>
      </trkpt>
      <trkpt lat="44.614049" lon="6.229986">
        <time>2021-12-29T10:31:18+00:00</time>
        <ele>1698.0</ele>
      </trkpt>
      <trkpt lat="44.614045" lon="6.229996">
        <time>2021-12-29T10:31:19+00:00</time>
        <ele>1699.0</ele>
      </trkpt>
      <trkpt lat="44.614039" lon="6.230011">
        <time>2021-12-29T10:31:21+00:00</time>
        <ele>1699.0</ele>
      </trkpt>
      <trkpt lat="44.614019" lon="6.230066">
        <time>2021-12-29T10:31:28+00:00</time>
        <ele>1700.0</ele>
      </trkpt>
      <trkpt lat="44.614008" lon="6.230099">
        <time>2021-12-29T10:31:32+00:00</time>
        <ele>1700.0</ele>
      </trkpt>
      <trkpt lat="44.614" lon="6.230119">
        <time>2021-12-29T10:31:35+00:00</time>
        <ele>1701.0</ele>
      </trkpt>
      <trkpt lat="44.613973" lon="6.230115">
        <time>2021-12-29T10:31:41+00:00</time>
        <ele>1702.0</ele>
      </trkpt>
      <trkpt lat="44.613945" lon="6.230123">
        <time>2021-12-29T10:31:44+00:00</time>
        <ele>1703.0</ele>
      </trkpt>
      <trkpt lat="44.613926" lon="6.230102">
        <time>2021-12-29T10:31:48+00:00</time>
        <ele>1704.0</ele>
      </trkpt>
      <trkpt lat="44.613888" lon="6.23006">
        <time>2021-12-29T10:31:55+00:00</time>
        <ele>1705.0</ele>
      </trkpt>
      <trkpt lat="44.613888" lon="6.230053">
        <time>2021-12-29T10:31:57+00:00</time>
        <ele>1705.0</ele>
      </trkpt>
      <trkpt lat="44.613853" lon="6.230025">
        <time>2021-12-29T10:32:05+00:00</time>
        <ele>1706.0</ele>
      </trkpt>
      <trkpt lat="44.613805" lon="6.230004">
        <time>2021-12-29T10:32:13+00:00</time>
        <ele>1708.0</ele>
      </trkpt>
      <trkpt lat="44.613792" lon="6.230012">
        <time>2021-12-29T10:32:15+00:00</time>
        <ele>1708.0</ele>
      </trkpt>
      <trkpt lat="44.613778" lon="6.230035">
        <time>2021-12-29T10:32:19+00:00</time>
        <ele>1709.0</ele>
      </trkpt>
      <trkpt lat="44.613737" lon="6.23007">
        <time>2021-12-29T10:32:25+00:00</time>
        <ele>1711.0</ele>
      </trkpt>
      <trkpt lat="44.613716" lon="6.230094">
        <time>2021-12-29T10:32:28+00:00</time>
        <ele>1712.0</ele>
      </trkpt>
      <trkpt lat="44.61367" lon="6.230079">
        <time>2021-12-29T10:32:34+00:00</time>
        <ele>1715.0</ele>
      </trkpt>
      <trkpt lat="44.613617" lon="6.230045">
        <time>2021-12-29T10:32:42+00:00</time>
        <ele>1717.0</ele>
      </trkpt>
      <trkpt lat="44.613572" lon="6.229991">
        <time>2021-12-29T10:32:50+00:00</time>
        <ele>1718.0</ele>
      </trkpt>
      <trkpt lat="44.613566" lon="6.229987">
        <time>2021-12-29T10:32:51+00:00</time>
        <ele>1719.0</ele>
      </trkpt>
      <trkpt lat="44.613528" lon="6.229951">
        <time>2021-12-29T10:32:58+00:00</time>
        <ele>1720.0</ele>
      </trkpt>
      <trkpt lat="44.613505" lon="6.229941">
        <time>2021-12-29T10:33:02+00:00</time>
        <ele>1721.0</ele>
      </trkpt>
      <trkpt lat="44.613496" lon="6.229939">
        <time>2021-12-29T10:33:04+00:00</time>
        <ele>1722.0</ele>
      </trkpt>
      <trkpt lat="44.613493" lon="6.229937">
        <time>2021-12-29T10:33:06+00:00</time>
        <ele>1722.0</ele>
      </trkpt>
      <trkpt lat="44.613487" lon="6.229938">
        <time>2021-12-29T10:33:09+00:00</time>
        <ele>1722.0</ele>
      </trkpt>
      <trkpt lat="44.61348" lon="6.229978">
        <time>2021-12-29T10:33:14+00:00</time>
        <ele>1723.0</ele>
      </trkpt>
      <trkpt lat="44.613472" lon="6.230019">
        <time>2021-12-29T10:33:18+00:00</time>
        <ele>1724.0</ele>
      </trkpt>
      <trkpt lat="44.613473" lon="6.230038">
        <time>2021-12-29T10:33:20+00:00</time>
        <ele>1724.0</ele>
      </trkpt>
      <trkpt lat="44.613472" lon="6.230058">
        <time>2021-12-29T10:33:22+00:00</time>
        <ele>1724.0</ele>
      </trkpt>
      <trkpt lat="44.613473" lon="6.230109">
        <time>2021-12-29T10:33:27+00:00</time>
        <ele>1724.0</ele>
      </trkpt>
      <trkpt lat="44.613467" lon="6.230137">
        <time>2021-12-29T10:33:30+00:00</time>
        <ele>1725.0</ele>
      </trkpt>
      <trkpt lat="44.613442" lon="6.230147">
        <time>2021-12-29T10:33:35+00:00</time>
        <ele>1726.0</ele>
      </trkpt>
      <trkpt lat="44.613418" lon="6.230127">
        <time>2021-12-29T10:33:38+00:00</time>
        <ele>1727.0</ele>
      </trkpt>
      <trkpt lat="44.613377" lon="6.230061">
        <time>2021-12-29T10:33:46+00:00</time>
        <ele>1729.0</ele>
      </trkpt>
      <trkpt lat="44.613372" lon="6.230054">
        <time>2021-12-29T10:33:47+00:00</time>
        <ele>1729.0</ele>
      </trkpt>
      <trkpt lat="44.613332" lon="6.230026">
        <time>2021-12-29T10:33:54+00:00</time>
        <ele>1731.0</ele>
      </trkpt>
      <trkpt lat="44.613318" lon="6.230015">
        <time>2021-12-29T10:33:56+00:00</time>
        <ele>1732.0</ele>
      </trkpt>
      <trkpt lat="44.613312" lon="6.230009">
        <time>2021-12-29T10:33:57+00:00</time>
        <ele>1732.0</ele>
      </trkpt>
      <trkpt lat="44.613291" lon="6.229965">
        <time>2021-12-29T10:34:01+00:00</time>
        <ele>1733.0</ele>
      </trkpt>
      <trkpt lat="44.613283" lon="6.229927">
        <time>2021-12-29T10:34:05+00:00</time>
        <ele>1733.0</ele>
      </trkpt>
      <trkpt lat="44.613268" lon="6.229883">
        <time>2021-12-29T10:34:10+00:00</time>
        <ele>1734.0</ele>
      </trkpt>
      <trkpt lat="44.613252" lon="6.229869">
        <time>2021-12-29T10:34:12+00:00</time>
        <ele>1735.0</ele>
      </trkpt>
      <trkpt lat="44.613231" lon="6.229824">
        <time>2021-12-29T10:34:17+00:00</time>
        <ele>1735.0</ele>
      </trkpt>
      <trkpt lat="44.613225" lon="6.229785">
        <time>2021-12-29T10:34:20+00:00</time>
        <ele>1735.0</ele>
      </trkpt>
      <trkpt lat="44.613213" lon="6.229763">
        <time>2021-12-29T10:34:22+00:00</time>
        <ele>1736.0</ele>
      </trkpt>
      <trkpt lat="44.613202" lon="6.229741">
        <time>2021-12-29T10:34:24+00:00</time>
        <ele>1736.0</ele>
      </trkpt>
      <trkpt lat="44.613184" lon="6.22972">
        <time>2021-12-29T10:34:27+00:00</time>
        <ele>1737.0</ele>
      </trkpt>
      <trkpt lat="44.613169" lon="6.229695">
        <time>2021-12-29T10:34:31+00:00</time>
        <ele>1738.0</ele>
      </trkpt>
      <trkpt lat="44.613157" lon="6.229671">
        <time>2021-12-29T10:34:34+00:00</time>
        <ele>1739.0</ele>
      </trkpt>
      <trkpt lat="44.613121" lon="6.229664">
        <time>2021-12-29T10:34:38+00:00</time>
        <ele>1741.0</ele>
      </trkpt>
      <trkpt lat="44.613129" lon="6.229656">
        <time>2021-12-29T10:34:40+00:00</time>
        <ele>1741.0</ele>
      </trkpt>
      <trkpt lat="44.613127" lon="6.229587">
        <time>2021-12-29T10:34:45+00:00</time>
        <ele>1741.0</ele>
      </trkpt>
      <trkpt lat="44.613126" lon="6.229563">
        <time>2021-12-29T10:34:47+00:00</time>
        <ele>1741.0</ele>
      </trkpt>
      <trkpt lat="44.613109" lon="6.229521">
        <time>2021-12-29T10:34:52+00:00</time>
        <ele>1742.0</ele>
      </trkpt>
      <trkpt lat="44.613089" lon="6.229469">
        <time>2021-12-29T10:34:56+00:00</time>
        <ele>1743.0</ele>
      </trkpt>
      <trkpt lat="44.61309" lon="6.229455">
        <time>2021-12-29T10:34:59+00:00</time>
        <ele>1743.0</ele>
      </trkpt>
      <trkpt lat="44.613077" lon="6.229447">
        <time>2021-12-29T10:35:04+00:00</time>
        <ele>1744.0</ele>
      </trkpt>
      <trkpt lat="44.613069" lon="6.229433">
        <time>2021-12-29T10:35:06+00:00</time>
        <ele>1745.0</ele>
      </trkpt>
      <trkpt lat="44.613067" lon="6.229344">
        <time>2021-12-29T10:35:13+00:00</time>
        <ele>1745.0</ele>
      </trkpt>
      <trkpt lat="44.613056" lon="6.229313">
        <time>2021-12-29T10:35:19+00:00</time>
        <ele>1746.0</ele>
      </trkpt>
      <trkpt lat="44.613059" lon="6.2293">
        <time>2021-12-29T10:35:20+00:00</time>
        <ele>1746.0</ele>
      </trkpt>
      <trkpt lat="44.613071" lon="6.229289">
        <time>2021-12-29T10:35:22+00:00</time>
        <ele>1745.0</ele>
      </trkpt>
      <trkpt lat="44.613085" lon="6.22928">
        <time>2021-12-29T10:35:24+00:00</time>
        <ele>1744.0</ele>
      </trkpt>
      <trkpt lat="44.613092" lon="6.229281">
        <time>2021-12-29T10:35:27+00:00</time>
        <ele>1743.0</ele>
      </trkpt>
      <trkpt lat="44.613078" lon="6.229268">
        <time>2021-12-29T10:35:30+00:00</time>
        <ele>1744.0</ele>
      </trkpt>
      <trkpt lat="44.613069" lon="6.22927">
        <time>2021-12-29T10:35:31+00:00</time>
        <ele>1745.0</ele>
      </trkpt>
      <trkpt lat="44.613062" lon="6.229246">
        <time>2021-12-29T10:35:35+00:00</time>
        <ele>1746.0</ele>
      </trkpt>
      <trkpt lat="44.613055" lon="6.22921">
        <time>2021-12-29T10:35:39+00:00</time>
        <ele>1746.0</ele>
      </trkpt>
      <trkpt lat="44.613051" lon="6.229192">
        <time>2021-12-29T10:35:41+00:00</time>
        <ele>1747.0</ele>
      </trkpt>
      <trkpt lat="44.613051" lon="6.229182">
        <time>2021-12-29T10:35:42+00:00</time>
        <ele>1747.0</ele>
      </trkpt>
      <trkpt lat="44.613043" lon="6.229145">
        <time>2021-12-29T10:35:46+00:00</time>
        <ele>1747.0</ele>
      </trkpt>
      <trkpt lat="44.61304" lon="6.229127">
        <time>2021-12-29T10:35:48+00:00</time>
        <ele>1748.0</ele>
      </trkpt>
      <trkpt lat="44.613036" lon="6.229121">
        <time>2021-12-29T10:35:49+00:00</time>
        <ele>1748.0</ele>
      </trkpt>
      <trkpt lat="44.61303" lon="6.229104">
        <time>2021-12-29T10:35:51+00:00</time>
        <ele>1748.0</ele>
      </trkpt>
      <trkpt lat="44.613" lon="6.229091">
        <time>2021-12-29T10:35:56+00:00</time>
        <ele>1750.0</ele>
      </trkpt>
      <trkpt lat="44.612995" lon="6.229088">
        <time>2021-12-29T10:35:58+00:00</time>
        <ele>1751.0</ele>
      </trkpt>
      <trkpt lat="44.612955" lon="6.229062">
        <time>2021-12-29T10:36:02+00:00</time>
        <ele>1753.0</ele>
      </trkpt>
      <trkpt lat="44.612945" lon="6.229056">
        <time>2021-12-29T10:36:04+00:00</time>
        <ele>1754.0</ele>
      </trkpt>
      <trkpt lat="44.612938" lon="6.228999">
        <time>2021-12-29T10:36:08+00:00</time>
        <ele>1754.0</ele>
      </trkpt>
      <trkpt lat="44.612939" lon="6.228985">
        <time>2021-12-29T10:36:09+00:00</time>
        <ele>1754.0</ele>
      </trkpt>
      <trkpt lat="44.61295" lon="6.228908">
        <time>2021-12-29T10:36:13+00:00</time>
        <ele>1754.0</ele>
      </trkpt>
      <trkpt lat="44.612954" lon="6.228899">
        <time>2021-12-29T10:36:14+00:00</time>
        <ele>1754.0</ele>
      </trkpt>
      <trkpt lat="44.61297" lon="6.228837">
        <time>2021-12-29T10:36:18+00:00</time>
        <ele>1753.0</ele>
      </trkpt>
      <trkpt lat="44.612974" lon="6.228819">
        <time>2021-12-29T10:36:20+00:00</time>
        <ele>1753.0</ele>
      </trkpt>
      <trkpt lat="44.612975" lon="6.22877">
        <time>2021-12-29T10:36:25+00:00</time>
        <ele>1754.0</ele>
      </trkpt>
      <trkpt lat="44.612976" lon="6.228755">
        <time>2021-12-29T10:36:26+00:00</time>
        <ele>1754.0</ele>
      </trkpt>
      <trkpt lat="44.612968" lon="6.228709">
        <time>2021-12-29T10:36:31+00:00</time>
        <ele>1754.0</ele>
      </trkpt>
      <trkpt lat="44.612963" lon="6.2287">
        <time>2021-12-29T10:36:32+00:00</time>
        <ele>1755.0</ele>
      </trkpt>
      <trkpt lat="44.612947" lon="6.228642">
        <time>2021-12-29T10:36:38+00:00</time>
        <ele>1756.0</ele>
      </trkpt>
      <trkpt lat="44.612936" lon="6.228616">
        <time>2021-12-29T10:36:41+00:00</time>
        <ele>1756.0</ele>
      </trkpt>
      <trkpt lat="44.612926" lon="6.228587">
        <time>2021-12-29T10:36:44+00:00</time>
        <ele>1757.0</ele>
      </trkpt>
      <trkpt lat="44.612912" lon="6.228555">
        <time>2021-12-29T10:36:47+00:00</time>
        <ele>1758.0</ele>
      </trkpt>
      <trkpt lat="44.6129" lon="6.228527">
        <time>2021-12-29T10:36:50+00:00</time>
        <ele>1758.0</ele>
      </trkpt>
      <trkpt lat="44.612892" lon="6.228494">
        <time>2021-12-29T10:36:53+00:00</time>
        <ele>1759.0</ele>
      </trkpt>
      <trkpt lat="44.612878" lon="6.228464">
        <time>2021-12-29T10:36:56+00:00</time>
        <ele>1759.0</ele>
      </trkpt>
      <trkpt lat="44.612863" lon="6.228441">
        <time>2021-12-29T10:36:59+00:00</time>
        <ele>1760.0</ele>
      </trkpt>
      <trkpt lat="44.612857" lon="6.228438">
        <time>2021-12-29T10:37:00+00:00</time>
        <ele>1760.0</ele>
      </trkpt>
      <trkpt lat="44.612854" lon="6.228429">
        <time>2021-12-29T10:37:02+00:00</time>
        <ele>1761.0</ele>
      </trkpt>
      <trkpt lat="44.612833" lon="6.228408">
        <time>2021-12-29T10:37:05+00:00</time>
        <ele>1762.0</ele>
      </trkpt>
      <trkpt lat="44.61282" lon="6.228383">
        <time>2021-12-29T10:37:08+00:00</time>
        <ele>1762.0</ele>
      </trkpt>
      <trkpt lat="44.612788" lon="6.228332">
        <time>2021-12-29T10:37:14+00:00</time>
        <ele>1764.0</ele>
      </trkpt>
      <trkpt lat="44.612787" lon="6.228268">
        <time>2021-12-29T10:37:19+00:00</time>
        <ele>1765.0</ele>
      </trkpt>
      <trkpt lat="44.612791" lon="6.228254">
        <time>2021-12-29T10:37:20+00:00</time>
        <ele>1765.0</ele>
      </trkpt>
      <trkpt lat="44.612804" lon="6.228182">
        <time>2021-12-29T10:37:26+00:00</time>
        <ele>1765.0</ele>
      </trkpt>
      <trkpt lat="44.612808" lon="6.228158">
        <time>2021-12-29T10:37:29+00:00</time>
        <ele>1765.0</ele>
      </trkpt>
      <trkpt lat="44.612811" lon="6.228124">
        <time>2021-12-29T10:37:32+00:00</time>
        <ele>1765.0</ele>
      </trkpt>
      <trkpt lat="44.61282" lon="6.228089">
        <time>2021-12-29T10:37:38+00:00</time>
        <ele>1765.0</ele>
      </trkpt>
      <trkpt lat="44.61283" lon="6.228065">
        <time>2021-12-29T10:37:43+00:00</time>
        <ele>1765.0</ele>
      </trkpt>
      <trkpt lat="44.612832" lon="6.228056">
        <time>2021-12-29T10:37:44+00:00</time>
        <ele>1765.0</ele>
      </trkpt>
      <trkpt lat="44.612846" lon="6.228001">
        <time>2021-12-29T10:37:50+00:00</time>
        <ele>1765.0</ele>
      </trkpt>
      <trkpt lat="44.61285" lon="6.227984">
        <time>2021-12-29T10:37:51+00:00</time>
        <ele>1765.0</ele>
      </trkpt>
      <trkpt lat="44.612874" lon="6.227917">
        <time>2021-12-29T10:37:56+00:00</time>
        <ele>1765.0</ele>
      </trkpt>
      <trkpt lat="44.612879" lon="6.227902">
        <time>2021-12-29T10:38:00+00:00</time>
        <ele>1765.0</ele>
      </trkpt>
      <trkpt lat="44.612878" lon="6.227886">
        <time>2021-12-29T10:38:02+00:00</time>
        <ele>1766.0</ele>
      </trkpt>
      <trkpt lat="44.612891" lon="6.227815">
        <time>2021-12-29T10:38:07+00:00</time>
        <ele>1766.0</ele>
      </trkpt>
      <trkpt lat="44.612892" lon="6.227802">
        <time>2021-12-29T10:38:08+00:00</time>
        <ele>1766.0</ele>
      </trkpt>
      <trkpt lat="44.612883" lon="6.227741">
        <time>2021-12-29T10:38:12+00:00</time>
        <ele>1768.0</ele>
      </trkpt>
      <trkpt lat="44.612875" lon="6.227726">
        <time>2021-12-29T10:38:13+00:00</time>
        <ele>1768.0</ele>
      </trkpt>
      <trkpt lat="44.612867" lon="6.227711">
        <time>2021-12-29T10:38:14+00:00</time>
        <ele>1769.0</ele>
      </trkpt>
      <trkpt lat="44.612865" lon="6.2277">
        <time>2021-12-29T10:38:15+00:00</time>
        <ele>1769.0</ele>
      </trkpt>
      <trkpt lat="44.612862" lon="6.227668">
        <time>2021-12-29T10:38:18+00:00</time>
        <ele>1770.0</ele>
      </trkpt>
      <trkpt lat="44.612861" lon="6.227651">
        <time>2021-12-29T10:38:20+00:00</time>
        <ele>1770.0</ele>
      </trkpt>
      <trkpt lat="44.612855" lon="6.227613">
        <time>2021-12-29T10:38:25+00:00</time>
        <ele>1771.0</ele>
      </trkpt>
      <trkpt lat="44.612856" lon="6.227607">
        <time>2021-12-29T10:38:26+00:00</time>
        <ele>1771.0</ele>
      </trkpt>
      <trkpt lat="44.612863" lon="6.227548">
        <time>2021-12-29T10:38:32+00:00</time>
        <ele>1772.0</ele>
      </trkpt>
      <trkpt lat="44.612873" lon="6.227507">
        <time>2021-12-29T10:38:37+00:00</time>
        <ele>1773.0</ele>
      </trkpt>
      <trkpt lat="44.612873" lon="6.227497">
        <time>2021-12-29T10:38:38+00:00</time>
        <ele>1773.0</ele>
      </trkpt>
      <trkpt lat="44.612874" lon="6.227478">
        <time>2021-12-29T10:38:41+00:00</time>
        <ele>1773.0</ele>
      </trkpt>
      <trkpt lat="44.612872" lon="6.227456">
        <time>2021-12-29T10:38:44+00:00</time>
        <ele>1774.0</ele>
      </trkpt>
      <trkpt lat="44.612877" lon="6.227433">
        <time>2021-12-29T10:38:46+00:00</time>
        <ele>1774.0</ele>
      </trkpt>
      <trkpt lat="44.612881" lon="6.227406">
        <time>2021-12-29T10:38:48+00:00</time>
        <ele>1775.0</ele>
      </trkpt>
      <trkpt lat="44.612889" lon="6.227382">
        <time>2021-12-29T10:38:50+00:00</time>
        <ele>1775.0</ele>
      </trkpt>
      <trkpt lat="44.6129" lon="6.227357">
        <time>2021-12-29T10:38:52+00:00</time>
        <ele>1775.0</ele>
      </trkpt>
      <trkpt lat="44.612904" lon="6.227315">
        <time>2021-12-29T10:38:56+00:00</time>
        <ele>1776.0</ele>
      </trkpt>
      <trkpt lat="44.612905" lon="6.227289">
        <time>2021-12-29T10:38:59+00:00</time>
        <ele>1777.0</ele>
      </trkpt>
      <trkpt lat="44.612909" lon="6.22726">
        <time>2021-12-29T10:39:02+00:00</time>
        <ele>1777.0</ele>
      </trkpt>
      <trkpt lat="44.61291" lon="6.227211">
        <time>2021-12-29T10:39:07+00:00</time>
        <ele>1778.0</ele>
      </trkpt>
      <trkpt lat="44.612911" lon="6.227198">
        <time>2021-12-29T10:39:08+00:00</time>
        <ele>1779.0</ele>
      </trkpt>
      <trkpt lat="44.612933" lon="6.227138">
        <time>2021-12-29T10:39:14+00:00</time>
        <ele>1779.0</ele>
      </trkpt>
      <trkpt lat="44.61294" lon="6.22707">
        <time>2021-12-29T10:39:20+00:00</time>
        <ele>1781.0</ele>
      </trkpt>
      <trkpt lat="44.61294" lon="6.227057">
        <time>2021-12-29T10:39:21+00:00</time>
        <ele>1781.0</ele>
      </trkpt>
      <trkpt lat="44.61295" lon="6.227007">
        <time>2021-12-29T10:39:26+00:00</time>
        <ele>1782.0</ele>
      </trkpt>
      <trkpt lat="44.612953" lon="6.226993">
        <time>2021-12-29T10:39:28+00:00</time>
        <ele>1782.0</ele>
      </trkpt>
      <trkpt lat="44.612951" lon="6.226962">
        <time>2021-12-29T10:39:31+00:00</time>
        <ele>1783.0</ele>
      </trkpt>
      <trkpt lat="44.612948" lon="6.226955">
        <time>2021-12-29T10:39:32+00:00</time>
        <ele>1783.0</ele>
      </trkpt>
      <trkpt lat="44.61295" lon="6.226948">
        <time>2021-12-29T10:39:33+00:00</time>
        <ele>1784.0</ele>
      </trkpt>
      <trkpt lat="44.612954" lon="6.226945">
        <time>2021-12-29T10:39:34+00:00</time>
        <ele>1784.0</ele>
      </trkpt>
      <trkpt lat="44.612958" lon="6.226912">
        <time>2021-12-29T10:39:37+00:00</time>
        <ele>1784.0</ele>
      </trkpt>
      <trkpt lat="44.612961" lon="6.226906">
        <time>2021-12-29T10:39:38+00:00</time>
        <ele>1784.0</ele>
      </trkpt>
      <trkpt lat="44.612997" lon="6.226844">
        <time>2021-12-29T10:39:43+00:00</time>
        <ele>1785.0</ele>
      </trkpt>
      <trkpt lat="44.613006" lon="6.226831">
        <time>2021-12-29T10:39:44+00:00</time>
        <ele>1785.0</ele>
      </trkpt>
      <trkpt lat="44.613014" lon="6.226802">
        <time>2021-12-29T10:39:46+00:00</time>
        <ele>1785.0</ele>
      </trkpt>
      <trkpt lat="44.61303" lon="6.226747">
        <time>2021-12-29T10:39:50+00:00</time>
        <ele>1786.0</ele>
      </trkpt>
      <trkpt lat="44.613041" lon="6.226732">
        <time>2021-12-29T10:39:51+00:00</time>
        <ele>1786.0</ele>
      </trkpt>
      <trkpt lat="44.613088" lon="6.226698">
        <time>2021-12-29T10:39:56+00:00</time>
        <ele>1786.0</ele>
      </trkpt>
      <trkpt lat="44.61311" lon="6.226665">
        <time>2021-12-29T10:40:02+00:00</time>
        <ele>1786.0</ele>
      </trkpt>
      <trkpt lat="44.613111" lon="6.22666">
        <time>2021-12-29T10:40:03+00:00</time>
        <ele>1786.0</ele>
      </trkpt>
      <trkpt lat="44.613138" lon="6.226627">
        <time>2021-12-29T10:40:08+00:00</time>
        <ele>1787.0</ele>
      </trkpt>
      <trkpt lat="44.61315" lon="6.226617">
        <time>2021-12-29T10:40:10+00:00</time>
        <ele>1787.0</ele>
      </trkpt>
      <trkpt lat="44.613131" lon="6.226568">
        <time>2021-12-29T10:40:14+00:00</time>
        <ele>1789.0</ele>
      </trkpt>
      <trkpt lat="44.613133" lon="6.226557">
        <time>2021-12-29T10:40:15+00:00</time>
        <ele>1789.0</ele>
      </trkpt>
      <trkpt lat="44.613137" lon="6.226545">
        <time>2021-12-29T10:40:16+00:00</time>
        <ele>1790.0</ele>
      </trkpt>
      <trkpt lat="44.613136" lon="6.226517">
        <time>2021-12-29T10:40:18+00:00</time>
        <ele>1791.0</ele>
      </trkpt>
      <trkpt lat="44.613141" lon="6.226501">
        <time>2021-12-29T10:40:20+00:00</time>
        <ele>1791.0</ele>
      </trkpt>
      <trkpt lat="44.613143" lon="6.226496">
        <time>2021-12-29T10:40:21+00:00</time>
        <ele>1791.0</ele>
      </trkpt>
      <trkpt lat="44.613157" lon="6.226484">
        <time>2021-12-29T10:40:24+00:00</time>
        <ele>1791.0</ele>
      </trkpt>
      <trkpt lat="44.613155" lon="6.226461">
        <time>2021-12-29T10:40:26+00:00</time>
        <ele>1792.0</ele>
      </trkpt>
      <trkpt lat="44.613158" lon="6.226441">
        <time>2021-12-29T10:40:28+00:00</time>
        <ele>1793.0</ele>
      </trkpt>
      <trkpt lat="44.613176" lon="6.226424">
        <time>2021-12-29T10:40:32+00:00</time>
        <ele>1793.0</ele>
      </trkpt>
      <trkpt lat="44.613177" lon="6.226407">
        <time>2021-12-29T10:40:36+00:00</time>
        <ele>1794.0</ele>
      </trkpt>
      <trkpt lat="44.613176" lon="6.226395">
        <time>2021-12-29T10:40:37+00:00</time>
        <ele>1794.0</ele>
      </trkpt>
      <trkpt lat="44.613174" lon="6.226385">
        <time>2021-12-29T10:40:38+00:00</time>
        <ele>1794.0</ele>
      </trkpt>
      <trkpt lat="44.613168" lon="6.226374">
        <time>2021-12-29T10:40:39+00:00</time>
        <ele>1795.0</ele>
      </trkpt>
      <trkpt lat="44.613163" lon="6.226363">
        <time>2021-12-29T10:40:40+00:00</time>
        <ele>1795.0</ele>
      </trkpt>
      <trkpt lat="44.613146" lon="6.226334">
        <time>2021-12-29T10:40:44+00:00</time>
        <ele>1796.0</ele>
      </trkpt>
      <trkpt lat="44.613142" lon="6.226318">
        <time>2021-12-29T10:40:47+00:00</time>
        <ele>1796.0</ele>
      </trkpt>
      <trkpt lat="44.613139" lon="6.226281">
        <time>2021-12-29T10:40:50+00:00</time>
        <ele>1797.0</ele>
      </trkpt>
      <trkpt lat="44.613118" lon="6.226216">
        <time>2021-12-29T10:40:56+00:00</time>
        <ele>1799.0</ele>
      </trkpt>
      <trkpt lat="44.613096" lon="6.226153">
        <time>2021-12-29T10:41:02+00:00</time>
        <ele>1801.0</ele>
      </trkpt>
      <trkpt lat="44.613093" lon="6.226144">
        <time>2021-12-29T10:41:03+00:00</time>
        <ele>1801.0</ele>
      </trkpt>
      <trkpt lat="44.613078" lon="6.226112">
        <time>2021-12-29T10:41:08+00:00</time>
        <ele>1801.0</ele>
      </trkpt>
      <trkpt lat="44.61307" lon="6.226111">
        <time>2021-12-29T10:41:10+00:00</time>
        <ele>1801.0</ele>
      </trkpt>
      <trkpt lat="44.613063" lon="6.226103">
        <time>2021-12-29T10:41:14+00:00</time>
        <ele>1801.0</ele>
      </trkpt>
      <trkpt lat="44.61307" lon="6.2261">
        <time>2021-12-29T10:41:18+00:00</time>
        <ele>1801.0</ele>
      </trkpt>
      <trkpt lat="44.613074" lon="6.2261">
        <time>2021-12-29T10:41:20+00:00</time>
        <ele>1801.0</ele>
      </trkpt>
      <trkpt lat="44.613074" lon="6.226102">
        <time>2021-12-29T10:41:26+00:00</time>
        <ele>1801.0</ele>
      </trkpt>
      <trkpt lat="44.613074" lon="6.226102">
        <time>2021-12-29T10:41:33+00:00</time>
        <ele>1801.0</ele>
      </trkpt>
      <trkpt lat="44.613074" lon="6.226102">
        <time>2021-12-29T10:41:35+00:00</time>
        <ele>1801.0</ele>
      </trkpt>
      <trkpt lat="44.613074" lon="6.226107">
        <time>2021-12-29T10:41:40+00:00</time>
        <ele>1801.0</ele>
      </trkpt>
      <trkpt lat="44.613074" lon="6.226108">
        <time>2021-12-29T10:41:41+00:00</time>
        <ele>1801.0</ele>
      </trkpt>
      <trkpt lat="44.613075" lon="6.22611">
        <time>2021-12-29T10:41:46+00:00</time>
        <ele>1801.0</ele>
      </trkpt>
      <trkpt lat="44.613075" lon="6.22611">
        <time>2021-12-29T10:41:47+00:00</time>
        <ele>1801.0</ele>
      </trkpt>
      <trkpt lat="44.613075" lon="6.226111">
        <time>2021-12-29T10:41:48+00:00</time>
        <ele>1801.0</ele>
      </trkpt>
      <trkpt lat="44.613076" lon="6.226111">
        <time>2021-12-29T10:41:50+00:00</time>
        <ele>1801.0</ele>
      </trkpt>
      <trkpt lat="44.613076" lon="6.226112">
        <time>2021-12-29T10:41:51+00:00</time>
        <ele>1801.0</ele>
      </trkpt>
      <trkpt lat="44.613076" lon="6.226113">
        <time>2021-12-29T10:41:53+00:00</time>
        <ele>1801.0</ele>
      </trkpt>
      <trkpt lat="44.613076" lon="6.226114">
        <time>2021-12-29T10:41:56+00:00</time>
        <ele>1801.0</ele>
      </trkpt>
      <trkpt lat="44.613077" lon="6.226117">
        <time>2021-12-29T10:41:59+00:00</time>
        <ele>1801.0</ele>
      </trkpt>
      <trkpt lat="44.613083" lon="6.226128">
        <time>2021-12-29T10:42:02+00:00</time>
        <ele>1801.0</ele>
      </trkpt>
      <trkpt lat="44.613092" lon="6.226135">
        <time>2021-12-29T10:42:08+00:00</time>
        <ele>1801.0</ele>
      </trkpt>
      <trkpt lat="44.613099" lon="6.226135">
        <time>2021-12-29T10:42:18+00:00</time>
        <ele>1801.0</ele>
      </trkpt>
      <trkpt lat="44.613102" lon="6.226134">
        <time>2021-12-29T10:42:25+00:00</time>
        <ele>1801.0</ele>
      </trkpt>
      <trkpt lat="44.613102" lon="6.226132">
        <time>2021-12-29T10:42:29+00:00</time>
        <ele>1801.0</ele>
      </trkpt>
      <trkpt lat="44.6131" lon="6.226124">
        <time>2021-12-29T10:42:38+00:00</time>
        <ele>1801.0</ele>
      </trkpt>
      <trkpt lat="44.613099" lon="6.226123">
        <time>2021-12-29T10:42:41+00:00</time>
        <ele>1801.0</ele>
      </trkpt>
      <trkpt lat="44.613095" lon="6.226123">
        <time>2021-12-29T10:42:55+00:00</time>
        <ele>1801.0</ele>
      </trkpt>
      <trkpt lat="44.613093" lon="6.226142">
        <time>2021-12-29T10:43:03+00:00</time>
        <ele>1801.0</ele>
      </trkpt>
      <trkpt lat="44.613089" lon="6.226154">
        <time>2021-12-29T10:43:08+00:00</time>
        <ele>1801.0</ele>
      </trkpt>
      <trkpt lat="44.613086" lon="6.226155">
        <time>2021-12-29T10:43:11+00:00</time>
        <ele>1801.0</ele>
      </trkpt>
      <trkpt lat="44.613084" lon="6.226156">
        <time>2021-12-29T10:43:14+00:00</time>
        <ele>1801.0</ele>
      </trkpt>
      <trkpt lat="44.613083" lon="6.226157">
        <time>2021-12-29T10:43:16+00:00</time>
        <ele>1801.0</ele>
      </trkpt>
      <trkpt lat="44.613083" lon="6.226159">
        <time>2021-12-29T10:43:19+00:00</time>
        <ele>1801.0</ele>
      </trkpt>
      <trkpt lat="44.613083" lon="6.226159">
        <time>2021-12-29T10:43:21+00:00</time>
        <ele>1801.0</ele>
      </trkpt>
      <trkpt lat="44.613087" lon="6.226161">
        <time>2021-12-29T10:43:32+00:00</time>
        <ele>1801.0</ele>
      </trkpt>
      <trkpt lat="44.613096" lon="6.226161">
        <time>2021-12-29T10:43:36+00:00</time>
        <ele>1801.0</ele>
      </trkpt>
      <trkpt lat="44.613101" lon="6.226161">
        <time>2021-12-29T10:43:43+00:00</time>
        <ele>1801.0</ele>
      </trkpt>
      <trkpt lat="44.613107" lon="6.226146">
        <time>2021-12-29T10:43:59+00:00</time>
        <ele>1801.0</ele>
      </trkpt>
      <trkpt lat="44.613105" lon="6.226117">
        <time>2021-12-29T10:44:10+00:00</time>
        <ele>1801.0</ele>
      </trkpt>
      <trkpt lat="44.613096" lon="6.226104">
        <time>2021-12-29T10:44:32+00:00</time>
        <ele>1801.0</ele>
      </trkpt>
      <trkpt lat="44.613102" lon="6.226089">
        <time>2021-12-29T10:45:08+00:00</time>
        <ele>1801.0</ele>
      </trkpt>
      <trkpt lat="44.613102" lon="6.226088">
        <time>2021-12-29T10:45:12+00:00</time>
        <ele>1801.0</ele>
      </trkpt>
      <trkpt lat="44.613102" lon="6.226087">
        <time>2021-12-29T10:45:16+00:00</time>
        <ele>1801.0</ele>
      </trkpt>
    </trkseg>
  </trk>
</gpx>
